<?xml version="1.0" encoding="UTF-8" standalone="no" ?>
<gpx xmlns="http://www.topografix.com/GPX/1/1" xmlns:xsi="http://www.w3.org/2001/XMLSchema-instance" xsi:schemaLocation="http://www.topografix.com/GPX/1/1 http://www.topografix.com/GPX/1/1/gpx.xsd" version="1.1" creator="VisuGPX - https://www.visugpx.com">
  <metadata>
    <name>Propières - Circuit Fleche noire</name>
    <desc><![CDATA[Boucle dans le haut beaujolais]]></desc>
  </metadata>
  <trk>
    <name><![CDATA[Move]]></name>
    <trkseg>
      <trkpt lat="46.19087" lon="4.43753">
        <ele>669</ele>
        <time>2016-09-04T08:20:14.589Z</time>
      </trkpt>
      <trkpt lat="46.19087" lon="4.43753">
        <ele>669</ele>
        <time>2016-09-04T08:20:16.589Z</time>
      </trkpt>
      <trkpt lat="46.19087" lon="4.43747">
        <ele>669</ele>
        <time>2016-09-04T08:20:38.589Z</time>
      </trkpt>
      <trkpt lat="46.19086" lon="4.43742">
        <ele>669</ele>
        <time>2016-09-04T08:20:47.589Z</time>
      </trkpt>
      <trkpt lat="46.19082" lon="4.43743">
        <ele>668</ele>
        <time>2016-09-04T08:21:20.589Z</time>
      </trkpt>
      <trkpt lat="46.19079" lon="4.43743">
        <ele>669</ele>
        <time>2016-09-04T08:22:41.589Z</time>
      </trkpt>
      <trkpt lat="46.19065" lon="4.43754">
        <ele>669</ele>
        <time>2016-09-04T08:22:53.861Z</time>
      </trkpt>
      <trkpt lat="46.19056" lon="4.4376">
        <ele>670</ele>
        <time>2016-09-04T08:23:01.589Z</time>
      </trkpt>
      <trkpt lat="46.19052" lon="4.43778">
        <ele>670</ele>
        <time>2016-09-04T08:23:10.492Z</time>
      </trkpt>
      <trkpt lat="46.19058" lon="4.43793">
        <ele>670</ele>
        <time>2016-09-04T08:23:19.666Z</time>
      </trkpt>
      <trkpt lat="46.1906" lon="4.43806">
        <ele>670</ele>
        <time>2016-09-04T08:23:27.589Z</time>
      </trkpt>
      <trkpt lat="46.19063" lon="4.43819">
        <ele>672</ele>
        <time>2016-09-04T08:23:36.589Z</time>
      </trkpt>
      <trkpt lat="46.19066" lon="4.43832">
        <ele>672</ele>
        <time>2016-09-04T08:23:44.589Z</time>
      </trkpt>
      <trkpt lat="46.19073" lon="4.43847">
        <ele>675</ele>
        <time>2016-09-04T08:24:01.620Z</time>
      </trkpt>
      <trkpt lat="46.19075" lon="4.4386">
        <ele>675</ele>
        <time>2016-09-04T08:24:06.589Z</time>
      </trkpt>
      <trkpt lat="46.19073" lon="4.43877">
        <ele>675</ele>
        <time>2016-09-04T08:24:16.618Z</time>
      </trkpt>
      <trkpt lat="46.19064" lon="4.43883">
        <ele>676</ele>
        <time>2016-09-04T08:24:22.587Z</time>
      </trkpt>
      <trkpt lat="46.19059" lon="4.43898">
        <ele>676</ele>
        <time>2016-09-04T08:24:28.698Z</time>
      </trkpt>
      <trkpt lat="46.19059" lon="4.43914">
        <ele>676</ele>
        <time>2016-09-04T08:24:39.692Z</time>
      </trkpt>
      <trkpt lat="46.19046" lon="4.43917">
        <ele>676</ele>
        <time>2016-09-04T08:24:44.587Z</time>
      </trkpt>
      <trkpt lat="46.19036" lon="4.43928">
        <ele>677</ele>
        <time>2016-09-04T08:24:55.622Z</time>
      </trkpt>
      <trkpt lat="46.19031" lon="4.43942">
        <ele>678</ele>
        <time>2016-09-04T08:25:04.589Z</time>
      </trkpt>
      <trkpt lat="46.19028" lon="4.43955">
        <ele>679</ele>
        <time>2016-09-04T08:25:10.589Z</time>
      </trkpt>
      <trkpt lat="46.19022" lon="4.43967">
        <ele>679</ele>
        <time>2016-09-04T08:25:19.820Z</time>
      </trkpt>
      <trkpt lat="46.19022" lon="4.4398">
        <ele>679</ele>
        <time>2016-09-04T08:25:27.589Z</time>
      </trkpt>
      <trkpt lat="46.19022" lon="4.43993">
        <ele>679</ele>
        <time>2016-09-04T08:25:36.589Z</time>
      </trkpt>
      <trkpt lat="46.19023" lon="4.44007">
        <ele>681</ele>
        <time>2016-09-04T08:25:47.589Z</time>
      </trkpt>
      <trkpt lat="46.19026" lon="4.44024">
        <ele>682</ele>
        <time>2016-09-04T08:25:57.667Z</time>
      </trkpt>
      <trkpt lat="46.19025" lon="4.44037">
        <ele>682</ele>
        <time>2016-09-04T08:26:04.589Z</time>
      </trkpt>
      <trkpt lat="46.19028" lon="4.4405">
        <ele>683</ele>
        <time>2016-09-04T08:26:12.093Z</time>
      </trkpt>
      <trkpt lat="46.19029" lon="4.44065">
        <ele>683.25762572135</ele>
        <time>2016-09-04T08:26:20.562Z</time>
      </trkpt>
      <trkpt lat="46.19026" lon="4.44079">
        <ele>685</ele>
        <time>2016-09-04T08:26:27.589Z</time>
      </trkpt>
      <trkpt lat="46.19027" lon="4.44092">
        <ele>687</ele>
        <time>2016-09-04T08:26:37.563Z</time>
      </trkpt>
      <trkpt lat="46.19023" lon="4.44104">
        <ele>688</ele>
        <time>2016-09-04T08:26:42.588Z</time>
      </trkpt>
      <trkpt lat="46.19016" lon="4.44116">
        <ele>688</ele>
        <time>2016-09-04T08:26:49.588Z</time>
      </trkpt>
      <trkpt lat="46.19014" lon="4.44131">
        <ele>691</ele>
        <time>2016-09-04T08:26:59.589Z</time>
      </trkpt>
      <trkpt lat="46.1901" lon="4.44145">
        <ele>691</ele>
        <time>2016-09-04T08:27:09.121Z</time>
      </trkpt>
      <trkpt lat="46.19011" lon="4.44159">
        <ele>693</ele>
        <time>2016-09-04T08:27:16.589Z</time>
      </trkpt>
      <trkpt lat="46.19008" lon="4.44171">
        <ele>695</ele>
        <time>2016-09-04T08:27:26.589Z</time>
      </trkpt>
      <trkpt lat="46.19" lon="4.44181">
        <ele>695</ele>
        <time>2016-09-04T08:27:33.693Z</time>
      </trkpt>
      <trkpt lat="46.18992" lon="4.44196">
        <ele>698.98124</ele>
        <time>2016-09-04T08:27:47.618Z</time>
      </trkpt>
      <trkpt lat="46.18989" lon="4.44208">
        <ele>700</ele>
        <time>2016-09-04T08:27:58.589Z</time>
      </trkpt>
      <trkpt lat="46.18995" lon="4.44226">
        <ele>701.69314208809</ele>
        <time>2016-09-04T08:28:11.563Z</time>
      </trkpt>
      <trkpt lat="46.18986" lon="4.44233">
        <ele>702</ele>
        <time>2016-09-04T08:28:17.066Z</time>
      </trkpt>
      <trkpt lat="46.18993" lon="4.44242">
        <ele>704</ele>
        <time>2016-09-04T08:28:24.589Z</time>
      </trkpt>
      <trkpt lat="46.18994" lon="4.44257">
        <ele>705</ele>
        <time>2016-09-04T08:28:33.589Z</time>
      </trkpt>
      <trkpt lat="46.18993" lon="4.44271">
        <ele>707</ele>
        <time>2016-09-04T08:28:42.589Z</time>
      </trkpt>
      <trkpt lat="46.18989" lon="4.44284">
        <ele>709</ele>
        <time>2016-09-04T08:28:51.589Z</time>
      </trkpt>
      <trkpt lat="46.18988" lon="4.44298">
        <ele>710</ele>
        <time>2016-09-04T08:29:00.589Z</time>
      </trkpt>
      <trkpt lat="46.18983" lon="4.44311">
        <ele>711.4628616011</ele>
        <time>2016-09-04T08:29:10.118Z</time>
      </trkpt>
      <trkpt lat="46.18984" lon="4.44326">
        <ele>712</ele>
        <time>2016-09-04T08:29:18.619Z</time>
      </trkpt>
      <trkpt lat="46.1898" lon="4.44344">
        <ele>713</ele>
        <time>2016-09-04T08:29:26.089Z</time>
      </trkpt>
      <trkpt lat="46.18977" lon="4.44356">
        <ele>714.23203966745</ele>
        <time>2016-09-04T08:29:39.589Z</time>
      </trkpt>
      <trkpt lat="46.18972" lon="4.44368">
        <ele>716</ele>
        <time>2016-09-04T08:29:49.589Z</time>
      </trkpt>
      <trkpt lat="46.18965" lon="4.44377">
        <ele>716</ele>
        <time>2016-09-04T08:29:56.589Z</time>
      </trkpt>
      <trkpt lat="46.1896" lon="4.4439">
        <ele>719</ele>
        <time>2016-09-04T08:30:04.589Z</time>
      </trkpt>
      <trkpt lat="46.18955" lon="4.44402">
        <ele>720</ele>
        <time>2016-09-04T08:30:15.589Z</time>
      </trkpt>
      <trkpt lat="46.18949" lon="4.44414">
        <ele>721</ele>
        <time>2016-09-04T08:30:24.589Z</time>
      </trkpt>
      <trkpt lat="46.18943" lon="4.44425">
        <ele>723</ele>
        <time>2016-09-04T08:30:32.589Z</time>
      </trkpt>
      <trkpt lat="46.18937" lon="4.44435">
        <ele>723</ele>
        <time>2016-09-04T08:30:39.589Z</time>
      </trkpt>
      <trkpt lat="46.1893" lon="4.44446">
        <ele>723</ele>
        <time>2016-09-04T08:30:46.589Z</time>
      </trkpt>
      <trkpt lat="46.18923" lon="4.44456">
        <ele>724</ele>
        <time>2016-09-04T08:30:56.589Z</time>
      </trkpt>
      <trkpt lat="46.18915" lon="4.44461">
        <ele>725</ele>
        <time>2016-09-04T08:31:05.589Z</time>
      </trkpt>
      <trkpt lat="46.18905" lon="4.44459">
        <ele>727</ele>
        <time>2016-09-04T08:31:13.522Z</time>
      </trkpt>
      <trkpt lat="46.18895" lon="4.44457">
        <ele>727.04758079466</ele>
        <time>2016-09-04T08:31:20.619Z</time>
      </trkpt>
      <trkpt lat="46.18888" lon="4.44448">
        <ele>728</ele>
        <time>2016-09-04T08:31:24.589Z</time>
      </trkpt>
      <trkpt lat="46.18878" lon="4.44447">
        <ele>730</ele>
        <time>2016-09-04T08:31:34.587Z</time>
      </trkpt>
      <trkpt lat="46.18869" lon="4.44438">
        <ele>732</ele>
        <time>2016-09-04T08:31:45.589Z</time>
      </trkpt>
      <trkpt lat="46.1886" lon="4.44434">
        <ele>732</ele>
        <time>2016-09-04T08:31:51.616Z</time>
      </trkpt>
      <trkpt lat="46.1885" lon="4.44429">
        <ele>732</ele>
        <time>2016-09-04T08:31:59.589Z</time>
      </trkpt>
      <trkpt lat="46.18842" lon="4.44417">
        <ele>733</ele>
        <time>2016-09-04T08:32:12.618Z</time>
      </trkpt>
      <trkpt lat="46.18834" lon="4.44409">
        <ele>733</ele>
        <time>2016-09-04T08:32:19.589Z</time>
      </trkpt>
      <trkpt lat="46.18826" lon="4.44402">
        <ele>733</ele>
        <time>2016-09-04T08:32:28.589Z</time>
      </trkpt>
      <trkpt lat="46.1882" lon="4.44392">
        <ele>734</ele>
        <time>2016-09-04T08:32:36.590Z</time>
      </trkpt>
      <trkpt lat="46.1881" lon="4.44386">
        <ele>734</ele>
        <time>2016-09-04T08:32:44.614Z</time>
      </trkpt>
      <trkpt lat="46.18801" lon="4.44384">
        <ele>734</ele>
        <time>2016-09-04T08:32:56.589Z</time>
      </trkpt>
      <trkpt lat="46.18793" lon="4.44376">
        <ele>734</ele>
        <time>2016-09-04T08:33:03.618Z</time>
      </trkpt>
      <trkpt lat="46.18784" lon="4.44382">
        <ele>734</ele>
        <time>2016-09-04T08:33:08.589Z</time>
      </trkpt>
      <trkpt lat="46.18775" lon="4.44383">
        <ele>735</ele>
        <time>2016-09-04T08:33:13.589Z</time>
      </trkpt>
      <trkpt lat="46.18766" lon="4.44382">
        <ele>736</ele>
        <time>2016-09-04T08:33:23.722Z</time>
      </trkpt>
      <trkpt lat="46.18757" lon="4.44389">
        <ele>736</ele>
        <time>2016-09-04T08:33:27.589Z</time>
      </trkpt>
      <trkpt lat="46.18745" lon="4.44394">
        <ele>736</ele>
        <time>2016-09-04T08:33:36.795Z</time>
      </trkpt>
      <trkpt lat="46.18736" lon="4.44401">
        <ele>736</ele>
        <time>2016-09-04T08:33:38.589Z</time>
      </trkpt>
      <trkpt lat="46.18726" lon="4.44401">
        <ele>736</ele>
        <time>2016-09-04T08:33:49.589Z</time>
      </trkpt>
      <trkpt lat="46.18716" lon="4.44397">
        <ele>737</ele>
        <time>2016-09-04T08:33:58.589Z</time>
      </trkpt>
      <trkpt lat="46.18707" lon="4.44392">
        <ele>738</ele>
        <time>2016-09-04T08:34:06.589Z</time>
      </trkpt>
      <trkpt lat="46.18698" lon="4.44388">
        <ele>738</ele>
        <time>2016-09-04T08:34:15.589Z</time>
      </trkpt>
      <trkpt lat="46.18688" lon="4.44385">
        <ele>739</ele>
        <time>2016-09-04T08:34:24.589Z</time>
      </trkpt>
      <trkpt lat="46.18679" lon="4.44386">
        <ele>740</ele>
        <time>2016-09-04T08:34:32.589Z</time>
      </trkpt>
      <trkpt lat="46.18669" lon="4.44386">
        <ele>742</ele>
        <time>2016-09-04T08:34:41.589Z</time>
      </trkpt>
      <trkpt lat="46.18659" lon="4.44383">
        <ele>742</ele>
        <time>2016-09-04T08:34:48.589Z</time>
      </trkpt>
      <trkpt lat="46.1865" lon="4.44382">
        <ele>742</ele>
        <time>2016-09-04T08:34:56.589Z</time>
      </trkpt>
      <trkpt lat="46.18641" lon="4.44385">
        <ele>743</ele>
        <time>2016-09-04T08:35:04.589Z</time>
      </trkpt>
      <trkpt lat="46.18632" lon="4.44388">
        <ele>744</ele>
        <time>2016-09-04T08:35:12.589Z</time>
      </trkpt>
      <trkpt lat="46.18623" lon="4.44393">
        <ele>745</ele>
        <time>2016-09-04T08:35:20.589Z</time>
      </trkpt>
      <trkpt lat="46.18613" lon="4.44397">
        <ele>745.22980923077</ele>
        <time>2016-09-04T08:35:29.589Z</time>
      </trkpt>
      <trkpt lat="46.18606" lon="4.44406">
        <ele>746</ele>
        <time>2016-09-04T08:35:46.589Z</time>
      </trkpt>
      <trkpt lat="46.18597" lon="4.44414">
        <ele>747</ele>
        <time>2016-09-04T08:35:57.589Z</time>
      </trkpt>
      <trkpt lat="46.18588" lon="4.44421">
        <ele>747</ele>
        <time>2016-09-04T08:36:09.589Z</time>
      </trkpt>
      <trkpt lat="46.18579" lon="4.44427">
        <ele>749</ele>
        <time>2016-09-04T08:36:19.589Z</time>
      </trkpt>
      <trkpt lat="46.18571" lon="4.44435">
        <ele>749</ele>
        <time>2016-09-04T08:36:25.691Z</time>
      </trkpt>
      <trkpt lat="46.18565" lon="4.44445">
        <ele>750</ele>
        <time>2016-09-04T08:36:47.589Z</time>
      </trkpt>
      <trkpt lat="46.18553" lon="4.44458">
        <ele>751</ele>
        <time>2016-09-04T08:37:08.893Z</time>
      </trkpt>
      <trkpt lat="46.18538" lon="4.44471">
        <ele>752</ele>
        <time>2016-09-04T08:37:22.920Z</time>
      </trkpt>
      <trkpt lat="46.18532" lon="4.44485">
        <ele>752.40055243632</ele>
        <time>2016-09-04T08:37:31.924Z</time>
      </trkpt>
      <trkpt lat="46.18522" lon="4.44486">
        <ele>753</ele>
        <time>2016-09-04T08:37:38.122Z</time>
      </trkpt>
      <trkpt lat="46.18516" lon="4.44496">
        <ele>754</ele>
        <time>2016-09-04T08:37:46.220Z</time>
      </trkpt>
      <trkpt lat="46.1851" lon="4.44505">
        <ele>756</ele>
        <time>2016-09-04T08:37:55.589Z</time>
      </trkpt>
      <trkpt lat="46.18503" lon="4.44514">
        <ele>755</ele>
        <time>2016-09-04T08:38:01.589Z</time>
      </trkpt>
      <trkpt lat="46.18497" lon="4.44525">
        <ele>756</ele>
        <time>2016-09-04T08:38:11.589Z</time>
      </trkpt>
      <trkpt lat="46.1849" lon="4.44535">
        <ele>756</ele>
        <time>2016-09-04T08:38:18.589Z</time>
      </trkpt>
      <trkpt lat="46.18483" lon="4.44547">
        <ele>757</ele>
        <time>2016-09-04T08:38:28.589Z</time>
      </trkpt>
      <trkpt lat="46.18475" lon="4.44552">
        <ele>757</ele>
        <time>2016-09-04T08:38:33.589Z</time>
      </trkpt>
      <trkpt lat="46.18467" lon="4.44558">
        <ele>757</ele>
        <time>2016-09-04T08:38:38.589Z</time>
      </trkpt>
      <trkpt lat="46.18459" lon="4.44565">
        <ele>757</ele>
        <time>2016-09-04T08:38:44.589Z</time>
      </trkpt>
      <trkpt lat="46.18453" lon="4.44577">
        <ele>758</ele>
        <time>2016-09-04T08:38:52.589Z</time>
      </trkpt>
      <trkpt lat="46.18447" lon="4.4459">
        <ele>758</ele>
        <time>2016-09-04T08:38:58.693Z</time>
      </trkpt>
      <trkpt lat="46.18439" lon="4.44597">
        <ele>758</ele>
        <time>2016-09-04T08:39:08.589Z</time>
      </trkpt>
      <trkpt lat="46.18433" lon="4.44607">
        <ele>758.24311851191</ele>
        <time>2016-09-04T08:39:19.615Z</time>
      </trkpt>
      <trkpt lat="46.18423" lon="4.44616">
        <ele>759.25333510321</ele>
        <time>2016-09-04T08:39:29.692Z</time>
      </trkpt>
      <trkpt lat="46.18416" lon="4.44627">
        <ele>760</ele>
        <time>2016-09-04T08:39:37.564Z</time>
      </trkpt>
      <trkpt lat="46.18407" lon="4.44636">
        <ele>760</ele>
        <time>2016-09-04T08:39:47.094Z</time>
      </trkpt>
      <trkpt lat="46.18401" lon="4.44646">
        <ele>761</ele>
        <time>2016-09-04T08:39:53.615Z</time>
      </trkpt>
      <trkpt lat="46.18392" lon="4.44665">
        <ele>761</ele>
        <time>2016-09-04T08:40:05.119Z</time>
      </trkpt>
      <trkpt lat="46.18385" lon="4.44676">
        <ele>762</ele>
        <time>2016-09-04T08:40:17.020Z</time>
      </trkpt>
      <trkpt lat="46.1838" lon="4.44688">
        <ele>763</ele>
        <time>2016-09-04T08:40:27.589Z</time>
      </trkpt>
      <trkpt lat="46.18375" lon="4.447">
        <ele>764</ele>
        <time>2016-09-04T08:40:35.589Z</time>
      </trkpt>
      <trkpt lat="46.18371" lon="4.44712">
        <ele>766</ele>
        <time>2016-09-04T08:40:42.589Z</time>
      </trkpt>
      <trkpt lat="46.18367" lon="4.44725">
        <ele>766.89237173036</ele>
        <time>2016-09-04T08:40:50.589Z</time>
      </trkpt>
      <trkpt lat="46.18361" lon="4.44738">
        <ele>767</ele>
        <time>2016-09-04T08:40:57.589Z</time>
      </trkpt>
      <trkpt lat="46.18357" lon="4.44751">
        <ele>767</ele>
        <time>2016-09-04T08:41:05.589Z</time>
      </trkpt>
      <trkpt lat="46.18352" lon="4.44762">
        <ele>768</ele>
        <time>2016-09-04T08:41:14.589Z</time>
      </trkpt>
      <trkpt lat="46.18348" lon="4.44774">
        <ele>769</ele>
        <time>2016-09-04T08:41:21.589Z</time>
      </trkpt>
      <trkpt lat="46.18344" lon="4.44787">
        <ele>769</ele>
        <time>2016-09-04T08:41:29.589Z</time>
      </trkpt>
      <trkpt lat="46.18339" lon="4.44798">
        <ele>769</ele>
        <time>2016-09-04T08:41:36.589Z</time>
      </trkpt>
      <trkpt lat="46.18334" lon="4.44815">
        <ele>771</ele>
        <time>2016-09-04T08:41:48.863Z</time>
      </trkpt>
      <trkpt lat="46.18327" lon="4.44822">
        <ele>773</ele>
        <time>2016-09-04T08:41:56.716Z</time>
      </trkpt>
      <trkpt lat="46.18327" lon="4.44837">
        <ele>774.2390016</ele>
        <time>2016-09-04T08:42:04.589Z</time>
      </trkpt>
      <trkpt lat="46.18326" lon="4.44851">
        <ele>775.17282782609</ele>
        <time>2016-09-04T08:42:14.589Z</time>
      </trkpt>
      <trkpt lat="46.18325" lon="4.44864">
        <ele>777</ele>
        <time>2016-09-04T08:42:25.589Z</time>
      </trkpt>
      <trkpt lat="46.18323" lon="4.44878">
        <ele>777</ele>
        <time>2016-09-04T08:42:32.589Z</time>
      </trkpt>
      <trkpt lat="46.1832" lon="4.4489">
        <ele>778</ele>
        <time>2016-09-04T08:42:43.589Z</time>
      </trkpt>
      <trkpt lat="46.18318" lon="4.44904">
        <ele>782</ele>
        <time>2016-09-04T08:42:55.589Z</time>
      </trkpt>
      <trkpt lat="46.18316" lon="4.44919">
        <ele>784</ele>
        <time>2016-09-04T08:43:03.993Z</time>
      </trkpt>
      <trkpt lat="46.18312" lon="4.44932">
        <ele>785</ele>
        <time>2016-09-04T08:43:10.589Z</time>
      </trkpt>
      <trkpt lat="46.18307" lon="4.44943">
        <ele>786</ele>
        <time>2016-09-04T08:43:20.589Z</time>
      </trkpt>
      <trkpt lat="46.18303" lon="4.44956">
        <ele>787</ele>
        <time>2016-09-04T08:43:31.589Z</time>
      </trkpt>
      <trkpt lat="46.18301" lon="4.44968">
        <ele>787</ele>
        <time>2016-09-04T08:43:40.589Z</time>
      </trkpt>
      <trkpt lat="46.18292" lon="4.44975">
        <ele>787</ele>
        <time>2016-09-04T08:43:49.589Z</time>
      </trkpt>
      <trkpt lat="46.18286" lon="4.44986">
        <ele>787</ele>
        <time>2016-09-04T08:43:57.589Z</time>
      </trkpt>
      <trkpt lat="46.18284" lon="4.44999">
        <ele>789</ele>
        <time>2016-09-04T08:44:06.589Z</time>
      </trkpt>
      <trkpt lat="46.18278" lon="4.45009">
        <ele>791</ele>
        <time>2016-09-04T08:44:14.589Z</time>
      </trkpt>
      <trkpt lat="46.18279" lon="4.45023">
        <ele>793</ele>
        <time>2016-09-04T08:44:25.589Z</time>
      </trkpt>
      <trkpt lat="46.18275" lon="4.45035">
        <ele>794</ele>
        <time>2016-09-04T08:44:34.589Z</time>
      </trkpt>
      <trkpt lat="46.18272" lon="4.45049">
        <ele>796</ele>
        <time>2016-09-04T08:44:43.589Z</time>
      </trkpt>
      <trkpt lat="46.18266" lon="4.45058">
        <ele>796</ele>
        <time>2016-09-04T08:44:51.589Z</time>
      </trkpt>
      <trkpt lat="46.18261" lon="4.45071">
        <ele>796</ele>
        <time>2016-09-04T08:45:02.589Z</time>
      </trkpt>
      <trkpt lat="46.18262" lon="4.45085">
        <ele>798</ele>
        <time>2016-09-04T08:45:12.589Z</time>
      </trkpt>
      <trkpt lat="46.18257" lon="4.45096">
        <ele>798.22980923077</ele>
        <time>2016-09-04T08:45:21.589Z</time>
      </trkpt>
      <trkpt lat="46.1826" lon="4.4511">
        <ele>799</ele>
        <time>2016-09-04T08:45:29.589Z</time>
      </trkpt>
      <trkpt lat="46.18257" lon="4.45123">
        <ele>799</ele>
        <time>2016-09-04T08:45:36.589Z</time>
      </trkpt>
      <trkpt lat="46.18253" lon="4.45134">
        <ele>800</ele>
        <time>2016-09-04T08:45:43.589Z</time>
      </trkpt>
      <trkpt lat="46.18251" lon="4.45148">
        <ele>802</ele>
        <time>2016-09-04T08:45:52.589Z</time>
      </trkpt>
      <trkpt lat="46.18247" lon="4.45161">
        <ele>802</ele>
        <time>2016-09-04T08:46:01.589Z</time>
      </trkpt>
      <trkpt lat="46.18241" lon="4.4517">
        <ele>802</ele>
        <time>2016-09-04T08:46:08.589Z</time>
      </trkpt>
      <trkpt lat="46.18236" lon="4.45181">
        <ele>803</ele>
        <time>2016-09-04T08:46:16.589Z</time>
      </trkpt>
      <trkpt lat="46.1823" lon="4.45199">
        <ele>804</ele>
        <time>2016-09-04T08:46:26.793Z</time>
      </trkpt>
      <trkpt lat="46.18223" lon="4.45213">
        <ele>805</ele>
        <time>2016-09-04T08:46:35.865Z</time>
      </trkpt>
      <trkpt lat="46.18215" lon="4.45224">
        <ele>806</ele>
        <time>2016-09-04T08:46:46.695Z</time>
      </trkpt>
      <trkpt lat="46.18214" lon="4.45238">
        <ele>807</ele>
        <time>2016-09-04T08:46:56.589Z</time>
      </trkpt>
      <trkpt lat="46.18209" lon="4.45252">
        <ele>808</ele>
        <time>2016-09-04T08:47:07.994Z</time>
      </trkpt>
      <trkpt lat="46.18204" lon="4.45265">
        <ele>809</ele>
        <time>2016-09-04T08:47:16.589Z</time>
      </trkpt>
      <trkpt lat="46.182" lon="4.45278">
        <ele>810</ele>
        <time>2016-09-04T08:47:26.589Z</time>
      </trkpt>
      <trkpt lat="46.18195" lon="4.45289">
        <ele>810</ele>
        <time>2016-09-04T08:47:34.589Z</time>
      </trkpt>
      <trkpt lat="46.18193" lon="4.45304">
        <ele>812</ele>
        <time>2016-09-04T08:47:42.589Z</time>
      </trkpt>
      <trkpt lat="46.1819" lon="4.45316">
        <ele>812</ele>
        <time>2016-09-04T08:47:52.589Z</time>
      </trkpt>
      <trkpt lat="46.18188" lon="4.45331">
        <ele>814</ele>
        <time>2016-09-04T08:48:02.589Z</time>
      </trkpt>
      <trkpt lat="46.18184" lon="4.45345">
        <ele>814</ele>
        <time>2016-09-04T08:48:11.589Z</time>
      </trkpt>
      <trkpt lat="46.1818" lon="4.45357">
        <ele>814</ele>
        <time>2016-09-04T08:48:19.589Z</time>
      </trkpt>
      <trkpt lat="46.18178" lon="4.45371">
        <ele>815</ele>
        <time>2016-09-04T08:48:29.589Z</time>
      </trkpt>
      <trkpt lat="46.18173" lon="4.45383">
        <ele>815</ele>
        <time>2016-09-04T08:48:35.589Z</time>
      </trkpt>
      <trkpt lat="46.1817" lon="4.45395">
        <ele>815</ele>
        <time>2016-09-04T08:48:43.589Z</time>
      </trkpt>
      <trkpt lat="46.18165" lon="4.45414">
        <ele>816</ele>
        <time>2016-09-04T08:48:55.623Z</time>
      </trkpt>
      <trkpt lat="46.18163" lon="4.45431">
        <ele>816</ele>
        <time>2016-09-04T08:49:03.692Z</time>
      </trkpt>
      <trkpt lat="46.18158" lon="4.45443">
        <ele>816</ele>
        <time>2016-09-04T08:49:32.589Z</time>
      </trkpt>
      <trkpt lat="46.18155" lon="4.45462">
        <ele>817</ele>
        <time>2016-09-04T08:49:43.620Z</time>
      </trkpt>
      <trkpt lat="46.1815" lon="4.45481">
        <ele>817</ele>
        <time>2016-09-04T08:49:56.691Z</time>
      </trkpt>
      <trkpt lat="46.18153" lon="4.45494">
        <ele>818</ele>
        <time>2016-09-04T08:50:05.589Z</time>
      </trkpt>
      <trkpt lat="46.18153" lon="4.45512">
        <ele>818</ele>
        <time>2016-09-04T08:50:15.818Z</time>
      </trkpt>
      <trkpt lat="46.1815" lon="4.45526">
        <ele>819</ele>
        <time>2016-09-04T08:50:25.589Z</time>
      </trkpt>
      <trkpt lat="46.18149" lon="4.45539">
        <ele>819</ele>
        <time>2016-09-04T08:50:37.589Z</time>
      </trkpt>
      <trkpt lat="46.18139" lon="4.45535">
        <ele>818</ele>
        <time>2016-09-04T08:51:08.894Z</time>
      </trkpt>
      <trkpt lat="46.18148" lon="4.45538">
        <ele>819</ele>
        <time>2016-09-04T08:51:14.589Z</time>
      </trkpt>
      <trkpt lat="46.18152" lon="4.45557">
        <ele>820</ele>
        <time>2016-09-04T08:51:23.694Z</time>
      </trkpt>
      <trkpt lat="46.18153" lon="4.45571">
        <ele>821</ele>
        <time>2016-09-04T08:51:33.589Z</time>
      </trkpt>
      <trkpt lat="46.18156" lon="4.45583">
        <ele>821</ele>
        <time>2016-09-04T08:51:42.589Z</time>
      </trkpt>
      <trkpt lat="46.1815" lon="4.45599">
        <ele>822</ele>
        <time>2016-09-04T08:51:53.622Z</time>
      </trkpt>
      <trkpt lat="46.18149" lon="4.45617">
        <ele>822</ele>
        <time>2016-09-04T08:52:02.589Z</time>
      </trkpt>
      <trkpt lat="46.18157" lon="4.45626">
        <ele>822</ele>
        <time>2016-09-04T08:52:08.560Z</time>
      </trkpt>
      <trkpt lat="46.18154" lon="4.4564">
        <ele>823</ele>
        <time>2016-09-04T08:52:16.591Z</time>
      </trkpt>
      <trkpt lat="46.18154" lon="4.45654">
        <ele>823</ele>
        <time>2016-09-04T08:52:25.590Z</time>
      </trkpt>
      <trkpt lat="46.18149" lon="4.45671">
        <ele>824</ele>
        <time>2016-09-04T08:52:32.591Z</time>
      </trkpt>
      <trkpt lat="46.18155" lon="4.45681">
        <ele>825</ele>
        <time>2016-09-04T08:52:42.615Z</time>
      </trkpt>
      <trkpt lat="46.18156" lon="4.45695">
        <ele>825</ele>
        <time>2016-09-04T08:52:50.589Z</time>
      </trkpt>
      <trkpt lat="46.18156" lon="4.45709">
        <ele>825.22336798536</ele>
        <time>2016-09-04T08:52:59.589Z</time>
      </trkpt>
      <trkpt lat="46.18158" lon="4.45722">
        <ele>826</ele>
        <time>2016-09-04T08:53:07.589Z</time>
      </trkpt>
      <trkpt lat="46.1816" lon="4.45736">
        <ele>827</ele>
        <time>2016-09-04T08:53:16.589Z</time>
      </trkpt>
      <trkpt lat="46.18159" lon="4.4575">
        <ele>827</ele>
        <time>2016-09-04T08:53:26.589Z</time>
      </trkpt>
      <trkpt lat="46.18161" lon="4.45763">
        <ele>829</ele>
        <time>2016-09-04T08:53:41.589Z</time>
      </trkpt>
      <trkpt lat="46.18166" lon="4.45774">
        <ele>829</ele>
        <time>2016-09-04T08:53:47.589Z</time>
      </trkpt>
      <trkpt lat="46.18163" lon="4.45788">
        <ele>831</ele>
        <time>2016-09-04T08:53:55.589Z</time>
      </trkpt>
      <trkpt lat="46.18164" lon="4.45802">
        <ele>832</ele>
        <time>2016-09-04T08:54:05.589Z</time>
      </trkpt>
      <trkpt lat="46.18169" lon="4.45813">
        <ele>832</ele>
        <time>2016-09-04T08:54:12.589Z</time>
      </trkpt>
      <trkpt lat="46.18171" lon="4.45826">
        <ele>832</ele>
        <time>2016-09-04T08:54:21.589Z</time>
      </trkpt>
      <trkpt lat="46.18176" lon="4.4584">
        <ele>832.16258718424</ele>
        <time>2016-09-04T08:54:29.589Z</time>
      </trkpt>
      <trkpt lat="46.18181" lon="4.45852">
        <ele>833</ele>
        <time>2016-09-04T08:54:35.589Z</time>
      </trkpt>
      <trkpt lat="46.18182" lon="4.45865">
        <ele>833</ele>
        <time>2016-09-04T08:54:42.589Z</time>
      </trkpt>
      <trkpt lat="46.18183" lon="4.45878">
        <ele>833</ele>
        <time>2016-09-04T08:54:51.589Z</time>
      </trkpt>
      <trkpt lat="46.18185" lon="4.45891">
        <ele>834</ele>
        <time>2016-09-04T08:55:01.589Z</time>
      </trkpt>
      <trkpt lat="46.18184" lon="4.45904">
        <ele>835</ele>
        <time>2016-09-04T08:55:12.589Z</time>
      </trkpt>
      <trkpt lat="46.18183" lon="4.45919">
        <ele>835</ele>
        <time>2016-09-04T08:55:20.589Z</time>
      </trkpt>
      <trkpt lat="46.18184" lon="4.45933">
        <ele>835</ele>
        <time>2016-09-04T08:55:29.589Z</time>
      </trkpt>
      <trkpt lat="46.18187" lon="4.45947">
        <ele>836</ele>
        <time>2016-09-04T08:55:36.589Z</time>
      </trkpt>
      <trkpt lat="46.18187" lon="4.4596">
        <ele>837</ele>
        <time>2016-09-04T08:55:42.589Z</time>
      </trkpt>
      <trkpt lat="46.1819" lon="4.45973">
        <ele>837</ele>
        <time>2016-09-04T08:55:47.589Z</time>
      </trkpt>
      <trkpt lat="46.18194" lon="4.45986">
        <ele>838</ele>
        <time>2016-09-04T08:56:00.589Z</time>
      </trkpt>
      <trkpt lat="46.182" lon="4.45997">
        <ele>838</ele>
        <time>2016-09-04T08:56:08.589Z</time>
      </trkpt>
      <trkpt lat="46.18202" lon="4.4601">
        <ele>840</ele>
        <time>2016-09-04T08:56:17.589Z</time>
      </trkpt>
      <trkpt lat="46.18202" lon="4.46023">
        <ele>840</ele>
        <time>2016-09-04T08:56:26.589Z</time>
      </trkpt>
      <trkpt lat="46.18207" lon="4.46037">
        <ele>841</ele>
        <time>2016-09-04T08:56:37.693Z</time>
      </trkpt>
      <trkpt lat="46.1821" lon="4.46049">
        <ele>842</ele>
        <time>2016-09-04T08:56:44.589Z</time>
      </trkpt>
      <trkpt lat="46.18211" lon="4.46062">
        <ele>843</ele>
        <time>2016-09-04T08:56:52.093Z</time>
      </trkpt>
      <trkpt lat="46.18214" lon="4.46075">
        <ele>843</ele>
        <time>2016-09-04T08:56:58.589Z</time>
      </trkpt>
      <trkpt lat="46.18217" lon="4.46087">
        <ele>843</ele>
        <time>2016-09-04T08:57:06.589Z</time>
      </trkpt>
      <trkpt lat="46.18222" lon="4.46099">
        <ele>845</ele>
        <time>2016-09-04T08:57:13.589Z</time>
      </trkpt>
      <trkpt lat="46.18225" lon="4.46112">
        <ele>845</ele>
        <time>2016-09-04T08:57:21.589Z</time>
      </trkpt>
      <trkpt lat="46.18212" lon="4.46113">
        <ele>846</ele>
        <time>2016-09-04T08:57:38.589Z</time>
      </trkpt>
      <trkpt lat="46.18218" lon="4.46124">
        <ele>846</ele>
        <time>2016-09-04T08:57:50.589Z</time>
      </trkpt>
      <trkpt lat="46.18224" lon="4.46136">
        <ele>846</ele>
        <time>2016-09-04T08:57:59.589Z</time>
      </trkpt>
      <trkpt lat="46.18225" lon="4.4615">
        <ele>847</ele>
        <time>2016-09-04T08:58:14.589Z</time>
      </trkpt>
      <trkpt lat="46.18228" lon="4.46163">
        <ele>848</ele>
        <time>2016-09-04T08:58:27.589Z</time>
      </trkpt>
      <trkpt lat="46.18232" lon="4.46176">
        <ele>848</ele>
        <time>2016-09-04T08:58:34.589Z</time>
      </trkpt>
      <trkpt lat="46.18233" lon="4.4619">
        <ele>849</ele>
        <time>2016-09-04T08:58:44.589Z</time>
      </trkpt>
      <trkpt lat="46.18237" lon="4.46203">
        <ele>849</ele>
        <time>2016-09-04T08:58:57.589Z</time>
      </trkpt>
      <trkpt lat="46.18241" lon="4.46215">
        <ele>849</ele>
        <time>2016-09-04T08:59:20.589Z</time>
      </trkpt>
      <trkpt lat="46.18244" lon="4.46228">
        <ele>850</ele>
        <time>2016-09-04T08:59:44.589Z</time>
      </trkpt>
      <trkpt lat="46.18243" lon="4.46242">
        <ele>850</ele>
        <time>2016-09-04T08:59:52.589Z</time>
      </trkpt>
      <trkpt lat="46.18246" lon="4.46255">
        <ele>850.4780032</ele>
        <time>2016-09-04T09:00:01.589Z</time>
      </trkpt>
      <trkpt lat="46.18248" lon="4.46268">
        <ele>852</ele>
        <time>2016-09-04T09:00:10.589Z</time>
      </trkpt>
      <trkpt lat="46.1825" lon="4.46282">
        <ele>853</ele>
        <time>2016-09-04T09:00:17.589Z</time>
      </trkpt>
      <trkpt lat="46.18253" lon="4.46294">
        <ele>854</ele>
        <time>2016-09-04T09:00:24.589Z</time>
      </trkpt>
      <trkpt lat="46.1825" lon="4.46309">
        <ele>854</ele>
        <time>2016-09-04T09:00:34.589Z</time>
      </trkpt>
      <trkpt lat="46.18254" lon="4.46322">
        <ele>855</ele>
        <time>2016-09-04T09:00:46.589Z</time>
      </trkpt>
      <trkpt lat="46.18252" lon="4.46335">
        <ele>855</ele>
        <time>2016-09-04T09:00:54.589Z</time>
      </trkpt>
      <trkpt lat="46.18254" lon="4.46349">
        <ele>855</ele>
        <time>2016-09-04T09:01:02.589Z</time>
      </trkpt>
      <trkpt lat="46.1826" lon="4.46359">
        <ele>855</ele>
        <time>2016-09-04T09:01:10.589Z</time>
      </trkpt>
      <trkpt lat="46.18263" lon="4.46372">
        <ele>855</ele>
        <time>2016-09-04T09:01:18.589Z</time>
      </trkpt>
      <trkpt lat="46.18265" lon="4.46386">
        <ele>856</ele>
        <time>2016-09-04T09:01:25.589Z</time>
      </trkpt>
      <trkpt lat="46.18268" lon="4.46398">
        <ele>856</ele>
        <time>2016-09-04T09:01:31.589Z</time>
      </trkpt>
      <trkpt lat="46.18273" lon="4.46411">
        <ele>856</ele>
        <time>2016-09-04T09:01:38.589Z</time>
      </trkpt>
      <trkpt lat="46.18277" lon="4.46424">
        <ele>856</ele>
        <time>2016-09-04T09:01:47.589Z</time>
      </trkpt>
      <trkpt lat="46.18278" lon="4.46437">
        <ele>856</ele>
        <time>2016-09-04T09:01:57.589Z</time>
      </trkpt>
      <trkpt lat="46.18283" lon="4.46448">
        <ele>856</ele>
        <time>2016-09-04T09:02:07.589Z</time>
      </trkpt>
      <trkpt lat="46.18287" lon="4.46461">
        <ele>856</ele>
        <time>2016-09-04T09:02:14.589Z</time>
      </trkpt>
      <trkpt lat="46.18292" lon="4.46473">
        <ele>856</ele>
        <time>2016-09-04T09:02:22.589Z</time>
      </trkpt>
      <trkpt lat="46.18297" lon="4.46484">
        <ele>856</ele>
        <time>2016-09-04T09:02:28.589Z</time>
      </trkpt>
      <trkpt lat="46.183" lon="4.46497">
        <ele>857</ele>
        <time>2016-09-04T09:02:32.589Z</time>
      </trkpt>
      <trkpt lat="46.18305" lon="4.46508">
        <ele>857</ele>
        <time>2016-09-04T09:02:38.589Z</time>
      </trkpt>
      <trkpt lat="46.18307" lon="4.46522">
        <ele>859</ele>
        <time>2016-09-04T09:02:45.589Z</time>
      </trkpt>
      <trkpt lat="46.1831" lon="4.46536">
        <ele>859</ele>
        <time>2016-09-04T09:02:55.589Z</time>
      </trkpt>
      <trkpt lat="46.18318" lon="4.46544">
        <ele>859</ele>
        <time>2016-09-04T09:03:03.589Z</time>
      </trkpt>
      <trkpt lat="46.18322" lon="4.46557">
        <ele>860</ele>
        <time>2016-09-04T09:03:11.589Z</time>
      </trkpt>
      <trkpt lat="46.18328" lon="4.46569">
        <ele>861</ele>
        <time>2016-09-04T09:03:20.589Z</time>
      </trkpt>
      <trkpt lat="46.18336" lon="4.46577">
        <ele>861</ele>
        <time>2016-09-04T09:03:30.589Z</time>
      </trkpt>
      <trkpt lat="46.18341" lon="4.46589">
        <ele>861</ele>
        <time>2016-09-04T09:03:38.589Z</time>
      </trkpt>
      <trkpt lat="46.1835" lon="4.46596">
        <ele>862</ele>
        <time>2016-09-04T09:03:48.589Z</time>
      </trkpt>
      <trkpt lat="46.1836" lon="4.466">
        <ele>862</ele>
        <time>2016-09-04T09:03:56.589Z</time>
      </trkpt>
      <trkpt lat="46.18366" lon="4.4661">
        <ele>861</ele>
        <time>2016-09-04T09:04:02.589Z</time>
      </trkpt>
      <trkpt lat="46.18374" lon="4.46618">
        <ele>861</ele>
        <time>2016-09-04T09:04:09.589Z</time>
      </trkpt>
      <trkpt lat="46.18378" lon="4.46631">
        <ele>861</ele>
        <time>2016-09-04T09:04:16.589Z</time>
      </trkpt>
      <trkpt lat="46.18386" lon="4.46638">
        <ele>861</ele>
        <time>2016-09-04T09:04:22.589Z</time>
      </trkpt>
      <trkpt lat="46.18394" lon="4.46646">
        <ele>861</ele>
        <time>2016-09-04T09:04:31.589Z</time>
      </trkpt>
      <trkpt lat="46.18402" lon="4.46654">
        <ele>861</ele>
        <time>2016-09-04T09:04:38.589Z</time>
      </trkpt>
      <trkpt lat="46.18409" lon="4.46663">
        <ele>861</ele>
        <time>2016-09-04T09:04:44.589Z</time>
      </trkpt>
      <trkpt lat="46.18416" lon="4.46671">
        <ele>861</ele>
        <time>2016-09-04T09:04:51.589Z</time>
      </trkpt>
      <trkpt lat="46.18423" lon="4.46682">
        <ele>860.78272455403</ele>
        <time>2016-09-04T09:04:59.589Z</time>
      </trkpt>
      <trkpt lat="46.1843" lon="4.46691">
        <ele>860</ele>
        <time>2016-09-04T09:05:05.589Z</time>
      </trkpt>
      <trkpt lat="46.18436" lon="4.46702">
        <ele>859</ele>
        <time>2016-09-04T09:05:12.589Z</time>
      </trkpt>
      <trkpt lat="46.18444" lon="4.4671">
        <ele>859</ele>
        <time>2016-09-04T09:05:20.589Z</time>
      </trkpt>
      <trkpt lat="46.1845" lon="4.46721">
        <ele>859</ele>
        <time>2016-09-04T09:05:28.589Z</time>
      </trkpt>
      <trkpt lat="46.18458" lon="4.46729">
        <ele>859</ele>
        <time>2016-09-04T09:05:36.589Z</time>
      </trkpt>
      <trkpt lat="46.18464" lon="4.4674">
        <ele>858</ele>
        <time>2016-09-04T09:05:43.589Z</time>
      </trkpt>
      <trkpt lat="46.18472" lon="4.4675">
        <ele>857.83625903733</ele>
        <time>2016-09-04T09:05:49.589Z</time>
      </trkpt>
      <trkpt lat="46.18479" lon="4.46761">
        <ele>857</ele>
        <time>2016-09-04T09:05:56.589Z</time>
      </trkpt>
      <trkpt lat="46.18485" lon="4.46771">
        <ele>857</ele>
        <time>2016-09-04T09:06:02.589Z</time>
      </trkpt>
      <trkpt lat="46.18489" lon="4.46783">
        <ele>857</ele>
        <time>2016-09-04T09:06:16.589Z</time>
      </trkpt>
      <trkpt lat="46.18481" lon="4.46789">
        <ele>856</ele>
        <time>2016-09-04T09:08:06.587Z</time>
      </trkpt>
      <trkpt lat="46.1849" lon="4.46793">
        <ele>857</ele>
        <time>2016-09-04T09:10:29.589Z</time>
      </trkpt>
      <trkpt lat="46.18483" lon="4.46805">
        <ele>856</ele>
        <time>2016-09-04T09:11:39.618Z</time>
      </trkpt>
      <trkpt lat="46.18475" lon="4.46812">
        <ele>855</ele>
        <time>2016-09-04T09:11:47.589Z</time>
      </trkpt>
      <trkpt lat="46.18465" lon="4.46815">
        <ele>856</ele>
        <time>2016-09-04T09:11:55.589Z</time>
      </trkpt>
      <trkpt lat="46.18456" lon="4.46817">
        <ele>855</ele>
        <time>2016-09-04T09:12:03.589Z</time>
      </trkpt>
      <trkpt lat="46.18447" lon="4.46817">
        <ele>857</ele>
        <time>2016-09-04T09:12:13.592Z</time>
      </trkpt>
      <trkpt lat="46.18437" lon="4.46818">
        <ele>857</ele>
        <time>2016-09-04T09:12:24.587Z</time>
      </trkpt>
      <trkpt lat="46.18427" lon="4.46816">
        <ele>858</ele>
        <time>2016-09-04T09:12:36.619Z</time>
      </trkpt>
      <trkpt lat="46.18416" lon="4.46812">
        <ele>859</ele>
        <time>2016-09-04T09:12:47.587Z</time>
      </trkpt>
      <trkpt lat="46.18407" lon="4.46808">
        <ele>859</ele>
        <time>2016-09-04T09:12:54.587Z</time>
      </trkpt>
      <trkpt lat="46.184" lon="4.46816">
        <ele>859</ele>
        <time>2016-09-04T09:13:02.587Z</time>
      </trkpt>
      <trkpt lat="46.18391" lon="4.46813">
        <ele>859</ele>
        <time>2016-09-04T09:13:10.587Z</time>
      </trkpt>
      <trkpt lat="46.18381" lon="4.46812">
        <ele>859</ele>
        <time>2016-09-04T09:13:20.589Z</time>
      </trkpt>
      <trkpt lat="46.18371" lon="4.46816">
        <ele>859</ele>
        <time>2016-09-04T09:13:29.589Z</time>
      </trkpt>
      <trkpt lat="46.18361" lon="4.4682">
        <ele>859</ele>
        <time>2016-09-04T09:13:43.559Z</time>
      </trkpt>
      <trkpt lat="46.18349" lon="4.46829">
        <ele>859</ele>
        <time>2016-09-04T09:13:54.620Z</time>
      </trkpt>
      <trkpt lat="46.1834" lon="4.46834">
        <ele>859</ele>
        <time>2016-09-04T09:14:03.589Z</time>
      </trkpt>
      <trkpt lat="46.1833" lon="4.46833">
        <ele>859</ele>
        <time>2016-09-04T09:14:11.589Z</time>
      </trkpt>
      <trkpt lat="46.18318" lon="4.46823">
        <ele>861</ele>
        <time>2016-09-04T09:14:22.662Z</time>
      </trkpt>
      <trkpt lat="46.18308" lon="4.46812">
        <ele>861</ele>
        <time>2016-09-04T09:14:30.664Z</time>
      </trkpt>
      <trkpt lat="46.18299" lon="4.46807">
        <ele>861</ele>
        <time>2016-09-04T09:14:37.588Z</time>
      </trkpt>
      <trkpt lat="46.18289" lon="4.46799">
        <ele>862</ele>
        <time>2016-09-04T09:14:48.693Z</time>
      </trkpt>
      <trkpt lat="46.1828" lon="4.46797">
        <ele>864.2390016</ele>
        <time>2016-09-04T09:15:00.589Z</time>
      </trkpt>
      <trkpt lat="46.18272" lon="4.46789">
        <ele>866</ele>
        <time>2016-09-04T09:15:09.589Z</time>
      </trkpt>
      <trkpt lat="46.18262" lon="4.4679">
        <ele>867</ele>
        <time>2016-09-04T09:15:23.589Z</time>
      </trkpt>
      <trkpt lat="46.18253" lon="4.46789">
        <ele>868</ele>
        <time>2016-09-04T09:15:34.589Z</time>
      </trkpt>
      <trkpt lat="46.18244" lon="4.46786">
        <ele>869</ele>
        <time>2016-09-04T09:15:43.589Z</time>
      </trkpt>
      <trkpt lat="46.18235" lon="4.46781">
        <ele>869</ele>
        <time>2016-09-04T09:15:52.589Z</time>
      </trkpt>
      <trkpt lat="46.18226" lon="4.46779">
        <ele>871</ele>
        <time>2016-09-04T09:16:02.589Z</time>
      </trkpt>
      <trkpt lat="46.18219" lon="4.46772">
        <ele>873</ele>
        <time>2016-09-04T09:16:13.589Z</time>
      </trkpt>
      <trkpt lat="46.18209" lon="4.46769">
        <ele>875</ele>
        <time>2016-09-04T09:16:24.390Z</time>
      </trkpt>
      <trkpt lat="46.18201" lon="4.46763">
        <ele>875</ele>
        <time>2016-09-04T09:16:34.589Z</time>
      </trkpt>
      <trkpt lat="46.18192" lon="4.46756">
        <ele>876</ele>
        <time>2016-09-04T09:16:45.466Z</time>
      </trkpt>
      <trkpt lat="46.18185" lon="4.46745">
        <ele>877</ele>
        <time>2016-09-04T09:16:58.563Z</time>
      </trkpt>
      <trkpt lat="46.1818" lon="4.46731">
        <ele>881</ele>
        <time>2016-09-04T09:17:13.589Z</time>
      </trkpt>
      <trkpt lat="46.18174" lon="4.4672">
        <ele>882</ele>
        <time>2016-09-04T09:17:24.589Z</time>
      </trkpt>
      <trkpt lat="46.18165" lon="4.46716">
        <ele>885</ele>
        <time>2016-09-04T09:17:42.589Z</time>
      </trkpt>
      <trkpt lat="46.18155" lon="4.46716">
        <ele>886</ele>
        <time>2016-09-04T09:17:52.589Z</time>
      </trkpt>
      <trkpt lat="46.18148" lon="4.46707">
        <ele>888</ele>
        <time>2016-09-04T09:18:02.589Z</time>
      </trkpt>
      <trkpt lat="46.18141" lon="4.46698">
        <ele>890.16040410288</ele>
        <time>2016-09-04T09:18:14.589Z</time>
      </trkpt>
      <trkpt lat="46.18134" lon="4.46689">
        <ele>892</ele>
        <time>2016-09-04T09:18:30.589Z</time>
      </trkpt>
      <trkpt lat="46.18127" lon="4.4668">
        <ele>895</ele>
        <time>2016-09-04T09:18:46.589Z</time>
      </trkpt>
      <trkpt lat="46.18123" lon="4.46668">
        <ele>896</ele>
        <time>2016-09-04T09:18:58.589Z</time>
      </trkpt>
      <trkpt lat="46.1812" lon="4.46656">
        <ele>898</ele>
        <time>2016-09-04T09:19:10.589Z</time>
      </trkpt>
      <trkpt lat="46.18115" lon="4.46645">
        <ele>900</ele>
        <time>2016-09-04T09:19:19.589Z</time>
      </trkpt>
      <trkpt lat="46.18108" lon="4.46636">
        <ele>901</ele>
        <time>2016-09-04T09:19:31.589Z</time>
      </trkpt>
      <trkpt lat="46.18101" lon="4.46627">
        <ele>904</ele>
        <time>2016-09-04T09:19:50.589Z</time>
      </trkpt>
      <trkpt lat="46.18094" lon="4.46619">
        <ele>906</ele>
        <time>2016-09-04T09:20:05.589Z</time>
      </trkpt>
      <trkpt lat="46.18091" lon="4.46607">
        <ele>910</ele>
        <time>2016-09-04T09:20:20.589Z</time>
      </trkpt>
      <trkpt lat="46.18087" lon="4.46593">
        <ele>911</ele>
        <time>2016-09-04T09:20:31.589Z</time>
      </trkpt>
      <trkpt lat="46.18084" lon="4.4658">
        <ele>911.45094913781</ele>
        <time>2016-09-04T09:20:39.589Z</time>
      </trkpt>
      <trkpt lat="46.18084" lon="4.46567">
        <ele>913</ele>
        <time>2016-09-04T09:20:49.589Z</time>
      </trkpt>
      <trkpt lat="46.1808" lon="4.46554">
        <ele>915</ele>
        <time>2016-09-04T09:21:01.589Z</time>
      </trkpt>
      <trkpt lat="46.18077" lon="4.46541">
        <ele>917</ele>
        <time>2016-09-04T09:21:13.589Z</time>
      </trkpt>
      <trkpt lat="46.18075" lon="4.46527">
        <ele>919</ele>
        <time>2016-09-04T09:21:25.589Z</time>
      </trkpt>
      <trkpt lat="46.18071" lon="4.46515">
        <ele>921</ele>
        <time>2016-09-04T09:21:38.589Z</time>
      </trkpt>
      <trkpt lat="46.18073" lon="4.46497">
        <ele>922</ele>
        <time>2016-09-04T09:21:50.467Z</time>
      </trkpt>
      <trkpt lat="46.18065" lon="4.4648">
        <ele>922.07461452118</ele>
        <time>2016-09-04T09:22:09.527Z</time>
      </trkpt>
      <trkpt lat="46.18061" lon="4.46468">
        <ele>923</ele>
        <time>2016-09-04T09:22:20.589Z</time>
      </trkpt>
      <trkpt lat="46.18057" lon="4.46455">
        <ele>923</ele>
        <time>2016-09-04T09:22:38.589Z</time>
      </trkpt>
      <trkpt lat="46.1805" lon="4.46446">
        <ele>924</ele>
        <time>2016-09-04T09:22:47.589Z</time>
      </trkpt>
      <trkpt lat="46.18047" lon="4.46433">
        <ele>924</ele>
        <time>2016-09-04T09:22:56.589Z</time>
      </trkpt>
      <trkpt lat="46.18044" lon="4.46419">
        <ele>924</ele>
        <time>2016-09-04T09:23:04.589Z</time>
      </trkpt>
      <trkpt lat="46.18041" lon="4.46407">
        <ele>924</ele>
        <time>2016-09-04T09:23:12.589Z</time>
      </trkpt>
      <trkpt lat="46.18038" lon="4.4639">
        <ele>925</ele>
        <time>2016-09-04T09:23:25.623Z</time>
      </trkpt>
      <trkpt lat="46.18033" lon="4.46379">
        <ele>926</ele>
        <time>2016-09-04T09:23:33.589Z</time>
      </trkpt>
      <trkpt lat="46.18029" lon="4.46361">
        <ele>926</ele>
        <time>2016-09-04T09:23:47.018Z</time>
      </trkpt>
      <trkpt lat="46.18027" lon="4.46347">
        <ele>926</ele>
        <time>2016-09-04T09:23:55.819Z</time>
      </trkpt>
      <trkpt lat="46.18025" lon="4.46334">
        <ele>926</ele>
        <time>2016-09-04T09:24:06.589Z</time>
      </trkpt>
      <trkpt lat="46.18023" lon="4.46321">
        <ele>927</ele>
        <time>2016-09-04T09:24:18.589Z</time>
      </trkpt>
      <trkpt lat="46.18017" lon="4.4631">
        <ele>927</ele>
        <time>2016-09-04T09:24:25.589Z</time>
      </trkpt>
      <trkpt lat="46.18011" lon="4.46301">
        <ele>928</ele>
        <time>2016-09-04T09:24:33.589Z</time>
      </trkpt>
      <trkpt lat="46.18004" lon="4.46291">
        <ele>930</ele>
        <time>2016-09-04T09:24:44.589Z</time>
      </trkpt>
      <trkpt lat="46.17997" lon="4.46283">
        <ele>931</ele>
        <time>2016-09-04T09:24:58.589Z</time>
      </trkpt>
      <trkpt lat="46.17992" lon="4.46272">
        <ele>931</ele>
        <time>2016-09-04T09:25:16.589Z</time>
      </trkpt>
      <trkpt lat="46.17983" lon="4.46266">
        <ele>931</ele>
        <time>2016-09-04T09:25:28.589Z</time>
      </trkpt>
      <trkpt lat="46.1798" lon="4.46253">
        <ele>931</ele>
        <time>2016-09-04T09:25:39.589Z</time>
      </trkpt>
      <trkpt lat="46.17972" lon="4.46246">
        <ele>931</ele>
        <time>2016-09-04T09:25:45.589Z</time>
      </trkpt>
      <trkpt lat="46.17963" lon="4.46243">
        <ele>935</ele>
        <time>2016-09-04T09:26:05.589Z</time>
      </trkpt>
      <trkpt lat="46.17954" lon="4.46246">
        <ele>940</ele>
        <time>2016-09-04T09:26:20.589Z</time>
      </trkpt>
      <trkpt lat="46.17945" lon="4.46248">
        <ele>940.96797</ele>
        <time>2016-09-04T09:26:30.589Z</time>
      </trkpt>
      <trkpt lat="46.17935" lon="4.46245">
        <ele>942</ele>
        <time>2016-09-04T09:26:41.589Z</time>
      </trkpt>
      <trkpt lat="46.17926" lon="4.46239">
        <ele>942</ele>
        <time>2016-09-04T09:26:49.589Z</time>
      </trkpt>
      <trkpt lat="46.17918" lon="4.46233">
        <ele>944</ele>
        <time>2016-09-04T09:26:57.589Z</time>
      </trkpt>
      <trkpt lat="46.17909" lon="4.4623">
        <ele>946</ele>
        <time>2016-09-04T09:27:05.589Z</time>
      </trkpt>
      <trkpt lat="46.179" lon="4.46227">
        <ele>949</ele>
        <time>2016-09-04T09:27:22.589Z</time>
      </trkpt>
      <trkpt lat="46.17891" lon="4.46224">
        <ele>951</ele>
        <time>2016-09-04T09:27:33.589Z</time>
      </trkpt>
      <trkpt lat="46.17885" lon="4.46213">
        <ele>953</ele>
        <time>2016-09-04T09:28:05.589Z</time>
      </trkpt>
      <trkpt lat="46.17884" lon="4.462">
        <ele>955</ele>
        <time>2016-09-04T09:28:17.589Z</time>
      </trkpt>
      <trkpt lat="46.1788" lon="4.46188">
        <ele>960</ele>
        <time>2016-09-04T09:28:34.586Z</time>
      </trkpt>
      <trkpt lat="46.1787" lon="4.46183">
        <ele>962</ele>
        <time>2016-09-04T09:28:47.619Z</time>
      </trkpt>
      <trkpt lat="46.1787" lon="4.4617">
        <ele>963.07714062805</ele>
        <time>2016-09-04T09:29:12.589Z</time>
      </trkpt>
      <trkpt lat="46.17872" lon="4.46157">
        <ele>963</ele>
        <time>2016-09-04T09:29:23.588Z</time>
      </trkpt>
      <trkpt lat="46.17877" lon="4.46172">
        <ele>963</ele>
        <time>2016-09-04T09:30:28.588Z</time>
      </trkpt>
      <trkpt lat="46.1788" lon="4.46185">
        <ele>963</ele>
        <time>2016-09-04T09:30:48.588Z</time>
      </trkpt>
      <trkpt lat="46.1789" lon="4.46184">
        <ele>957</ele>
        <time>2016-09-04T09:31:16.589Z</time>
      </trkpt>
      <trkpt lat="46.17886" lon="4.46197">
        <ele>956</ele>
        <time>2016-09-04T09:31:26.589Z</time>
      </trkpt>
      <trkpt lat="46.1788" lon="4.46207">
        <ele>955</ele>
        <time>2016-09-04T09:31:38.589Z</time>
      </trkpt>
      <trkpt lat="46.17875" lon="4.46219">
        <ele>953.85607917207</ele>
        <time>2016-09-04T09:31:54.589Z</time>
      </trkpt>
      <trkpt lat="46.17866" lon="4.4622">
        <ele>952</ele>
        <time>2016-09-04T09:32:15.589Z</time>
      </trkpt>
      <trkpt lat="46.17853" lon="4.46213">
        <ele>950</ele>
        <time>2016-09-04T09:32:30.763Z</time>
      </trkpt>
      <trkpt lat="46.17847" lon="4.46203">
        <ele>948.85053057517</ele>
        <time>2016-09-04T09:32:44.559Z</time>
      </trkpt>
      <trkpt lat="46.17839" lon="4.46195">
        <ele>948</ele>
        <time>2016-09-04T09:32:54.564Z</time>
      </trkpt>
      <trkpt lat="46.17838" lon="4.46182">
        <ele>945</ele>
        <time>2016-09-04T09:33:09.294Z</time>
      </trkpt>
      <trkpt lat="46.17829" lon="4.46185">
        <ele>943</ele>
        <time>2016-09-04T09:33:19.589Z</time>
      </trkpt>
      <trkpt lat="46.17821" lon="4.46178">
        <ele>940.97563096918</ele>
        <time>2016-09-04T09:33:29.589Z</time>
      </trkpt>
      <trkpt lat="46.17814" lon="4.46169">
        <ele>938</ele>
        <time>2016-09-04T09:33:46.589Z</time>
      </trkpt>
      <trkpt lat="46.17806" lon="4.46159">
        <ele>937</ele>
        <time>2016-09-04T09:33:55.589Z</time>
      </trkpt>
      <trkpt lat="46.17799" lon="4.4615">
        <ele>935</ele>
        <time>2016-09-04T09:34:04.589Z</time>
      </trkpt>
      <trkpt lat="46.17791" lon="4.46143">
        <ele>934</ele>
        <time>2016-09-04T09:34:15.589Z</time>
      </trkpt>
      <trkpt lat="46.17784" lon="4.46134">
        <ele>933</ele>
        <time>2016-09-04T09:34:22.589Z</time>
      </trkpt>
      <trkpt lat="46.17779" lon="4.46123">
        <ele>932</ele>
        <time>2016-09-04T09:34:32.589Z</time>
      </trkpt>
      <trkpt lat="46.17776" lon="4.4611">
        <ele>931</ele>
        <time>2016-09-04T09:34:44.589Z</time>
      </trkpt>
      <trkpt lat="46.17773" lon="4.46097">
        <ele>931</ele>
        <time>2016-09-04T09:34:53.589Z</time>
      </trkpt>
      <trkpt lat="46.17769" lon="4.46085">
        <ele>928</ele>
        <time>2016-09-04T09:35:00.589Z</time>
      </trkpt>
      <trkpt lat="46.17766" lon="4.46071">
        <ele>927.7609984</ele>
        <time>2016-09-04T09:35:09.589Z</time>
      </trkpt>
      <trkpt lat="46.17763" lon="4.46058">
        <ele>926.03203</ele>
        <time>2016-09-04T09:35:20.589Z</time>
      </trkpt>
      <trkpt lat="46.17754" lon="4.46052">
        <ele>925.7609984</ele>
        <time>2016-09-04T09:35:29.589Z</time>
      </trkpt>
      <trkpt lat="46.17747" lon="4.46044">
        <ele>925</ele>
        <time>2016-09-04T09:35:37.589Z</time>
      </trkpt>
      <trkpt lat="46.1774" lon="4.46035">
        <ele>924</ele>
        <time>2016-09-04T09:35:45.589Z</time>
      </trkpt>
      <trkpt lat="46.17731" lon="4.4603">
        <ele>922</ele>
        <time>2016-09-04T09:35:55.589Z</time>
      </trkpt>
      <trkpt lat="46.17723" lon="4.46022">
        <ele>920</ele>
        <time>2016-09-04T09:36:02.589Z</time>
      </trkpt>
      <trkpt lat="46.17715" lon="4.46018">
        <ele>920</ele>
        <time>2016-09-04T09:36:13.589Z</time>
      </trkpt>
      <trkpt lat="46.17706" lon="4.46014">
        <ele>918</ele>
        <time>2016-09-04T09:36:26.589Z</time>
      </trkpt>
      <trkpt lat="46.17696" lon="4.46014">
        <ele>917</ele>
        <time>2016-09-04T09:36:37.589Z</time>
      </trkpt>
      <trkpt lat="46.17687" lon="4.46015">
        <ele>914</ele>
        <time>2016-09-04T09:36:47.589Z</time>
      </trkpt>
      <trkpt lat="46.17678" lon="4.46012">
        <ele>912.7609984</ele>
        <time>2016-09-04T09:36:59.589Z</time>
      </trkpt>
      <trkpt lat="46.17669" lon="4.46008">
        <ele>911.88487527535</ele>
        <time>2016-09-04T09:37:09.589Z</time>
      </trkpt>
      <trkpt lat="46.1766" lon="4.46009">
        <ele>909</ele>
        <time>2016-09-04T09:37:20.589Z</time>
      </trkpt>
      <trkpt lat="46.17652" lon="4.46001">
        <ele>907</ele>
        <time>2016-09-04T09:37:30.589Z</time>
      </trkpt>
      <trkpt lat="46.17643" lon="4.45999">
        <ele>905</ele>
        <time>2016-09-04T09:37:42.589Z</time>
      </trkpt>
      <trkpt lat="46.17631" lon="4.45999">
        <ele>902</ele>
        <time>2016-09-04T09:38:01.618Z</time>
      </trkpt>
      <trkpt lat="46.17619" lon="4.46005">
        <ele>900</ele>
        <time>2016-09-04T09:38:11.595Z</time>
      </trkpt>
      <trkpt lat="46.1761" lon="4.46008">
        <ele>900</ele>
        <time>2016-09-04T09:38:20.595Z</time>
      </trkpt>
      <trkpt lat="46.17603" lon="4.46016">
        <ele>895</ele>
        <time>2016-09-04T09:38:44.589Z</time>
      </trkpt>
      <trkpt lat="46.17598" lon="4.46027">
        <ele>893</ele>
        <time>2016-09-04T09:38:58.589Z</time>
      </trkpt>
      <trkpt lat="46.17593" lon="4.46039">
        <ele>891</ele>
        <time>2016-09-04T09:39:11.589Z</time>
      </trkpt>
      <trkpt lat="46.1759" lon="4.46052">
        <ele>889</ele>
        <time>2016-09-04T09:39:21.589Z</time>
      </trkpt>
      <trkpt lat="46.17584" lon="4.46063">
        <ele>888</ele>
        <time>2016-09-04T09:39:30.589Z</time>
      </trkpt>
      <trkpt lat="46.17579" lon="4.46075">
        <ele>886</ele>
        <time>2016-09-04T09:39:38.589Z</time>
      </trkpt>
      <trkpt lat="46.17574" lon="4.46088">
        <ele>884</ele>
        <time>2016-09-04T09:39:46.589Z</time>
      </trkpt>
      <trkpt lat="46.17572" lon="4.46101">
        <ele>881.5219968</ele>
        <time>2016-09-04T09:39:59.589Z</time>
      </trkpt>
      <trkpt lat="46.17563" lon="4.46104">
        <ele>880</ele>
        <time>2016-09-04T09:40:06.589Z</time>
      </trkpt>
      <trkpt lat="46.17556" lon="4.46092">
        <ele>880</ele>
        <time>2016-09-04T09:40:15.589Z</time>
      </trkpt>
      <trkpt lat="46.17552" lon="4.46081">
        <ele>880</ele>
        <time>2016-09-04T09:40:24.589Z</time>
      </trkpt>
      <trkpt lat="46.17549" lon="4.46067">
        <ele>880</ele>
        <time>2016-09-04T09:40:31.589Z</time>
      </trkpt>
      <trkpt lat="46.17545" lon="4.46054">
        <ele>880</ele>
        <time>2016-09-04T09:40:42.589Z</time>
      </trkpt>
      <trkpt lat="46.1754" lon="4.4604">
        <ele>880</ele>
        <time>2016-09-04T09:40:49.589Z</time>
      </trkpt>
      <trkpt lat="46.17539" lon="4.46027">
        <ele>880</ele>
        <time>2016-09-04T09:40:57.589Z</time>
      </trkpt>
      <trkpt lat="46.17533" lon="4.46015">
        <ele>880</ele>
        <time>2016-09-04T09:41:04.589Z</time>
      </trkpt>
      <trkpt lat="46.17528" lon="4.46003">
        <ele>880</ele>
        <time>2016-09-04T09:41:11.589Z</time>
      </trkpt>
      <trkpt lat="46.17528" lon="4.45988">
        <ele>880</ele>
        <time>2016-09-04T09:41:18.589Z</time>
      </trkpt>
      <trkpt lat="46.17525" lon="4.45976">
        <ele>879</ele>
        <time>2016-09-04T09:41:27.589Z</time>
      </trkpt>
      <trkpt lat="46.17523" lon="4.45961">
        <ele>879</ele>
        <time>2016-09-04T09:41:36.589Z</time>
      </trkpt>
      <trkpt lat="46.17518" lon="4.45949">
        <ele>878</ele>
        <time>2016-09-04T09:41:42.589Z</time>
      </trkpt>
      <trkpt lat="46.17519" lon="4.45935">
        <ele>878</ele>
        <time>2016-09-04T09:41:47.690Z</time>
      </trkpt>
      <trkpt lat="46.17516" lon="4.45922">
        <ele>877</ele>
        <time>2016-09-04T09:41:56.589Z</time>
      </trkpt>
      <trkpt lat="46.17515" lon="4.45906">
        <ele>876</ele>
        <time>2016-09-04T09:42:02.589Z</time>
      </trkpt>
      <trkpt lat="46.17514" lon="4.45892">
        <ele>876</ele>
        <time>2016-09-04T09:42:10.589Z</time>
      </trkpt>
      <trkpt lat="46.1751" lon="4.4588">
        <ele>876</ele>
        <time>2016-09-04T09:42:18.589Z</time>
      </trkpt>
      <trkpt lat="46.17508" lon="4.45867">
        <ele>876</ele>
        <time>2016-09-04T09:42:27.589Z</time>
      </trkpt>
      <trkpt lat="46.17504" lon="4.45853">
        <ele>876</ele>
        <time>2016-09-04T09:42:35.589Z</time>
      </trkpt>
      <trkpt lat="46.17498" lon="4.45842">
        <ele>875.951248</ele>
        <time>2016-09-04T09:42:40.589Z</time>
      </trkpt>
      <trkpt lat="46.17493" lon="4.45831">
        <ele>875</ele>
        <time>2016-09-04T09:42:47.589Z</time>
      </trkpt>
      <trkpt lat="46.17486" lon="4.45823">
        <ele>874</ele>
        <time>2016-09-04T09:42:56.589Z</time>
      </trkpt>
      <trkpt lat="46.17477" lon="4.45815">
        <ele>873</ele>
        <time>2016-09-04T09:43:04.589Z</time>
      </trkpt>
      <trkpt lat="46.17469" lon="4.45806">
        <ele>873</ele>
        <time>2016-09-04T09:43:12.589Z</time>
      </trkpt>
      <trkpt lat="46.17462" lon="4.45798">
        <ele>873</ele>
        <time>2016-09-04T09:43:20.589Z</time>
      </trkpt>
      <trkpt lat="46.17457" lon="4.45785">
        <ele>873</ele>
        <time>2016-09-04T09:43:26.589Z</time>
      </trkpt>
      <trkpt lat="46.17452" lon="4.45775">
        <ele>873</ele>
        <time>2016-09-04T09:43:33.589Z</time>
      </trkpt>
      <trkpt lat="46.17444" lon="4.45766">
        <ele>872</ele>
        <time>2016-09-04T09:43:41.589Z</time>
      </trkpt>
      <trkpt lat="46.17437" lon="4.45756">
        <ele>870</ele>
        <time>2016-09-04T09:43:50.589Z</time>
      </trkpt>
      <trkpt lat="46.17431" lon="4.45746">
        <ele>869.76336400274</ele>
        <time>2016-09-04T09:43:59.589Z</time>
      </trkpt>
      <trkpt lat="46.17424" lon="4.45735">
        <ele>869</ele>
        <time>2016-09-04T09:44:07.589Z</time>
      </trkpt>
      <trkpt lat="46.17417" lon="4.45726">
        <ele>869</ele>
        <time>2016-09-04T09:44:14.589Z</time>
      </trkpt>
      <trkpt lat="46.17409" lon="4.45716">
        <ele>869</ele>
        <time>2016-09-04T09:44:21.589Z</time>
      </trkpt>
      <trkpt lat="46.17403" lon="4.45704">
        <ele>868</ele>
        <time>2016-09-04T09:44:30.589Z</time>
      </trkpt>
      <trkpt lat="46.17395" lon="4.45697">
        <ele>868</ele>
        <time>2016-09-04T09:44:39.589Z</time>
      </trkpt>
      <trkpt lat="46.17387" lon="4.45687">
        <ele>868</ele>
        <time>2016-09-04T09:44:47.589Z</time>
      </trkpt>
      <trkpt lat="46.1738" lon="4.45679">
        <ele>868</ele>
        <time>2016-09-04T09:44:54.589Z</time>
      </trkpt>
      <trkpt lat="46.17372" lon="4.45672">
        <ele>866</ele>
        <time>2016-09-04T09:45:02.589Z</time>
      </trkpt>
      <trkpt lat="46.17364" lon="4.45662">
        <ele>866</ele>
        <time>2016-09-04T09:45:11.589Z</time>
      </trkpt>
      <trkpt lat="46.17357" lon="4.45652">
        <ele>866</ele>
        <time>2016-09-04T09:45:20.589Z</time>
      </trkpt>
      <trkpt lat="46.1735" lon="4.45644">
        <ele>866</ele>
        <time>2016-09-04T09:45:25.589Z</time>
      </trkpt>
      <trkpt lat="46.1734" lon="4.45639">
        <ele>865</ele>
        <time>2016-09-04T09:45:33.589Z</time>
      </trkpt>
      <trkpt lat="46.17331" lon="4.45635">
        <ele>864.79217310004</ele>
        <time>2016-09-04T09:45:40.589Z</time>
      </trkpt>
      <trkpt lat="46.17321" lon="4.45631">
        <ele>864</ele>
        <time>2016-09-04T09:45:47.589Z</time>
      </trkpt>
      <trkpt lat="46.17311" lon="4.45626">
        <ele>863</ele>
        <time>2016-09-04T09:45:53.589Z</time>
      </trkpt>
      <trkpt lat="46.17302" lon="4.45621">
        <ele>861</ele>
        <time>2016-09-04T09:46:00.589Z</time>
      </trkpt>
      <trkpt lat="46.17294" lon="4.45614">
        <ele>861</ele>
        <time>2016-09-04T09:46:08.589Z</time>
      </trkpt>
      <trkpt lat="46.17286" lon="4.45608">
        <ele>861</ele>
        <time>2016-09-04T09:46:16.589Z</time>
      </trkpt>
      <trkpt lat="46.17278" lon="4.45604">
        <ele>861</ele>
        <time>2016-09-04T09:46:25.589Z</time>
      </trkpt>
      <trkpt lat="46.17268" lon="4.45605">
        <ele>860</ele>
        <time>2016-09-04T09:46:32.589Z</time>
      </trkpt>
      <trkpt lat="46.17258" lon="4.45599">
        <ele>859.79217078682</ele>
        <time>2016-09-04T09:46:39.589Z</time>
      </trkpt>
      <trkpt lat="46.17249" lon="4.456">
        <ele>859</ele>
        <time>2016-09-04T09:46:46.589Z</time>
      </trkpt>
      <trkpt lat="46.1724" lon="4.45598">
        <ele>859</ele>
        <time>2016-09-04T09:46:54.589Z</time>
      </trkpt>
      <trkpt lat="46.1723" lon="4.456">
        <ele>856</ele>
        <time>2016-09-04T09:47:02.589Z</time>
      </trkpt>
      <trkpt lat="46.17221" lon="4.456">
        <ele>854</ele>
        <time>2016-09-04T09:47:11.589Z</time>
      </trkpt>
      <trkpt lat="46.17211" lon="4.45601">
        <ele>852</ele>
        <time>2016-09-04T09:47:21.589Z</time>
      </trkpt>
      <trkpt lat="46.17202" lon="4.45601">
        <ele>852</ele>
        <time>2016-09-04T09:47:28.589Z</time>
      </trkpt>
      <trkpt lat="46.17192" lon="4.45604">
        <ele>851</ele>
        <time>2016-09-04T09:47:35.589Z</time>
      </trkpt>
      <trkpt lat="46.17182" lon="4.45606">
        <ele>849</ele>
        <time>2016-09-04T09:47:42.589Z</time>
      </trkpt>
      <trkpt lat="46.17174" lon="4.45604">
        <ele>847</ele>
        <time>2016-09-04T09:47:48.589Z</time>
      </trkpt>
      <trkpt lat="46.17165" lon="4.45606">
        <ele>844.5690533372</ele>
        <time>2016-09-04T09:47:59.589Z</time>
      </trkpt>
      <trkpt lat="46.17156" lon="4.45609">
        <ele>843</ele>
        <time>2016-09-04T09:48:07.589Z</time>
      </trkpt>
      <trkpt lat="46.17146" lon="4.45609">
        <ele>842</ele>
        <time>2016-09-04T09:48:16.589Z</time>
      </trkpt>
      <trkpt lat="46.17137" lon="4.45611">
        <ele>841</ele>
        <time>2016-09-04T09:48:26.589Z</time>
      </trkpt>
      <trkpt lat="46.17127" lon="4.45614">
        <ele>840</ele>
        <time>2016-09-04T09:48:35.589Z</time>
      </trkpt>
      <trkpt lat="46.17119" lon="4.4562">
        <ele>839</ele>
        <time>2016-09-04T09:48:42.589Z</time>
      </trkpt>
      <trkpt lat="46.17112" lon="4.45628">
        <ele>836</ele>
        <time>2016-09-04T09:48:51.589Z</time>
      </trkpt>
      <trkpt lat="46.17101" lon="4.45636">
        <ele>835</ele>
        <time>2016-09-04T09:48:57.589Z</time>
      </trkpt>
      <trkpt lat="46.17091" lon="4.45642">
        <ele>835</ele>
        <time>2016-09-04T09:49:01.589Z</time>
      </trkpt>
      <trkpt lat="46.17082" lon="4.45641">
        <ele>835</ele>
        <time>2016-09-04T09:49:06.589Z</time>
      </trkpt>
      <trkpt lat="46.17076" lon="4.45631">
        <ele>834</ele>
        <time>2016-09-04T09:49:42.589Z</time>
      </trkpt>
      <trkpt lat="46.17068" lon="4.45622">
        <ele>834</ele>
        <time>2016-09-04T09:49:49.589Z</time>
      </trkpt>
      <trkpt lat="46.17063" lon="4.4561">
        <ele>833</ele>
        <time>2016-09-04T09:49:56.589Z</time>
      </trkpt>
      <trkpt lat="46.17056" lon="4.456">
        <ele>832</ele>
        <time>2016-09-04T09:50:03.589Z</time>
      </trkpt>
      <trkpt lat="46.17051" lon="4.45588">
        <ele>832</ele>
        <time>2016-09-04T09:50:10.589Z</time>
      </trkpt>
      <trkpt lat="46.17049" lon="4.45575">
        <ele>832</ele>
        <time>2016-09-04T09:50:17.589Z</time>
      </trkpt>
      <trkpt lat="46.17045" lon="4.45563">
        <ele>831</ele>
        <time>2016-09-04T09:50:24.589Z</time>
      </trkpt>
      <trkpt lat="46.17042" lon="4.4555">
        <ele>830</ele>
        <time>2016-09-04T09:50:30.589Z</time>
      </trkpt>
      <trkpt lat="46.1704" lon="4.45537">
        <ele>830</ele>
        <time>2016-09-04T09:50:35.589Z</time>
      </trkpt>
      <trkpt lat="46.1704" lon="4.45523">
        <ele>829</ele>
        <time>2016-09-04T09:50:40.589Z</time>
      </trkpt>
      <trkpt lat="46.17047" lon="4.45511">
        <ele>829</ele>
        <time>2016-09-04T09:50:48.589Z</time>
      </trkpt>
      <trkpt lat="46.17051" lon="4.45499">
        <ele>828</ele>
        <time>2016-09-04T09:50:56.589Z</time>
      </trkpt>
      <trkpt lat="46.17054" lon="4.45486">
        <ele>825</ele>
        <time>2016-09-04T09:51:02.589Z</time>
      </trkpt>
      <trkpt lat="46.17054" lon="4.45472">
        <ele>825</ele>
        <time>2016-09-04T09:51:09.589Z</time>
      </trkpt>
      <trkpt lat="46.17056" lon="4.45459">
        <ele>825</ele>
        <time>2016-09-04T09:51:14.589Z</time>
      </trkpt>
      <trkpt lat="46.17055" lon="4.45445">
        <ele>823</ele>
        <time>2016-09-04T09:51:20.589Z</time>
      </trkpt>
      <trkpt lat="46.17054" lon="4.45431">
        <ele>823</ele>
        <time>2016-09-04T09:51:27.589Z</time>
      </trkpt>
      <trkpt lat="46.17056" lon="4.45418">
        <ele>821</ele>
        <time>2016-09-04T09:51:33.589Z</time>
      </trkpt>
      <trkpt lat="46.17056" lon="4.45403">
        <ele>819</ele>
        <time>2016-09-04T09:51:41.589Z</time>
      </trkpt>
      <trkpt lat="46.17054" lon="4.45389">
        <ele>818.83629955638</ele>
        <time>2016-09-04T09:51:49.589Z</time>
      </trkpt>
      <trkpt lat="46.17056" lon="4.45376">
        <ele>818</ele>
        <time>2016-09-04T09:51:57.589Z</time>
      </trkpt>
      <trkpt lat="46.1706" lon="4.45363">
        <ele>815</ele>
        <time>2016-09-04T09:52:03.589Z</time>
      </trkpt>
      <trkpt lat="46.17062" lon="4.45344">
        <ele>815</ele>
        <time>2016-09-04T09:52:11.688Z</time>
      </trkpt>
      <trkpt lat="46.17063" lon="4.45331">
        <ele>815</ele>
        <time>2016-09-04T09:52:17.589Z</time>
      </trkpt>
      <trkpt lat="46.17065" lon="4.45318">
        <ele>814</ele>
        <time>2016-09-04T09:52:27.592Z</time>
      </trkpt>
      <trkpt lat="46.17067" lon="4.45304">
        <ele>814</ele>
        <time>2016-09-04T09:52:36.587Z</time>
      </trkpt>
      <trkpt lat="46.17067" lon="4.45286">
        <ele>813</ele>
        <time>2016-09-04T09:52:44.894Z</time>
      </trkpt>
      <trkpt lat="46.17069" lon="4.45272">
        <ele>811</ele>
        <time>2016-09-04T09:52:52.589Z</time>
      </trkpt>
      <trkpt lat="46.17069" lon="4.45259">
        <ele>810.7609984</ele>
        <time>2016-09-04T09:52:59.589Z</time>
      </trkpt>
      <trkpt lat="46.17071" lon="4.45245">
        <ele>810</ele>
        <time>2016-09-04T09:53:05.589Z</time>
      </trkpt>
      <trkpt lat="46.17067" lon="4.45231">
        <ele>809</ele>
        <time>2016-09-04T09:53:16.595Z</time>
      </trkpt>
      <trkpt lat="46.1706" lon="4.4522">
        <ele>807</ele>
        <time>2016-09-04T09:53:24.694Z</time>
      </trkpt>
      <trkpt lat="46.17051" lon="4.4521">
        <ele>805</ele>
        <time>2016-09-04T09:53:34.592Z</time>
      </trkpt>
      <trkpt lat="46.17045" lon="4.452">
        <ele>804</ele>
        <time>2016-09-04T09:53:43.591Z</time>
      </trkpt>
      <trkpt lat="46.17036" lon="4.45193">
        <ele>803.75267724537</ele>
        <time>2016-09-04T09:53:49.562Z</time>
      </trkpt>
      <trkpt lat="46.17033" lon="4.4518">
        <ele>800</ele>
        <time>2016-09-04T09:53:58.589Z</time>
      </trkpt>
      <trkpt lat="46.17032" lon="4.45165">
        <ele>799</ele>
        <time>2016-09-04T09:54:05.589Z</time>
      </trkpt>
      <trkpt lat="46.17035" lon="4.45152">
        <ele>798</ele>
        <time>2016-09-04T09:54:13.589Z</time>
      </trkpt>
      <trkpt lat="46.17035" lon="4.45139">
        <ele>798</ele>
        <time>2016-09-04T09:54:21.589Z</time>
      </trkpt>
      <trkpt lat="46.17034" lon="4.45121">
        <ele>796</ele>
        <time>2016-09-04T09:54:31.794Z</time>
      </trkpt>
      <trkpt lat="46.17033" lon="4.45108">
        <ele>795</ele>
        <time>2016-09-04T09:54:40.589Z</time>
      </trkpt>
      <trkpt lat="46.17031" lon="4.45095">
        <ele>794</ele>
        <time>2016-09-04T09:54:48.589Z</time>
      </trkpt>
      <trkpt lat="46.17032" lon="4.45081">
        <ele>793</ele>
        <time>2016-09-04T09:54:57.589Z</time>
      </trkpt>
      <trkpt lat="46.17031" lon="4.45067">
        <ele>789</ele>
        <time>2016-09-04T09:55:06.589Z</time>
      </trkpt>
      <trkpt lat="46.17029" lon="4.45055">
        <ele>788</ele>
        <time>2016-09-04T09:55:15.589Z</time>
      </trkpt>
      <trkpt lat="46.17026" lon="4.45039">
        <ele>787</ele>
        <time>2016-09-04T09:55:27.364Z</time>
      </trkpt>
      <trkpt lat="46.17025" lon="4.45026">
        <ele>786</ele>
        <time>2016-09-04T09:55:33.589Z</time>
      </trkpt>
      <trkpt lat="46.17021" lon="4.45013">
        <ele>784</ele>
        <time>2016-09-04T09:55:43.589Z</time>
      </trkpt>
      <trkpt lat="46.17016" lon="4.45002">
        <ele>782</ele>
        <time>2016-09-04T09:55:50.589Z</time>
      </trkpt>
      <trkpt lat="46.17016" lon="4.44982">
        <ele>782</ele>
        <time>2016-09-04T09:56:00.689Z</time>
      </trkpt>
      <trkpt lat="46.17006" lon="4.44974">
        <ele>781</ele>
        <time>2016-09-04T09:56:08.589Z</time>
      </trkpt>
      <trkpt lat="46.16998" lon="4.44964">
        <ele>780</ele>
        <time>2016-09-04T09:56:14.617Z</time>
      </trkpt>
      <trkpt lat="46.16995" lon="4.44949">
        <ele>778</ele>
        <time>2016-09-04T09:56:23.562Z</time>
      </trkpt>
      <trkpt lat="46.16992" lon="4.44935">
        <ele>778</ele>
        <time>2016-09-04T09:56:32.591Z</time>
      </trkpt>
      <trkpt lat="46.16992" lon="4.44921">
        <ele>777.54424615385</ele>
        <time>2016-09-04T09:56:40.587Z</time>
      </trkpt>
      <trkpt lat="46.1699" lon="4.44907">
        <ele>774</ele>
        <time>2016-09-04T09:57:06.617Z</time>
      </trkpt>
      <trkpt lat="46.16986" lon="4.44895">
        <ele>773</ele>
        <time>2016-09-04T09:57:17.589Z</time>
      </trkpt>
      <trkpt lat="46.16979" lon="4.44885">
        <ele>772</ele>
        <time>2016-09-04T09:57:26.589Z</time>
      </trkpt>
      <trkpt lat="46.1697" lon="4.44879">
        <ele>770</ele>
        <time>2016-09-04T09:57:35.589Z</time>
      </trkpt>
      <trkpt lat="46.16964" lon="4.44869">
        <ele>769.90595047619</ele>
        <time>2016-09-04T09:57:44.589Z</time>
      </trkpt>
      <trkpt lat="46.16957" lon="4.44858">
        <ele>769</ele>
        <time>2016-09-04T09:57:53.589Z</time>
      </trkpt>
      <trkpt lat="46.16951" lon="4.44847">
        <ele>767</ele>
        <time>2016-09-04T09:58:01.589Z</time>
      </trkpt>
      <trkpt lat="46.16945" lon="4.44836">
        <ele>767</ele>
        <time>2016-09-04T09:58:09.589Z</time>
      </trkpt>
      <trkpt lat="46.16943" lon="4.44821">
        <ele>766</ele>
        <time>2016-09-04T09:58:16.588Z</time>
      </trkpt>
      <trkpt lat="46.16938" lon="4.44809">
        <ele>765</ele>
        <time>2016-09-04T09:58:26.589Z</time>
      </trkpt>
      <trkpt lat="46.16933" lon="4.44798">
        <ele>764</ele>
        <time>2016-09-04T09:58:34.589Z</time>
      </trkpt>
      <trkpt lat="46.16928" lon="4.44786">
        <ele>763</ele>
        <time>2016-09-04T09:58:42.589Z</time>
      </trkpt>
      <trkpt lat="46.16925" lon="4.44773">
        <ele>762</ele>
        <time>2016-09-04T09:58:52.589Z</time>
      </trkpt>
      <trkpt lat="46.16925" lon="4.44759">
        <ele>760</ele>
        <time>2016-09-04T09:59:02.589Z</time>
      </trkpt>
      <trkpt lat="46.1692" lon="4.44747">
        <ele>759</ele>
        <time>2016-09-04T09:59:10.589Z</time>
      </trkpt>
      <trkpt lat="46.16913" lon="4.44739">
        <ele>759</ele>
        <time>2016-09-04T09:59:15.589Z</time>
      </trkpt>
      <trkpt lat="46.16913" lon="4.44725">
        <ele>759</ele>
        <time>2016-09-04T09:59:24.589Z</time>
      </trkpt>
      <trkpt lat="46.16919" lon="4.44713">
        <ele>758</ele>
        <time>2016-09-04T09:59:31.589Z</time>
      </trkpt>
      <trkpt lat="46.16921" lon="4.44701">
        <ele>757</ele>
        <time>2016-09-04T09:59:41.589Z</time>
      </trkpt>
      <trkpt lat="46.16919" lon="4.44687">
        <ele>756.76568323566</ele>
        <time>2016-09-04T09:59:49.589Z</time>
      </trkpt>
      <trkpt lat="46.16913" lon="4.44674">
        <ele>756</ele>
        <time>2016-09-04T09:59:57.589Z</time>
      </trkpt>
      <trkpt lat="46.16908" lon="4.44662">
        <ele>755</ele>
        <time>2016-09-04T10:00:03.589Z</time>
      </trkpt>
      <trkpt lat="46.16901" lon="4.44652">
        <ele>755.06049209083</ele>
        <time>2016-09-04T10:00:10.589Z</time>
      </trkpt>
      <trkpt lat="46.16899" lon="4.44639">
        <ele>756</ele>
        <time>2016-09-04T10:00:17.589Z</time>
      </trkpt>
      <trkpt lat="46.16892" lon="4.44629">
        <ele>756</ele>
        <time>2016-09-04T10:00:23.589Z</time>
      </trkpt>
      <trkpt lat="46.16884" lon="4.44619">
        <ele>756</ele>
        <time>2016-09-04T10:00:29.589Z</time>
      </trkpt>
      <trkpt lat="46.16877" lon="4.44608">
        <ele>755</ele>
        <time>2016-09-04T10:00:34.589Z</time>
      </trkpt>
      <trkpt lat="46.16873" lon="4.44595">
        <ele>755</ele>
        <time>2016-09-04T10:00:41.589Z</time>
      </trkpt>
      <trkpt lat="46.16872" lon="4.44582">
        <ele>755</ele>
        <time>2016-09-04T10:00:48.589Z</time>
      </trkpt>
      <trkpt lat="46.16873" lon="4.44568">
        <ele>755</ele>
        <time>2016-09-04T10:00:54.589Z</time>
      </trkpt>
      <trkpt lat="46.16875" lon="4.44555">
        <ele>754.81181023796</ele>
        <time>2016-09-04T10:00:59.589Z</time>
      </trkpt>
      <trkpt lat="46.16874" lon="4.44533">
        <ele>754</ele>
        <time>2016-09-04T10:01:06.660Z</time>
      </trkpt>
      <trkpt lat="46.16878" lon="4.44518">
        <ele>754</ele>
        <time>2016-09-04T10:01:11.589Z</time>
      </trkpt>
      <trkpt lat="46.16885" lon="4.44507">
        <ele>754</ele>
        <time>2016-09-04T10:01:16.589Z</time>
      </trkpt>
      <trkpt lat="46.16886" lon="4.44492">
        <ele>753</ele>
        <time>2016-09-04T10:01:25.589Z</time>
      </trkpt>
      <trkpt lat="46.16889" lon="4.44479">
        <ele>751</ele>
        <time>2016-09-04T10:01:33.589Z</time>
      </trkpt>
      <trkpt lat="46.16891" lon="4.44462">
        <ele>750</ele>
        <time>2016-09-04T10:01:42.391Z</time>
      </trkpt>
      <trkpt lat="46.16889" lon="4.44449">
        <ele>750</ele>
        <time>2016-09-04T10:01:44.601Z</time>
      </trkpt>
      <trkpt lat="46.16888" lon="4.44435">
        <ele>748</ele>
        <time>2016-09-04T10:01:53.589Z</time>
      </trkpt>
      <trkpt lat="46.16885" lon="4.44419">
        <ele>745</ele>
        <time>2016-09-04T10:02:02.618Z</time>
      </trkpt>
      <trkpt lat="46.16891" lon="4.44407">
        <ele>744</ele>
        <time>2016-09-04T10:02:10.636Z</time>
      </trkpt>
      <trkpt lat="46.16888" lon="4.44385">
        <ele>744</ele>
        <time>2016-09-04T10:02:18.589Z</time>
      </trkpt>
      <trkpt lat="46.16885" lon="4.4437">
        <ele>742</ele>
        <time>2016-09-04T10:02:27.496Z</time>
      </trkpt>
      <trkpt lat="46.16887" lon="4.44357">
        <ele>738</ele>
        <time>2016-09-04T10:02:36.589Z</time>
      </trkpt>
      <trkpt lat="46.16889" lon="4.44344">
        <ele>736</ele>
        <time>2016-09-04T10:02:45.589Z</time>
      </trkpt>
      <trkpt lat="46.16888" lon="4.4433">
        <ele>733</ele>
        <time>2016-09-04T10:02:56.589Z</time>
      </trkpt>
      <trkpt lat="46.16883" lon="4.44317">
        <ele>731</ele>
        <time>2016-09-04T10:03:04.589Z</time>
      </trkpt>
      <trkpt lat="46.16884" lon="4.44304">
        <ele>728</ele>
        <time>2016-09-04T10:03:13.589Z</time>
      </trkpt>
      <trkpt lat="46.16879" lon="4.44292">
        <ele>726</ele>
        <time>2016-09-04T10:03:22.589Z</time>
      </trkpt>
      <trkpt lat="46.16876" lon="4.44278">
        <ele>725.91785142857</ele>
        <time>2016-09-04T10:03:30.589Z</time>
      </trkpt>
      <trkpt lat="46.1687" lon="4.44267">
        <ele>725</ele>
        <time>2016-09-04T10:03:37.589Z</time>
      </trkpt>
      <trkpt lat="46.16861" lon="4.44261">
        <ele>724</ele>
        <time>2016-09-04T10:03:43.589Z</time>
      </trkpt>
      <trkpt lat="46.16852" lon="4.44248">
        <ele>722</ele>
        <time>2016-09-04T10:03:51.589Z</time>
      </trkpt>
      <trkpt lat="46.1685" lon="4.44235">
        <ele>721.80879823052</ele>
        <time>2016-09-04T10:03:59.589Z</time>
      </trkpt>
      <trkpt lat="46.16843" lon="4.44225">
        <ele>721</ele>
        <time>2016-09-04T10:04:07.824Z</time>
      </trkpt>
      <trkpt lat="46.16838" lon="4.44214">
        <ele>719</ele>
        <time>2016-09-04T10:04:11.589Z</time>
      </trkpt>
      <trkpt lat="46.16836" lon="4.442">
        <ele>717</ele>
        <time>2016-09-04T10:04:20.589Z</time>
      </trkpt>
      <trkpt lat="46.16829" lon="4.4419">
        <ele>717</ele>
        <time>2016-09-04T10:04:28.589Z</time>
      </trkpt>
      <trkpt lat="46.16822" lon="4.44182">
        <ele>717</ele>
        <time>2016-09-04T10:04:33.589Z</time>
      </trkpt>
      <trkpt lat="46.16816" lon="4.44172">
        <ele>717</ele>
        <time>2016-09-04T10:04:39.586Z</time>
      </trkpt>
      <trkpt lat="46.16811" lon="4.44159">
        <ele>717</ele>
        <time>2016-09-04T10:04:49.424Z</time>
      </trkpt>
      <trkpt lat="46.16804" lon="4.44149">
        <ele>717</ele>
        <time>2016-09-04T10:04:58.614Z</time>
      </trkpt>
      <trkpt lat="46.16794" lon="4.44144">
        <ele>716</ele>
        <time>2016-09-04T10:05:06.587Z</time>
      </trkpt>
      <trkpt lat="46.16786" lon="4.44136">
        <ele>715</ele>
        <time>2016-09-04T10:05:14.614Z</time>
      </trkpt>
      <trkpt lat="46.16793" lon="4.4412">
        <ele>714.74883162501</ele>
        <time>2016-09-04T10:05:31.694Z</time>
      </trkpt>
      <trkpt lat="46.16801" lon="4.44107">
        <ele>714</ele>
        <time>2016-09-04T10:05:37.616Z</time>
      </trkpt>
      <trkpt lat="46.16805" lon="4.44091">
        <ele>714</ele>
        <time>2016-09-04T10:05:45.594Z</time>
      </trkpt>
      <trkpt lat="46.16815" lon="4.44086">
        <ele>714</ele>
        <time>2016-09-04T10:05:57.589Z</time>
      </trkpt>
      <trkpt lat="46.16825" lon="4.44087">
        <ele>713</ele>
        <time>2016-09-04T10:06:02.589Z</time>
      </trkpt>
      <trkpt lat="46.16836" lon="4.44078">
        <ele>713</ele>
        <time>2016-09-04T10:06:12.589Z</time>
      </trkpt>
      <trkpt lat="46.16845" lon="4.44076">
        <ele>713</ele>
        <time>2016-09-04T10:06:18.590Z</time>
      </trkpt>
      <trkpt lat="46.16855" lon="4.44074">
        <ele>712</ele>
        <time>2016-09-04T10:06:32.615Z</time>
      </trkpt>
      <trkpt lat="46.16862" lon="4.44067">
        <ele>712</ele>
        <time>2016-09-04T10:06:39.588Z</time>
      </trkpt>
      <trkpt lat="46.1687" lon="4.4406">
        <ele>711</ele>
        <time>2016-09-04T10:06:45.589Z</time>
      </trkpt>
      <trkpt lat="46.16878" lon="4.44053">
        <ele>709.28965139785</ele>
        <time>2016-09-04T10:06:51.590Z</time>
      </trkpt>
      <trkpt lat="46.16886" lon="4.44045">
        <ele>707.8263113219</ele>
        <time>2016-09-04T10:06:59.565Z</time>
      </trkpt>
      <trkpt lat="46.16895" lon="4.44045">
        <ele>707</ele>
        <time>2016-09-04T10:07:08.618Z</time>
      </trkpt>
      <trkpt lat="46.16902" lon="4.44035">
        <ele>706</ele>
        <time>2016-09-04T10:07:15.590Z</time>
      </trkpt>
      <trkpt lat="46.16908" lon="4.44025">
        <ele>706</ele>
        <time>2016-09-04T10:07:23.589Z</time>
      </trkpt>
      <trkpt lat="46.16921" lon="4.44015">
        <ele>703</ele>
        <time>2016-09-04T10:07:32.590Z</time>
      </trkpt>
      <trkpt lat="46.16929" lon="4.44007">
        <ele>700</ele>
        <time>2016-09-04T10:07:42.589Z</time>
      </trkpt>
      <trkpt lat="46.16935" lon="4.43998">
        <ele>699</ele>
        <time>2016-09-04T10:07:50.589Z</time>
      </trkpt>
      <trkpt lat="46.16941" lon="4.43986">
        <ele>698.56544910807</ele>
        <time>2016-09-04T10:07:59.589Z</time>
      </trkpt>
      <trkpt lat="46.16948" lon="4.43977">
        <ele>696.76568323566</ele>
        <time>2016-09-04T10:08:09.589Z</time>
      </trkpt>
      <trkpt lat="46.16954" lon="4.43967">
        <ele>696</ele>
        <time>2016-09-04T10:08:17.589Z</time>
      </trkpt>
      <trkpt lat="46.1696" lon="4.43956">
        <ele>692</ele>
        <time>2016-09-04T10:08:26.589Z</time>
      </trkpt>
      <trkpt lat="46.16965" lon="4.43945">
        <ele>691</ele>
        <time>2016-09-04T10:08:34.589Z</time>
      </trkpt>
      <trkpt lat="46.16971" lon="4.43929">
        <ele>690</ele>
        <time>2016-09-04T10:08:46.694Z</time>
      </trkpt>
      <trkpt lat="46.16977" lon="4.4391">
        <ele>688</ele>
        <time>2016-09-04T10:08:55.589Z</time>
      </trkpt>
      <trkpt lat="46.16979" lon="4.43897">
        <ele>686</ele>
        <time>2016-09-04T10:09:00.587Z</time>
      </trkpt>
      <trkpt lat="46.16983" lon="4.43885">
        <ele>686</ele>
        <time>2016-09-04T10:09:07.616Z</time>
      </trkpt>
      <trkpt lat="46.1699" lon="4.43876">
        <ele>685</ele>
        <time>2016-09-04T10:09:17.589Z</time>
      </trkpt>
      <trkpt lat="46.16995" lon="4.43865">
        <ele>683</ele>
        <time>2016-09-04T10:09:23.558Z</time>
      </trkpt>
      <trkpt lat="46.17002" lon="4.43855">
        <ele>682</ele>
        <time>2016-09-04T10:09:32.589Z</time>
      </trkpt>
      <trkpt lat="46.1701" lon="4.43844">
        <ele>681</ele>
        <time>2016-09-04T10:09:42.589Z</time>
      </trkpt>
      <trkpt lat="46.17015" lon="4.43834">
        <ele>681</ele>
        <time>2016-09-04T10:09:48.588Z</time>
      </trkpt>
      <trkpt lat="46.17022" lon="4.43821">
        <ele>680</ele>
        <time>2016-09-04T10:09:58.589Z</time>
      </trkpt>
      <trkpt lat="46.17032" lon="4.43808">
        <ele>678</ele>
        <time>2016-09-04T10:10:08.666Z</time>
      </trkpt>
      <trkpt lat="46.17041" lon="4.43797">
        <ele>677</ele>
        <time>2016-09-04T10:10:16.419Z</time>
      </trkpt>
      <trkpt lat="46.17049" lon="4.43791">
        <ele>676</ele>
        <time>2016-09-04T10:10:23.592Z</time>
      </trkpt>
      <trkpt lat="46.17059" lon="4.43784">
        <ele>674</ele>
        <time>2016-09-04T10:10:31.589Z</time>
      </trkpt>
      <trkpt lat="46.17066" lon="4.43775">
        <ele>672.7609984</ele>
        <time>2016-09-04T10:10:39.589Z</time>
      </trkpt>
      <trkpt lat="46.17074" lon="4.43768">
        <ele>671.58792827586</ele>
        <time>2016-09-04T10:10:49.589Z</time>
      </trkpt>
      <trkpt lat="46.17081" lon="4.4376">
        <ele>669</ele>
        <time>2016-09-04T10:10:57.589Z</time>
      </trkpt>
      <trkpt lat="46.1709" lon="4.43755">
        <ele>668</ele>
        <time>2016-09-04T10:11:06.589Z</time>
      </trkpt>
      <trkpt lat="46.17099" lon="4.4375">
        <ele>666</ele>
        <time>2016-09-04T10:11:13.589Z</time>
      </trkpt>
      <trkpt lat="46.17111" lon="4.43746">
        <ele>665.54649639817</ele>
        <time>2016-09-04T10:11:19.685Z</time>
      </trkpt>
      <trkpt lat="46.17111" lon="4.43732">
        <ele>662</ele>
        <time>2016-09-04T10:12:01.589Z</time>
      </trkpt>
      <trkpt lat="46.17105" lon="4.43744">
        <ele>662</ele>
        <time>2016-09-04T10:12:38.586Z</time>
      </trkpt>
      <trkpt lat="46.17117" lon="4.43738">
        <ele>662</ele>
        <time>2016-09-04T10:12:51.690Z</time>
      </trkpt>
      <trkpt lat="46.17126" lon="4.43733">
        <ele>661</ele>
        <time>2016-09-04T10:13:06.589Z</time>
      </trkpt>
      <trkpt lat="46.1713" lon="4.43721">
        <ele>661</ele>
        <time>2016-09-04T10:13:14.589Z</time>
      </trkpt>
      <trkpt lat="46.17138" lon="4.43712">
        <ele>660</ele>
        <time>2016-09-04T10:13:23.564Z</time>
      </trkpt>
      <trkpt lat="46.17145" lon="4.43702">
        <ele>659</ele>
        <time>2016-09-04T10:13:31.589Z</time>
      </trkpt>
      <trkpt lat="46.17154" lon="4.4369">
        <ele>659</ele>
        <time>2016-09-04T10:13:56.624Z</time>
      </trkpt>
      <trkpt lat="46.17166" lon="4.4368">
        <ele>658</ele>
        <time>2016-09-04T10:14:11.689Z</time>
      </trkpt>
      <trkpt lat="46.17172" lon="4.4367">
        <ele>657</ele>
        <time>2016-09-04T10:14:39.589Z</time>
      </trkpt>
      <trkpt lat="46.1718" lon="4.43663">
        <ele>657</ele>
        <time>2016-09-04T10:14:47.589Z</time>
      </trkpt>
      <trkpt lat="46.17189" lon="4.43659">
        <ele>657</ele>
        <time>2016-09-04T10:14:56.589Z</time>
      </trkpt>
      <trkpt lat="46.17198" lon="4.43653">
        <ele>656.61913450802</ele>
        <time>2016-09-04T10:15:01.589Z</time>
      </trkpt>
      <trkpt lat="46.17206" lon="4.43648">
        <ele>655</ele>
        <time>2016-09-04T10:15:10.589Z</time>
      </trkpt>
      <trkpt lat="46.17216" lon="4.43647">
        <ele>654</ele>
        <time>2016-09-04T10:15:22.589Z</time>
      </trkpt>
      <trkpt lat="46.17226" lon="4.43646">
        <ele>654</ele>
        <time>2016-09-04T10:15:31.589Z</time>
      </trkpt>
      <trkpt lat="46.17238" lon="4.43642">
        <ele>654</ele>
        <time>2016-09-04T10:15:38.662Z</time>
      </trkpt>
      <trkpt lat="46.17248" lon="4.43642">
        <ele>652</ele>
        <time>2016-09-04T10:15:46.589Z</time>
      </trkpt>
      <trkpt lat="46.17261" lon="4.43642">
        <ele>652</ele>
        <time>2016-09-04T10:16:36.589Z</time>
      </trkpt>
      <trkpt lat="46.1727" lon="4.43636">
        <ele>651</ele>
        <time>2016-09-04T10:16:45.589Z</time>
      </trkpt>
      <trkpt lat="46.17279" lon="4.43629">
        <ele>651</ele>
        <time>2016-09-04T10:16:53.589Z</time>
      </trkpt>
      <trkpt lat="46.17288" lon="4.43624">
        <ele>648</ele>
        <time>2016-09-04T10:17:00.589Z</time>
      </trkpt>
      <trkpt lat="46.17297" lon="4.43618">
        <ele>648</ele>
        <time>2016-09-04T10:17:09.589Z</time>
      </trkpt>
      <trkpt lat="46.17306" lon="4.43612">
        <ele>648</ele>
        <time>2016-09-04T10:17:17.589Z</time>
      </trkpt>
      <trkpt lat="46.17314" lon="4.43606">
        <ele>648</ele>
        <time>2016-09-04T10:17:25.593Z</time>
      </trkpt>
      <trkpt lat="46.17324" lon="4.43601">
        <ele>648</ele>
        <time>2016-09-04T10:17:32.589Z</time>
      </trkpt>
      <trkpt lat="46.1734" lon="4.43597">
        <ele>648</ele>
        <time>2016-09-04T10:17:42.694Z</time>
      </trkpt>
      <trkpt lat="46.17349" lon="4.43591">
        <ele>647.23043225924</ele>
        <time>2016-09-04T10:17:50.589Z</time>
      </trkpt>
      <trkpt lat="46.17358" lon="4.43586">
        <ele>647</ele>
        <time>2016-09-04T10:17:55.694Z</time>
      </trkpt>
      <trkpt lat="46.17367" lon="4.43584">
        <ele>645</ele>
        <time>2016-09-04T10:18:01.589Z</time>
      </trkpt>
      <trkpt lat="46.17376" lon="4.43581">
        <ele>645</ele>
        <time>2016-09-04T10:18:13.589Z</time>
      </trkpt>
      <trkpt lat="46.17385" lon="4.43576">
        <ele>644</ele>
        <time>2016-09-04T10:18:21.589Z</time>
      </trkpt>
      <trkpt lat="46.17394" lon="4.4357">
        <ele>644</ele>
        <time>2016-09-04T10:18:30.589Z</time>
      </trkpt>
      <trkpt lat="46.17401" lon="4.43561">
        <ele>643</ele>
        <time>2016-09-04T10:18:41.589Z</time>
      </trkpt>
      <trkpt lat="46.1741" lon="4.43554">
        <ele>643</ele>
        <time>2016-09-04T10:18:47.589Z</time>
      </trkpt>
      <trkpt lat="46.1742" lon="4.43549">
        <ele>642</ele>
        <time>2016-09-04T10:18:53.589Z</time>
      </trkpt>
      <trkpt lat="46.17429" lon="4.43543">
        <ele>641.79396413793</ele>
        <time>2016-09-04T10:18:59.589Z</time>
      </trkpt>
      <trkpt lat="46.17437" lon="4.43535">
        <ele>641</ele>
        <time>2016-09-04T10:19:07.589Z</time>
      </trkpt>
      <trkpt lat="46.17451" lon="4.4353">
        <ele>640</ele>
        <time>2016-09-04T10:19:14.618Z</time>
      </trkpt>
      <trkpt lat="46.17468" lon="4.4352">
        <ele>639</ele>
        <time>2016-09-04T10:19:27.263Z</time>
      </trkpt>
      <trkpt lat="46.17475" lon="4.43511">
        <ele>639</ele>
        <time>2016-09-04T10:19:35.589Z</time>
      </trkpt>
      <trkpt lat="46.17483" lon="4.43504">
        <ele>638</ele>
        <time>2016-09-04T10:19:43.589Z</time>
      </trkpt>
      <trkpt lat="46.17492" lon="4.43499">
        <ele>638</ele>
        <time>2016-09-04T10:19:50.589Z</time>
      </trkpt>
      <trkpt lat="46.17501" lon="4.43494">
        <ele>638</ele>
        <time>2016-09-04T10:19:57.589Z</time>
      </trkpt>
      <trkpt lat="46.17512" lon="4.43489">
        <ele>637</ele>
        <time>2016-09-04T10:20:03.694Z</time>
      </trkpt>
      <trkpt lat="46.17524" lon="4.43487">
        <ele>637</ele>
        <time>2016-09-04T10:20:15.593Z</time>
      </trkpt>
      <trkpt lat="46.17534" lon="4.43484">
        <ele>637</ele>
        <time>2016-09-04T10:20:21.618Z</time>
      </trkpt>
      <trkpt lat="46.17547" lon="4.43479">
        <ele>637</ele>
        <time>2016-09-04T10:20:31.558Z</time>
      </trkpt>
      <trkpt lat="46.17557" lon="4.43476">
        <ele>637</ele>
        <time>2016-09-04T10:20:35.589Z</time>
      </trkpt>
      <trkpt lat="46.17563" lon="4.43466">
        <ele>637</ele>
        <time>2016-09-04T10:20:45.589Z</time>
      </trkpt>
      <trkpt lat="46.17572" lon="4.43461">
        <ele>637</ele>
        <time>2016-09-04T10:20:52.589Z</time>
      </trkpt>
      <trkpt lat="46.1758" lon="4.43456">
        <ele>636.43984</ele>
        <time>2016-09-04T10:20:59.589Z</time>
      </trkpt>
      <trkpt lat="46.17589" lon="4.43449">
        <ele>634</ele>
        <time>2016-09-04T10:21:09.588Z</time>
      </trkpt>
      <trkpt lat="46.17597" lon="4.43437">
        <ele>634</ele>
        <time>2016-09-04T10:21:16.694Z</time>
      </trkpt>
      <trkpt lat="46.17605" lon="4.43428">
        <ele>634</ele>
        <time>2016-09-04T10:21:26.589Z</time>
      </trkpt>
      <trkpt lat="46.17614" lon="4.43423">
        <ele>633</ele>
        <time>2016-09-04T10:21:35.589Z</time>
      </trkpt>
      <trkpt lat="46.17619" lon="4.43411">
        <ele>630.7609984</ele>
        <time>2016-09-04T10:21:44.589Z</time>
      </trkpt>
      <trkpt lat="46.17627" lon="4.43403">
        <ele>628</ele>
        <time>2016-09-04T10:21:51.589Z</time>
      </trkpt>
      <trkpt lat="46.17635" lon="4.43397">
        <ele>625</ele>
        <time>2016-09-04T10:22:00.589Z</time>
      </trkpt>
      <trkpt lat="46.17644" lon="4.4339">
        <ele>624.7957245695</ele>
        <time>2016-09-04T10:22:09.589Z</time>
      </trkpt>
      <trkpt lat="46.17651" lon="4.43381">
        <ele>624</ele>
        <time>2016-09-04T10:22:17.589Z</time>
      </trkpt>
      <trkpt lat="46.17658" lon="4.4337">
        <ele>623</ele>
        <time>2016-09-04T10:22:25.589Z</time>
      </trkpt>
      <trkpt lat="46.17655" lon="4.43358">
        <ele>622</ele>
        <time>2016-09-04T10:22:32.589Z</time>
      </trkpt>
      <trkpt lat="46.17654" lon="4.43345">
        <ele>623</ele>
        <time>2016-09-04T10:22:40.589Z</time>
      </trkpt>
      <trkpt lat="46.1765" lon="4.43333">
        <ele>623</ele>
        <time>2016-09-04T10:22:48.589Z</time>
      </trkpt>
      <trkpt lat="46.1765" lon="4.43314">
        <ele>623</ele>
        <time>2016-09-04T10:22:55.694Z</time>
      </trkpt>
      <trkpt lat="46.17652" lon="4.433">
        <ele>622</ele>
        <time>2016-09-04T10:23:04.589Z</time>
      </trkpt>
      <trkpt lat="46.17652" lon="4.43287">
        <ele>620</ele>
        <time>2016-09-04T10:23:13.589Z</time>
      </trkpt>
      <trkpt lat="46.17656" lon="4.43274">
        <ele>619</ele>
        <time>2016-09-04T10:23:24.589Z</time>
      </trkpt>
      <trkpt lat="46.1766" lon="4.43261">
        <ele>618</ele>
        <time>2016-09-04T10:23:34.589Z</time>
      </trkpt>
      <trkpt lat="46.17664" lon="4.43248">
        <ele>616</ele>
        <time>2016-09-04T10:23:42.589Z</time>
      </trkpt>
      <trkpt lat="46.17666" lon="4.43234">
        <ele>615</ele>
        <time>2016-09-04T10:23:50.589Z</time>
      </trkpt>
      <trkpt lat="46.17669" lon="4.43221">
        <ele>614.77870222222</ele>
        <time>2016-09-04T10:23:59.589Z</time>
      </trkpt>
      <trkpt lat="46.17675" lon="4.43209">
        <ele>614</ele>
        <time>2016-09-04T10:24:05.589Z</time>
      </trkpt>
      <trkpt lat="46.17679" lon="4.43197">
        <ele>612</ele>
        <time>2016-09-04T10:24:13.589Z</time>
      </trkpt>
      <trkpt lat="46.17683" lon="4.43185">
        <ele>611</ele>
        <time>2016-09-04T10:24:20.589Z</time>
      </trkpt>
      <trkpt lat="46.17684" lon="4.43171">
        <ele>611</ele>
        <time>2016-09-04T10:24:28.589Z</time>
      </trkpt>
      <trkpt lat="46.17688" lon="4.43158">
        <ele>610</ele>
        <time>2016-09-04T10:24:34.589Z</time>
      </trkpt>
      <trkpt lat="46.17691" lon="4.43145">
        <ele>609</ele>
        <time>2016-09-04T10:24:41.589Z</time>
      </trkpt>
      <trkpt lat="46.17696" lon="4.43134">
        <ele>608</ele>
        <time>2016-09-04T10:24:50.589Z</time>
      </trkpt>
      <trkpt lat="46.17702" lon="4.43123">
        <ele>608</ele>
        <time>2016-09-04T10:24:56.589Z</time>
      </trkpt>
      <trkpt lat="46.17706" lon="4.4311">
        <ele>606</ele>
        <time>2016-09-04T10:25:01.589Z</time>
      </trkpt>
      <trkpt lat="46.17708" lon="4.43097">
        <ele>606</ele>
        <time>2016-09-04T10:25:07.389Z</time>
      </trkpt>
      <trkpt lat="46.17708" lon="4.43083">
        <ele>605</ele>
        <time>2016-09-04T10:25:12.589Z</time>
      </trkpt>
      <trkpt lat="46.17711" lon="4.43069">
        <ele>605</ele>
        <time>2016-09-04T10:25:19.589Z</time>
      </trkpt>
      <trkpt lat="46.17713" lon="4.43054">
        <ele>605</ele>
        <time>2016-09-04T10:25:27.587Z</time>
      </trkpt>
      <trkpt lat="46.17717" lon="4.43041">
        <ele>604</ele>
        <time>2016-09-04T10:25:32.589Z</time>
      </trkpt>
      <trkpt lat="46.17722" lon="4.43027">
        <ele>603</ele>
        <time>2016-09-04T10:25:41.589Z</time>
      </trkpt>
      <trkpt lat="46.1773" lon="4.43018">
        <ele>603</ele>
        <time>2016-09-04T10:25:46.589Z</time>
      </trkpt>
      <trkpt lat="46.1774" lon="4.4301">
        <ele>603</ele>
        <time>2016-09-04T10:25:53.593Z</time>
      </trkpt>
      <trkpt lat="46.17749" lon="4.43007">
        <ele>603</ele>
        <time>2016-09-04T10:26:01.589Z</time>
      </trkpt>
      <trkpt lat="46.17758" lon="4.43002">
        <ele>603</ele>
        <time>2016-09-04T10:26:08.617Z</time>
      </trkpt>
      <trkpt lat="46.17763" lon="4.42991">
        <ele>603</ele>
        <time>2016-09-04T10:26:16.589Z</time>
      </trkpt>
      <trkpt lat="46.1777" lon="4.4298">
        <ele>602</ele>
        <time>2016-09-04T10:26:23.562Z</time>
      </trkpt>
      <trkpt lat="46.17776" lon="4.42969">
        <ele>601</ele>
        <time>2016-09-04T10:26:31.590Z</time>
      </trkpt>
      <trkpt lat="46.17785" lon="4.42961">
        <ele>601</ele>
        <time>2016-09-04T10:26:39.592Z</time>
      </trkpt>
      <trkpt lat="46.17792" lon="4.42952">
        <ele>602</ele>
        <time>2016-09-04T10:26:45.618Z</time>
      </trkpt>
      <trkpt lat="46.178" lon="4.42944">
        <ele>603</ele>
        <time>2016-09-04T10:26:53.589Z</time>
      </trkpt>
      <trkpt lat="46.17806" lon="4.42933">
        <ele>603</ele>
        <time>2016-09-04T10:27:02.563Z</time>
      </trkpt>
      <trkpt lat="46.17813" lon="4.42919">
        <ele>604.79138206897</ele>
        <time>2016-09-04T10:27:11.389Z</time>
      </trkpt>
      <trkpt lat="46.17821" lon="4.42914">
        <ele>605</ele>
        <time>2016-09-04T10:27:16.589Z</time>
      </trkpt>
      <trkpt lat="46.17828" lon="4.42904">
        <ele>606</ele>
        <time>2016-09-04T10:27:25.562Z</time>
      </trkpt>
      <trkpt lat="46.17826" lon="4.4289">
        <ele>607</ele>
        <time>2016-09-04T10:27:32.590Z</time>
      </trkpt>
      <trkpt lat="46.17828" lon="4.42877">
        <ele>607</ele>
        <time>2016-09-04T10:27:41.591Z</time>
      </trkpt>
      <trkpt lat="46.17822" lon="4.42889">
        <ele>607</ele>
        <time>2016-09-04T10:29:30.615Z</time>
      </trkpt>
      <trkpt lat="46.17828" lon="4.42879">
        <ele>607</ele>
        <time>2016-09-04T10:29:38.587Z</time>
      </trkpt>
      <trkpt lat="46.17822" lon="4.42892">
        <ele>607</ele>
        <time>2016-09-04T10:39:58.588Z</time>
      </trkpt>
      <trkpt lat="46.1783" lon="4.42888">
        <ele>607</ele>
        <time>2016-09-04T10:44:27.588Z</time>
      </trkpt>
      <trkpt lat="46.17822" lon="4.42881">
        <ele>607</ele>
        <time>2016-09-04T10:46:21.587Z</time>
      </trkpt>
      <trkpt lat="46.17827" lon="4.42869">
        <ele>607</ele>
        <time>2016-09-04T10:46:35.617Z</time>
      </trkpt>
      <trkpt lat="46.17819" lon="4.42877">
        <ele>607</ele>
        <time>2016-09-04T10:46:42.589Z</time>
      </trkpt>
      <trkpt lat="46.17825" lon="4.42889">
        <ele>607</ele>
        <time>2016-09-04T10:46:57.589Z</time>
      </trkpt>
      <trkpt lat="46.17826" lon="4.42876">
        <ele>607</ele>
        <time>2016-09-04T10:47:37.589Z</time>
      </trkpt>
      <trkpt lat="46.17825" lon="4.42891">
        <ele>607</ele>
        <time>2016-09-04T10:48:11.588Z</time>
      </trkpt>
      <trkpt lat="46.1783" lon="4.42903">
        <ele>607</ele>
        <time>2016-09-04T10:48:49.591Z</time>
      </trkpt>
      <trkpt lat="46.17838" lon="4.4291">
        <ele>607</ele>
        <time>2016-09-04T10:48:58.589Z</time>
      </trkpt>
      <trkpt lat="46.17849" lon="4.42912">
        <ele>607</ele>
        <time>2016-09-04T10:49:09.589Z</time>
      </trkpt>
      <trkpt lat="46.17859" lon="4.42915">
        <ele>607</ele>
        <time>2016-09-04T10:49:23.590Z</time>
      </trkpt>
      <trkpt lat="46.17869" lon="4.42914">
        <ele>598</ele>
        <time>2016-09-04T10:49:33.690Z</time>
      </trkpt>
      <trkpt lat="46.17878" lon="4.42915">
        <ele>596.77652390842</ele>
        <time>2016-09-04T10:49:41.589Z</time>
      </trkpt>
      <trkpt lat="46.17886" lon="4.42925">
        <ele>596</ele>
        <time>2016-09-04T10:49:50.617Z</time>
      </trkpt>
      <trkpt lat="46.1789" lon="4.42938">
        <ele>595</ele>
        <time>2016-09-04T10:49:57.588Z</time>
      </trkpt>
      <trkpt lat="46.17896" lon="4.4295">
        <ele>593</ele>
        <time>2016-09-04T10:50:07.590Z</time>
      </trkpt>
      <trkpt lat="46.17904" lon="4.42958">
        <ele>591</ele>
        <time>2016-09-04T10:50:13.591Z</time>
      </trkpt>
      <trkpt lat="46.1791" lon="4.42967">
        <ele>589</ele>
        <time>2016-09-04T10:50:20.589Z</time>
      </trkpt>
      <trkpt lat="46.1792" lon="4.42974">
        <ele>589</ele>
        <time>2016-09-04T10:50:32.390Z</time>
      </trkpt>
      <trkpt lat="46.17929" lon="4.42985">
        <ele>589</ele>
        <time>2016-09-04T10:50:40.588Z</time>
      </trkpt>
      <trkpt lat="46.17939" lon="4.42991">
        <ele>588</ele>
        <time>2016-09-04T10:50:49.590Z</time>
      </trkpt>
      <trkpt lat="46.17948" lon="4.42994">
        <ele>586</ele>
        <time>2016-09-04T10:50:56.689Z</time>
      </trkpt>
      <trkpt lat="46.17963" lon="4.43004">
        <ele>584</ele>
        <time>2016-09-04T10:51:10.690Z</time>
      </trkpt>
      <trkpt lat="46.17971" lon="4.43011">
        <ele>583</ele>
        <time>2016-09-04T10:51:18.590Z</time>
      </trkpt>
      <trkpt lat="46.1798" lon="4.43015">
        <ele>583</ele>
        <time>2016-09-04T10:51:23.589Z</time>
      </trkpt>
      <trkpt lat="46.17989" lon="4.43017">
        <ele>582</ele>
        <time>2016-09-04T10:51:31.589Z</time>
      </trkpt>
      <trkpt lat="46.17997" lon="4.43026">
        <ele>581</ele>
        <time>2016-09-04T10:51:40.691Z</time>
      </trkpt>
      <trkpt lat="46.18006" lon="4.43031">
        <ele>580</ele>
        <time>2016-09-04T10:51:47.589Z</time>
      </trkpt>
      <trkpt lat="46.18017" lon="4.43033">
        <ele>579</ele>
        <time>2016-09-04T10:51:58.392Z</time>
      </trkpt>
      <trkpt lat="46.18027" lon="4.43031">
        <ele>578</ele>
        <time>2016-09-04T10:52:16.393Z</time>
      </trkpt>
      <trkpt lat="46.18027" lon="4.43011">
        <ele>579</ele>
        <time>2016-09-04T10:52:31.561Z</time>
      </trkpt>
      <trkpt lat="46.18028" lon="4.43024">
        <ele>579</ele>
        <time>2016-09-04T10:52:38.693Z</time>
      </trkpt>
      <trkpt lat="46.18031" lon="4.43041">
        <ele>578</ele>
        <time>2016-09-04T10:52:45.622Z</time>
      </trkpt>
      <trkpt lat="46.18027" lon="4.43054">
        <ele>577</ele>
        <time>2016-09-04T10:53:02.618Z</time>
      </trkpt>
      <trkpt lat="46.18029" lon="4.43067">
        <ele>577</ele>
        <time>2016-09-04T10:53:09.589Z</time>
      </trkpt>
      <trkpt lat="46.18028" lon="4.43082">
        <ele>577</ele>
        <time>2016-09-04T10:53:18.589Z</time>
      </trkpt>
      <trkpt lat="46.18029" lon="4.43096">
        <ele>575</ele>
        <time>2016-09-04T10:53:29.690Z</time>
      </trkpt>
      <trkpt lat="46.18034" lon="4.43106">
        <ele>574</ele>
        <time>2016-09-04T10:53:35.566Z</time>
      </trkpt>
      <trkpt lat="46.18038" lon="4.43121">
        <ele>574</ele>
        <time>2016-09-04T10:53:46.590Z</time>
      </trkpt>
      <trkpt lat="46.18045" lon="4.43131">
        <ele>573</ele>
        <time>2016-09-04T10:53:55.391Z</time>
      </trkpt>
      <trkpt lat="46.18062" lon="4.43142">
        <ele>574</ele>
        <time>2016-09-04T10:54:07.688Z</time>
      </trkpt>
      <trkpt lat="46.18072" lon="4.43144">
        <ele>574</ele>
        <time>2016-09-04T10:54:14.615Z</time>
      </trkpt>
      <trkpt lat="46.18081" lon="4.43142">
        <ele>573</ele>
        <time>2016-09-04T10:54:22.591Z</time>
      </trkpt>
      <trkpt lat="46.18083" lon="4.43155">
        <ele>574</ele>
        <time>2016-09-04T10:54:30.590Z</time>
      </trkpt>
      <trkpt lat="46.18089" lon="4.43168">
        <ele>574</ele>
        <time>2016-09-04T10:54:40.616Z</time>
      </trkpt>
      <trkpt lat="46.18098" lon="4.43166">
        <ele>574</ele>
        <time>2016-09-04T10:54:47.589Z</time>
      </trkpt>
      <trkpt lat="46.18108" lon="4.43167">
        <ele>575</ele>
        <time>2016-09-04T10:54:54.589Z</time>
      </trkpt>
      <trkpt lat="46.18118" lon="4.43171">
        <ele>576</ele>
        <time>2016-09-04T10:55:05.589Z</time>
      </trkpt>
      <trkpt lat="46.18129" lon="4.43173">
        <ele>578</ele>
        <time>2016-09-04T10:55:13.589Z</time>
      </trkpt>
      <trkpt lat="46.18138" lon="4.43176">
        <ele>580</ele>
        <time>2016-09-04T10:55:20.623Z</time>
      </trkpt>
      <trkpt lat="46.18148" lon="4.43173">
        <ele>580</ele>
        <time>2016-09-04T10:55:28.589Z</time>
      </trkpt>
      <trkpt lat="46.18158" lon="4.43177">
        <ele>581</ele>
        <time>2016-09-04T10:55:35.589Z</time>
      </trkpt>
      <trkpt lat="46.18169" lon="4.43179">
        <ele>581</ele>
        <time>2016-09-04T10:55:43.620Z</time>
      </trkpt>
      <trkpt lat="46.18176" lon="4.43189">
        <ele>583</ele>
        <time>2016-09-04T10:55:53.589Z</time>
      </trkpt>
      <trkpt lat="46.18185" lon="4.43191">
        <ele>584</ele>
        <time>2016-09-04T10:56:00.591Z</time>
      </trkpt>
      <trkpt lat="46.18194" lon="4.43185">
        <ele>585</ele>
        <time>2016-09-04T10:56:11.622Z</time>
      </trkpt>
      <trkpt lat="46.18204" lon="4.43179">
        <ele>584</ele>
        <time>2016-09-04T10:56:20.664Z</time>
      </trkpt>
      <trkpt lat="46.18213" lon="4.43174">
        <ele>584</ele>
        <time>2016-09-04T10:56:27.589Z</time>
      </trkpt>
      <trkpt lat="46.18221" lon="4.43171">
        <ele>584</ele>
        <time>2016-09-04T10:56:36.589Z</time>
      </trkpt>
      <trkpt lat="46.18231" lon="4.43169">
        <ele>583</ele>
        <time>2016-09-04T10:56:44.620Z</time>
      </trkpt>
      <trkpt lat="46.18239" lon="4.43157">
        <ele>583</ele>
        <time>2016-09-04T10:56:59.589Z</time>
      </trkpt>
      <trkpt lat="46.18249" lon="4.43158">
        <ele>582</ele>
        <time>2016-09-04T10:57:04.589Z</time>
      </trkpt>
      <trkpt lat="46.1826" lon="4.43153">
        <ele>582</ele>
        <time>2016-09-04T10:57:14.591Z</time>
      </trkpt>
      <trkpt lat="46.1827" lon="4.43149">
        <ele>581.83629955638</ele>
        <time>2016-09-04T10:57:22.589Z</time>
      </trkpt>
      <trkpt lat="46.18278" lon="4.43142">
        <ele>581</ele>
        <time>2016-09-04T10:57:31.615Z</time>
      </trkpt>
      <trkpt lat="46.18281" lon="4.43129">
        <ele>581</ele>
        <time>2016-09-04T10:57:40.614Z</time>
      </trkpt>
      <trkpt lat="46.18292" lon="4.43134">
        <ele>580</ele>
        <time>2016-09-04T10:57:45.590Z</time>
      </trkpt>
      <trkpt lat="46.18302" lon="4.43136">
        <ele>580</ele>
        <time>2016-09-04T10:57:52.590Z</time>
      </trkpt>
      <trkpt lat="46.18312" lon="4.43134">
        <ele>580</ele>
        <time>2016-09-04T10:57:59.560Z</time>
      </trkpt>
      <trkpt lat="46.18321" lon="4.4313">
        <ele>580</ele>
        <time>2016-09-04T10:58:06.560Z</time>
      </trkpt>
      <trkpt lat="46.18331" lon="4.43132">
        <ele>580</ele>
        <time>2016-09-04T10:58:12.590Z</time>
      </trkpt>
      <trkpt lat="46.18341" lon="4.43133">
        <ele>579</ele>
        <time>2016-09-04T10:58:20.565Z</time>
      </trkpt>
      <trkpt lat="46.18351" lon="4.43137">
        <ele>578</ele>
        <time>2016-09-04T10:58:33.693Z</time>
      </trkpt>
      <trkpt lat="46.18366" lon="4.43135">
        <ele>578</ele>
        <time>2016-09-04T10:58:43.662Z</time>
      </trkpt>
      <trkpt lat="46.18376" lon="4.43129">
        <ele>578</ele>
        <time>2016-09-04T10:58:50.663Z</time>
      </trkpt>
      <trkpt lat="46.18388" lon="4.43137">
        <ele>577</ele>
        <time>2016-09-04T10:59:03.589Z</time>
      </trkpt>
      <trkpt lat="46.18396" lon="4.43146">
        <ele>577</ele>
        <time>2016-09-04T10:59:09.589Z</time>
      </trkpt>
      <trkpt lat="46.18407" lon="4.4315">
        <ele>575</ele>
        <time>2016-09-04T10:59:16.589Z</time>
      </trkpt>
      <trkpt lat="46.18416" lon="4.43147">
        <ele>574</ele>
        <time>2016-09-04T10:59:26.614Z</time>
      </trkpt>
      <trkpt lat="46.18426" lon="4.43144">
        <ele>573</ele>
        <time>2016-09-04T10:59:36.589Z</time>
      </trkpt>
      <trkpt lat="46.1843" lon="4.43131">
        <ele>571</ele>
        <time>2016-09-04T10:59:47.589Z</time>
      </trkpt>
      <trkpt lat="46.18434" lon="4.43117">
        <ele>571</ele>
        <time>2016-09-04T10:59:57.589Z</time>
      </trkpt>
      <trkpt lat="46.18435" lon="4.43103">
        <ele>570</ele>
        <time>2016-09-04T11:00:07.589Z</time>
      </trkpt>
      <trkpt lat="46.18436" lon="4.43089">
        <ele>568</ele>
        <time>2016-09-04T11:00:16.589Z</time>
      </trkpt>
      <trkpt lat="46.18436" lon="4.43075">
        <ele>567</ele>
        <time>2016-09-04T11:00:24.589Z</time>
      </trkpt>
      <trkpt lat="46.18435" lon="4.43062">
        <ele>564</ele>
        <time>2016-09-04T11:00:34.589Z</time>
      </trkpt>
      <trkpt lat="46.18433" lon="4.43049">
        <ele>564</ele>
        <time>2016-09-04T11:00:43.589Z</time>
      </trkpt>
      <trkpt lat="46.18437" lon="4.43035">
        <ele>564</ele>
        <time>2016-09-04T11:00:52.620Z</time>
      </trkpt>
      <trkpt lat="46.18429" lon="4.43039">
        <ele>564</ele>
        <time>2016-09-04T11:03:35.689Z</time>
      </trkpt>
      <trkpt lat="46.18432" lon="4.43025">
        <ele>563</ele>
        <time>2016-09-04T11:03:57.590Z</time>
      </trkpt>
      <trkpt lat="46.18426" lon="4.43013">
        <ele>563</ele>
        <time>2016-09-04T11:04:07.589Z</time>
      </trkpt>
      <trkpt lat="46.18417" lon="4.43006">
        <ele>563</ele>
        <time>2016-09-04T11:04:12.589Z</time>
      </trkpt>
      <trkpt lat="46.18425" lon="4.43014">
        <ele>563</ele>
        <time>2016-09-04T11:04:21.586Z</time>
      </trkpt>
      <trkpt lat="46.18422" lon="4.43027">
        <ele>563</ele>
        <time>2016-09-04T11:04:30.589Z</time>
      </trkpt>
      <trkpt lat="46.18434" lon="4.43026">
        <ele>563</ele>
        <time>2016-09-04T11:05:13.620Z</time>
      </trkpt>
      <trkpt lat="46.18444" lon="4.43025">
        <ele>563</ele>
        <time>2016-09-04T11:05:19.616Z</time>
      </trkpt>
      <trkpt lat="46.18439" lon="4.43014">
        <ele>563</ele>
        <time>2016-09-04T11:06:07.589Z</time>
      </trkpt>
      <trkpt lat="46.18448" lon="4.42997">
        <ele>562</ele>
        <time>2016-09-04T11:06:22.620Z</time>
      </trkpt>
      <trkpt lat="46.18451" lon="4.42985">
        <ele>561</ele>
        <time>2016-09-04T11:06:35.694Z</time>
      </trkpt>
      <trkpt lat="46.18462" lon="4.42972">
        <ele>560</ele>
        <time>2016-09-04T11:06:48.689Z</time>
      </trkpt>
      <trkpt lat="46.18459" lon="4.42955">
        <ele>560</ele>
        <time>2016-09-04T11:06:54.394Z</time>
      </trkpt>
      <trkpt lat="46.18458" lon="4.4294">
        <ele>557</ele>
        <time>2016-09-04T11:07:04.289Z</time>
      </trkpt>
      <trkpt lat="46.18452" lon="4.42929">
        <ele>557</ele>
        <time>2016-09-04T11:07:10.694Z</time>
      </trkpt>
      <trkpt lat="46.18447" lon="4.42915">
        <ele>558</ele>
        <time>2016-09-04T11:07:17.692Z</time>
      </trkpt>
      <trkpt lat="46.18442" lon="4.42903">
        <ele>557</ele>
        <time>2016-09-04T11:07:26.589Z</time>
      </trkpt>
      <trkpt lat="46.18433" lon="4.42886">
        <ele>556</ele>
        <time>2016-09-04T11:07:34.622Z</time>
      </trkpt>
      <trkpt lat="46.18433" lon="4.42869">
        <ele>556</ele>
        <time>2016-09-04T11:07:42.589Z</time>
      </trkpt>
      <trkpt lat="46.18436" lon="4.42856">
        <ele>556</ele>
        <time>2016-09-04T11:07:50.589Z</time>
      </trkpt>
      <trkpt lat="46.18437" lon="4.42841">
        <ele>556</ele>
        <time>2016-09-04T11:07:58.589Z</time>
      </trkpt>
      <trkpt lat="46.18438" lon="4.42828">
        <ele>556</ele>
        <time>2016-09-04T11:08:05.589Z</time>
      </trkpt>
      <trkpt lat="46.18439" lon="4.42813">
        <ele>558</ele>
        <time>2016-09-04T11:08:11.589Z</time>
      </trkpt>
      <trkpt lat="46.18442" lon="4.428">
        <ele>558</ele>
        <time>2016-09-04T11:08:25.620Z</time>
      </trkpt>
      <trkpt lat="46.18441" lon="4.42783">
        <ele>558</ele>
        <time>2016-09-04T11:08:29.592Z</time>
      </trkpt>
      <trkpt lat="46.18441" lon="4.42768">
        <ele>558</ele>
        <time>2016-09-04T11:08:35.592Z</time>
      </trkpt>
      <trkpt lat="46.18438" lon="4.42754">
        <ele>558</ele>
        <time>2016-09-04T11:08:54.592Z</time>
      </trkpt>
      <trkpt lat="46.18443" lon="4.42742">
        <ele>559</ele>
        <time>2016-09-04T11:09:09.589Z</time>
      </trkpt>
      <trkpt lat="46.18444" lon="4.42726">
        <ele>558</ele>
        <time>2016-09-04T11:09:19.589Z</time>
      </trkpt>
      <trkpt lat="46.18444" lon="4.42713">
        <ele>558</ele>
        <time>2016-09-04T11:09:24.589Z</time>
      </trkpt>
      <trkpt lat="46.18447" lon="4.42688">
        <ele>558</ele>
        <time>2016-09-04T11:09:36.589Z</time>
      </trkpt>
      <trkpt lat="46.18442" lon="4.42677">
        <ele>557</ele>
        <time>2016-09-04T11:09:43.616Z</time>
      </trkpt>
      <trkpt lat="46.18443" lon="4.4266">
        <ele>556.67212307692</ele>
        <time>2016-09-04T11:09:50.691Z</time>
      </trkpt>
      <trkpt lat="46.1845" lon="4.4265">
        <ele>556</ele>
        <time>2016-09-04T11:09:55.589Z</time>
      </trkpt>
      <trkpt lat="46.18466" lon="4.42652">
        <ele>553</ele>
        <time>2016-09-04T11:10:05.691Z</time>
      </trkpt>
      <trkpt lat="46.18479" lon="4.42655">
        <ele>552</ele>
        <time>2016-09-04T11:10:13.666Z</time>
      </trkpt>
      <trkpt lat="46.18487" lon="4.42647">
        <ele>551</ele>
        <time>2016-09-04T11:10:22.589Z</time>
      </trkpt>
      <trkpt lat="46.18496" lon="4.42641">
        <ele>551</ele>
        <time>2016-09-04T11:10:29.614Z</time>
      </trkpt>
      <trkpt lat="46.18505" lon="4.42633">
        <ele>550</ele>
        <time>2016-09-04T11:10:37.589Z</time>
      </trkpt>
      <trkpt lat="46.18514" lon="4.42625">
        <ele>550</ele>
        <time>2016-09-04T11:10:44.589Z</time>
      </trkpt>
      <trkpt lat="46.18524" lon="4.42616">
        <ele>550</ele>
        <time>2016-09-04T11:10:52.589Z</time>
      </trkpt>
      <trkpt lat="46.18533" lon="4.42609">
        <ele>549</ele>
        <time>2016-09-04T11:11:03.589Z</time>
      </trkpt>
      <trkpt lat="46.18543" lon="4.42607">
        <ele>549</ele>
        <time>2016-09-04T11:11:09.589Z</time>
      </trkpt>
      <trkpt lat="46.18552" lon="4.42604">
        <ele>549</ele>
        <time>2016-09-04T11:11:15.589Z</time>
      </trkpt>
      <trkpt lat="46.18562" lon="4.42595">
        <ele>550</ele>
        <time>2016-09-04T11:11:23.585Z</time>
      </trkpt>
      <trkpt lat="46.18567" lon="4.42584">
        <ele>550</ele>
        <time>2016-09-04T11:11:27.615Z</time>
      </trkpt>
      <trkpt lat="46.18577" lon="4.4258">
        <ele>550</ele>
        <time>2016-09-04T11:11:34.619Z</time>
      </trkpt>
      <trkpt lat="46.18586" lon="4.42569">
        <ele>549</ele>
        <time>2016-09-04T11:11:42.617Z</time>
      </trkpt>
      <trkpt lat="46.18588" lon="4.42546">
        <ele>549</ele>
        <time>2016-09-04T11:11:49.591Z</time>
      </trkpt>
      <trkpt lat="46.18593" lon="4.42526">
        <ele>549</ele>
        <time>2016-09-04T11:12:03.589Z</time>
      </trkpt>
      <trkpt lat="46.18597" lon="4.42542">
        <ele>549</ele>
        <time>2016-09-04T11:12:09.589Z</time>
      </trkpt>
      <trkpt lat="46.18604" lon="4.42556">
        <ele>549</ele>
        <time>2016-09-04T11:12:16.591Z</time>
      </trkpt>
      <trkpt lat="46.18613" lon="4.42568">
        <ele>549</ele>
        <time>2016-09-04T11:12:28.591Z</time>
      </trkpt>
      <trkpt lat="46.18625" lon="4.42566">
        <ele>549</ele>
        <time>2016-09-04T11:12:43.296Z</time>
      </trkpt>
      <trkpt lat="46.18637" lon="4.42561">
        <ele>549</ele>
        <time>2016-09-04T11:12:56.589Z</time>
      </trkpt>
      <trkpt lat="46.18641" lon="4.42548">
        <ele>549</ele>
        <time>2016-09-04T11:12:59.589Z</time>
      </trkpt>
      <trkpt lat="46.1865" lon="4.42546">
        <ele>549</ele>
        <time>2016-09-04T11:13:06.620Z</time>
      </trkpt>
      <trkpt lat="46.18659" lon="4.42545">
        <ele>549</ele>
        <time>2016-09-04T11:13:12.691Z</time>
      </trkpt>
      <trkpt lat="46.18669" lon="4.42547">
        <ele>549</ele>
        <time>2016-09-04T11:13:17.589Z</time>
      </trkpt>
      <trkpt lat="46.18678" lon="4.42551">
        <ele>549</ele>
        <time>2016-09-04T11:13:22.589Z</time>
      </trkpt>
      <trkpt lat="46.18689" lon="4.42541">
        <ele>548</ele>
        <time>2016-09-04T11:13:34.589Z</time>
      </trkpt>
      <trkpt lat="46.18699" lon="4.42541">
        <ele>548.16374096267</ele>
        <time>2016-09-04T11:13:40.589Z</time>
      </trkpt>
      <trkpt lat="46.18708" lon="4.42545">
        <ele>549</ele>
        <time>2016-09-04T11:13:46.589Z</time>
      </trkpt>
      <trkpt lat="46.18719" lon="4.42545">
        <ele>549</ele>
        <time>2016-09-04T11:13:54.290Z</time>
      </trkpt>
      <trkpt lat="46.18728" lon="4.42542">
        <ele>549.23663599726</ele>
        <time>2016-09-04T11:13:59.589Z</time>
      </trkpt>
      <trkpt lat="46.18738" lon="4.4254">
        <ele>550</ele>
        <time>2016-09-04T11:14:05.589Z</time>
      </trkpt>
      <trkpt lat="46.18747" lon="4.42541">
        <ele>550</ele>
        <time>2016-09-04T11:14:13.589Z</time>
      </trkpt>
      <trkpt lat="46.18757" lon="4.42539">
        <ele>550</ele>
        <time>2016-09-04T11:14:19.589Z</time>
      </trkpt>
      <trkpt lat="46.18767" lon="4.42538">
        <ele>550</ele>
        <time>2016-09-04T11:14:25.589Z</time>
      </trkpt>
      <trkpt lat="46.18777" lon="4.42538">
        <ele>548</ele>
        <time>2016-09-04T11:14:30.589Z</time>
      </trkpt>
      <trkpt lat="46.18786" lon="4.42538">
        <ele>548</ele>
        <time>2016-09-04T11:14:36.589Z</time>
      </trkpt>
      <trkpt lat="46.18792" lon="4.42527">
        <ele>548</ele>
        <time>2016-09-04T11:14:43.589Z</time>
      </trkpt>
      <trkpt lat="46.18796" lon="4.42514">
        <ele>549</ele>
        <time>2016-09-04T11:14:50.589Z</time>
      </trkpt>
      <trkpt lat="46.18802" lon="4.42503">
        <ele>549</ele>
        <time>2016-09-04T11:14:57.690Z</time>
      </trkpt>
      <trkpt lat="46.18803" lon="4.4249">
        <ele>551</ele>
        <time>2016-09-04T11:15:01.589Z</time>
      </trkpt>
      <trkpt lat="46.18805" lon="4.42476">
        <ele>551</ele>
        <time>2016-09-04T11:15:09.589Z</time>
      </trkpt>
      <trkpt lat="46.18811" lon="4.42466">
        <ele>553</ele>
        <time>2016-09-04T11:15:16.589Z</time>
      </trkpt>
      <trkpt lat="46.1882" lon="4.42471">
        <ele>555</ele>
        <time>2016-09-04T11:15:23.589Z</time>
      </trkpt>
      <trkpt lat="46.18829" lon="4.42467">
        <ele>559</ele>
        <time>2016-09-04T11:15:35.589Z</time>
      </trkpt>
      <trkpt lat="46.18831" lon="4.42452">
        <ele>560</ele>
        <time>2016-09-04T11:15:46.588Z</time>
      </trkpt>
      <trkpt lat="46.18839" lon="4.42437">
        <ele>562</ele>
        <time>2016-09-04T11:15:55.365Z</time>
      </trkpt>
      <trkpt lat="46.18844" lon="4.42425">
        <ele>563</ele>
        <time>2016-09-04T11:16:02.690Z</time>
      </trkpt>
      <trkpt lat="46.18848" lon="4.42408">
        <ele>566</ele>
        <time>2016-09-04T11:16:16.620Z</time>
      </trkpt>
      <trkpt lat="46.18854" lon="4.42398">
        <ele>566</ele>
        <time>2016-09-04T11:16:26.589Z</time>
      </trkpt>
      <trkpt lat="46.18859" lon="4.42384">
        <ele>568</ele>
        <time>2016-09-04T11:16:31.589Z</time>
      </trkpt>
      <trkpt lat="46.18865" lon="4.42373">
        <ele>568.60763448209</ele>
        <time>2016-09-04T11:16:39.589Z</time>
      </trkpt>
      <trkpt lat="46.18874" lon="4.42371">
        <ele>571</ele>
        <time>2016-09-04T11:16:48.589Z</time>
      </trkpt>
      <trkpt lat="46.18882" lon="4.42363">
        <ele>572</ele>
        <time>2016-09-04T11:16:55.589Z</time>
      </trkpt>
      <trkpt lat="46.18889" lon="4.42355">
        <ele>573</ele>
        <time>2016-09-04T11:17:03.589Z</time>
      </trkpt>
      <trkpt lat="46.18898" lon="4.42345">
        <ele>575</ele>
        <time>2016-09-04T11:17:13.321Z</time>
      </trkpt>
      <trkpt lat="46.18908" lon="4.42339">
        <ele>575</ele>
        <time>2016-09-04T11:17:21.589Z</time>
      </trkpt>
      <trkpt lat="46.18918" lon="4.42342">
        <ele>575</ele>
        <time>2016-09-04T11:17:26.589Z</time>
      </trkpt>
      <trkpt lat="46.18927" lon="4.42338">
        <ele>574</ele>
        <time>2016-09-04T11:17:34.589Z</time>
      </trkpt>
      <trkpt lat="46.18939" lon="4.42327">
        <ele>575</ele>
        <time>2016-09-04T11:17:45.595Z</time>
      </trkpt>
      <trkpt lat="46.18949" lon="4.42325">
        <ele>576</ele>
        <time>2016-09-04T11:17:52.595Z</time>
      </trkpt>
      <trkpt lat="46.18958" lon="4.42326">
        <ele>576</ele>
        <time>2016-09-04T11:17:58.589Z</time>
      </trkpt>
      <trkpt lat="46.18968" lon="4.42319">
        <ele>577</ele>
        <time>2016-09-04T11:18:06.595Z</time>
      </trkpt>
      <trkpt lat="46.18976" lon="4.42314">
        <ele>577</ele>
        <time>2016-09-04T11:18:15.589Z</time>
      </trkpt>
      <trkpt lat="46.18986" lon="4.42311">
        <ele>577</ele>
        <time>2016-09-04T11:18:24.589Z</time>
      </trkpt>
      <trkpt lat="46.18996" lon="4.42307">
        <ele>578</ele>
        <time>2016-09-04T11:18:33.292Z</time>
      </trkpt>
      <trkpt lat="46.19006" lon="4.42305">
        <ele>578</ele>
        <time>2016-09-04T11:18:40.589Z</time>
      </trkpt>
      <trkpt lat="46.19015" lon="4.42299">
        <ele>578</ele>
        <time>2016-09-04T11:18:48.589Z</time>
      </trkpt>
      <trkpt lat="46.19027" lon="4.42297">
        <ele>579</ele>
        <time>2016-09-04T11:18:57.321Z</time>
      </trkpt>
      <trkpt lat="46.19037" lon="4.42291">
        <ele>579</ele>
        <time>2016-09-04T11:19:02.589Z</time>
      </trkpt>
      <trkpt lat="46.1905" lon="4.42283">
        <ele>579</ele>
        <time>2016-09-04T11:19:14.267Z</time>
      </trkpt>
      <trkpt lat="46.19059" lon="4.42278">
        <ele>578</ele>
        <time>2016-09-04T11:19:23.392Z</time>
      </trkpt>
      <trkpt lat="46.1907" lon="4.42278">
        <ele>578</ele>
        <time>2016-09-04T11:19:30.692Z</time>
      </trkpt>
      <trkpt lat="46.19077" lon="4.4227">
        <ele>578</ele>
        <time>2016-09-04T11:19:39.589Z</time>
      </trkpt>
      <trkpt lat="46.19097" lon="4.42271">
        <ele>578</ele>
        <time>2016-09-04T11:19:52.597Z</time>
      </trkpt>
      <trkpt lat="46.1911" lon="4.42263">
        <ele>578</ele>
        <time>2016-09-04T11:20:04.589Z</time>
      </trkpt>
      <trkpt lat="46.19119" lon="4.4226">
        <ele>578</ele>
        <time>2016-09-04T11:20:10.592Z</time>
      </trkpt>
      <trkpt lat="46.19128" lon="4.42256">
        <ele>578</ele>
        <time>2016-09-04T11:20:17.622Z</time>
      </trkpt>
      <trkpt lat="46.19135" lon="4.42266">
        <ele>579</ele>
        <time>2016-09-04T11:20:22.693Z</time>
      </trkpt>
      <trkpt lat="46.19141" lon="4.42239">
        <ele>579.79396413793</ele>
        <time>2016-09-04T11:20:59.589Z</time>
      </trkpt>
      <trkpt lat="46.19152" lon="4.42246">
        <ele>579</ele>
        <time>2016-09-04T11:21:04.589Z</time>
      </trkpt>
      <trkpt lat="46.19161" lon="4.42245">
        <ele>579</ele>
        <time>2016-09-04T11:21:10.589Z</time>
      </trkpt>
      <trkpt lat="46.19171" lon="4.42242">
        <ele>579</ele>
        <time>2016-09-04T11:21:18.589Z</time>
      </trkpt>
      <trkpt lat="46.19179" lon="4.42237">
        <ele>580</ele>
        <time>2016-09-04T11:21:24.589Z</time>
      </trkpt>
      <trkpt lat="46.19188" lon="4.42234">
        <ele>580</ele>
        <time>2016-09-04T11:21:30.589Z</time>
      </trkpt>
      <trkpt lat="46.19198" lon="4.42231">
        <ele>580</ele>
        <time>2016-09-04T11:21:36.589Z</time>
      </trkpt>
      <trkpt lat="46.19207" lon="4.42228">
        <ele>581</ele>
        <time>2016-09-04T11:21:43.589Z</time>
      </trkpt>
      <trkpt lat="46.19216" lon="4.42222">
        <ele>581</ele>
        <time>2016-09-04T11:21:50.589Z</time>
      </trkpt>
      <trkpt lat="46.19221" lon="4.4221">
        <ele>580</ele>
        <time>2016-09-04T11:22:21.589Z</time>
      </trkpt>
      <trkpt lat="46.19226" lon="4.42198">
        <ele>580</ele>
        <time>2016-09-04T11:22:31.589Z</time>
      </trkpt>
      <trkpt lat="46.19232" lon="4.42188">
        <ele>579</ele>
        <time>2016-09-04T11:22:43.591Z</time>
      </trkpt>
      <trkpt lat="46.19234" lon="4.42174">
        <ele>579</ele>
        <time>2016-09-04T11:22:48.588Z</time>
      </trkpt>
      <trkpt lat="46.19239" lon="4.42159">
        <ele>578</ele>
        <time>2016-09-04T11:22:54.591Z</time>
      </trkpt>
      <trkpt lat="46.19242" lon="4.42145">
        <ele>577</ele>
        <time>2016-09-04T11:23:03.590Z</time>
      </trkpt>
      <trkpt lat="46.19243" lon="4.42132">
        <ele>577</ele>
        <time>2016-09-04T11:23:09.589Z</time>
      </trkpt>
      <trkpt lat="46.19244" lon="4.42115">
        <ele>577</ele>
        <time>2016-09-04T11:23:18.590Z</time>
      </trkpt>
      <trkpt lat="46.19245" lon="4.42099">
        <ele>577</ele>
        <time>2016-09-04T11:23:25.589Z</time>
      </trkpt>
      <trkpt lat="46.19254" lon="4.42094">
        <ele>576</ele>
        <time>2016-09-04T11:23:36.588Z</time>
      </trkpt>
      <trkpt lat="46.19255" lon="4.4208">
        <ele>575</ele>
        <time>2016-09-04T11:23:42.588Z</time>
      </trkpt>
      <trkpt lat="46.19263" lon="4.42069">
        <ele>575</ele>
        <time>2016-09-04T11:23:52.387Z</time>
      </trkpt>
      <trkpt lat="46.19261" lon="4.42055">
        <ele>574.67259911276</ele>
        <time>2016-09-04T11:23:59.589Z</time>
      </trkpt>
      <trkpt lat="46.19263" lon="4.42042">
        <ele>573</ele>
        <time>2016-09-04T11:24:10.687Z</time>
      </trkpt>
      <trkpt lat="46.19262" lon="4.42028">
        <ele>573</ele>
        <time>2016-09-04T11:24:17.589Z</time>
      </trkpt>
      <trkpt lat="46.19262" lon="4.42013">
        <ele>574</ele>
        <time>2016-09-04T11:24:25.586Z</time>
      </trkpt>
      <trkpt lat="46.19263" lon="4.42">
        <ele>574</ele>
        <time>2016-09-04T11:24:31.589Z</time>
      </trkpt>
      <trkpt lat="46.19268" lon="4.41988">
        <ele>574</ele>
        <time>2016-09-04T11:24:37.589Z</time>
      </trkpt>
      <trkpt lat="46.1927" lon="4.41975">
        <ele>574</ele>
        <time>2016-09-04T11:25:04.618Z</time>
      </trkpt>
      <trkpt lat="46.19268" lon="4.41958">
        <ele>576</ele>
        <time>2016-09-04T11:25:14.302Z</time>
      </trkpt>
      <trkpt lat="46.19272" lon="4.41943">
        <ele>577</ele>
        <time>2016-09-04T11:25:20.596Z</time>
      </trkpt>
      <trkpt lat="46.19277" lon="4.41931">
        <ele>577.40855086099</ele>
        <time>2016-09-04T11:25:29.589Z</time>
      </trkpt>
      <trkpt lat="46.19286" lon="4.41927">
        <ele>579</ele>
        <time>2016-09-04T11:25:37.589Z</time>
      </trkpt>
      <trkpt lat="46.19296" lon="4.41922">
        <ele>580</ele>
        <time>2016-09-04T11:25:45.589Z</time>
      </trkpt>
      <trkpt lat="46.19304" lon="4.41915">
        <ele>582</ele>
        <time>2016-09-04T11:25:54.589Z</time>
      </trkpt>
      <trkpt lat="46.19312" lon="4.41907">
        <ele>584</ele>
        <time>2016-09-04T11:26:02.589Z</time>
      </trkpt>
      <trkpt lat="46.19322" lon="4.41909">
        <ele>585</ele>
        <time>2016-09-04T11:26:11.589Z</time>
      </trkpt>
      <trkpt lat="46.19332" lon="4.41909">
        <ele>586</ele>
        <time>2016-09-04T11:26:21.589Z</time>
      </trkpt>
      <trkpt lat="46.1934" lon="4.41903">
        <ele>586.2390016</ele>
        <time>2016-09-04T11:26:30.589Z</time>
      </trkpt>
      <trkpt lat="46.1935" lon="4.41901">
        <ele>587</ele>
        <time>2016-09-04T11:26:38.589Z</time>
      </trkpt>
      <trkpt lat="46.19359" lon="4.41899">
        <ele>588</ele>
        <time>2016-09-04T11:26:45.589Z</time>
      </trkpt>
      <trkpt lat="46.19369" lon="4.41899">
        <ele>589</ele>
        <time>2016-09-04T11:26:53.589Z</time>
      </trkpt>
      <trkpt lat="46.19379" lon="4.41898">
        <ele>589</ele>
        <time>2016-09-04T11:27:01.589Z</time>
      </trkpt>
      <trkpt lat="46.19388" lon="4.41898">
        <ele>589.20782921318</ele>
        <time>2016-09-04T11:27:09.589Z</time>
      </trkpt>
      <trkpt lat="46.19397" lon="4.41897">
        <ele>590</ele>
        <time>2016-09-04T11:27:16.589Z</time>
      </trkpt>
      <trkpt lat="46.19406" lon="4.41893">
        <ele>591</ele>
        <time>2016-09-04T11:27:26.589Z</time>
      </trkpt>
      <trkpt lat="46.19416" lon="4.41891">
        <ele>591</ele>
        <time>2016-09-04T11:27:35.589Z</time>
      </trkpt>
      <trkpt lat="46.19426" lon="4.4189">
        <ele>593</ele>
        <time>2016-09-04T11:27:43.589Z</time>
      </trkpt>
      <trkpt lat="46.19436" lon="4.41892">
        <ele>593</ele>
        <time>2016-09-04T11:27:51.589Z</time>
      </trkpt>
      <trkpt lat="46.19445" lon="4.41894">
        <ele>593</ele>
        <time>2016-09-04T11:27:59.589Z</time>
      </trkpt>
      <trkpt lat="46.19455" lon="4.41894">
        <ele>593</ele>
        <time>2016-09-04T11:28:07.586Z</time>
      </trkpt>
      <trkpt lat="46.19465" lon="4.41894">
        <ele>593</ele>
        <time>2016-09-04T11:28:14.589Z</time>
      </trkpt>
      <trkpt lat="46.19474" lon="4.41894">
        <ele>593</ele>
        <time>2016-09-04T11:28:22.588Z</time>
      </trkpt>
      <trkpt lat="46.19483" lon="4.41899">
        <ele>593</ele>
        <time>2016-09-04T11:28:29.692Z</time>
      </trkpt>
      <trkpt lat="46.195" lon="4.41915">
        <ele>593.33960662054</ele>
        <time>2016-09-04T11:28:39.693Z</time>
      </trkpt>
      <trkpt lat="46.19509" lon="4.41914">
        <ele>594</ele>
        <time>2016-09-04T11:28:49.619Z</time>
      </trkpt>
      <trkpt lat="46.19517" lon="4.41924">
        <ele>594</ele>
        <time>2016-09-04T11:28:57.589Z</time>
      </trkpt>
      <trkpt lat="46.19527" lon="4.41925">
        <ele>595</ele>
        <time>2016-09-04T11:29:02.588Z</time>
      </trkpt>
      <trkpt lat="46.19531" lon="4.41939">
        <ele>595</ele>
        <time>2016-09-04T11:29:09.620Z</time>
      </trkpt>
      <trkpt lat="46.19538" lon="4.41947">
        <ele>596</ele>
        <time>2016-09-04T11:29:14.588Z</time>
      </trkpt>
      <trkpt lat="46.19547" lon="4.41955">
        <ele>596</ele>
        <time>2016-09-04T11:29:23.588Z</time>
      </trkpt>
      <trkpt lat="46.19554" lon="4.41965">
        <ele>596</ele>
        <time>2016-09-04T11:29:31.692Z</time>
      </trkpt>
      <trkpt lat="46.19562" lon="4.41975">
        <ele>596</ele>
        <time>2016-09-04T11:29:39.589Z</time>
      </trkpt>
      <trkpt lat="46.19571" lon="4.41979">
        <ele>596</ele>
        <time>2016-09-04T11:29:45.589Z</time>
      </trkpt>
      <trkpt lat="46.1958" lon="4.4198">
        <ele>597</ele>
        <time>2016-09-04T11:29:55.589Z</time>
      </trkpt>
      <trkpt lat="46.19589" lon="4.41979">
        <ele>597</ele>
        <time>2016-09-04T11:30:00.589Z</time>
      </trkpt>
      <trkpt lat="46.196" lon="4.41978">
        <ele>598</ele>
        <time>2016-09-04T11:30:09.589Z</time>
      </trkpt>
      <trkpt lat="46.19611" lon="4.41984">
        <ele>598</ele>
        <time>2016-09-04T11:30:16.618Z</time>
      </trkpt>
      <trkpt lat="46.19622" lon="4.41981">
        <ele>598</ele>
        <time>2016-09-04T11:30:24.589Z</time>
      </trkpt>
      <trkpt lat="46.19632" lon="4.41979">
        <ele>599</ele>
        <time>2016-09-04T11:30:31.592Z</time>
      </trkpt>
      <trkpt lat="46.19642" lon="4.41977">
        <ele>599</ele>
        <time>2016-09-04T11:30:42.591Z</time>
      </trkpt>
      <trkpt lat="46.19654" lon="4.41972">
        <ele>599</ele>
        <time>2016-09-04T11:30:51.588Z</time>
      </trkpt>
      <trkpt lat="46.19665" lon="4.41966">
        <ele>599.20315552621</ele>
        <time>2016-09-04T11:30:59.593Z</time>
      </trkpt>
      <trkpt lat="46.19671" lon="4.41952">
        <ele>600</ele>
        <time>2016-09-04T11:31:07.589Z</time>
      </trkpt>
      <trkpt lat="46.19679" lon="4.41945">
        <ele>601</ele>
        <time>2016-09-04T11:31:15.588Z</time>
      </trkpt>
      <trkpt lat="46.19687" lon="4.41937">
        <ele>602</ele>
        <time>2016-09-04T11:31:23.587Z</time>
      </trkpt>
      <trkpt lat="46.19696" lon="4.41929">
        <ele>603</ele>
        <time>2016-09-04T11:31:32.589Z</time>
      </trkpt>
      <trkpt lat="46.19702" lon="4.41916">
        <ele>603</ele>
        <time>2016-09-04T11:32:34.361Z</time>
      </trkpt>
      <trkpt lat="46.19696" lon="4.41928">
        <ele>604</ele>
        <time>2016-09-04T11:33:18.586Z</time>
      </trkpt>
      <trkpt lat="46.197" lon="4.41916">
        <ele>604</ele>
        <time>2016-09-04T11:34:13.591Z</time>
      </trkpt>
      <trkpt lat="46.19699" lon="4.41929">
        <ele>604</ele>
        <time>2016-09-04T11:34:43.589Z</time>
      </trkpt>
      <trkpt lat="46.19693" lon="4.41939">
        <ele>604</ele>
        <time>2016-09-04T11:35:11.591Z</time>
      </trkpt>
      <trkpt lat="46.197" lon="4.41926">
        <ele>604</ele>
        <time>2016-09-04T11:35:35.586Z</time>
      </trkpt>
      <trkpt lat="46.1969" lon="4.41937">
        <ele>604</ele>
        <time>2016-09-04T11:39:25.587Z</time>
      </trkpt>
      <trkpt lat="46.19695" lon="4.41926">
        <ele>604</ele>
        <time>2016-09-04T11:39:39.617Z</time>
      </trkpt>
      <trkpt lat="46.19702" lon="4.41913">
        <ele>604</ele>
        <time>2016-09-04T11:40:11.589Z</time>
      </trkpt>
      <trkpt lat="46.19713" lon="4.41913">
        <ele>604.16342847318</ele>
        <time>2016-09-04T11:40:20.619Z</time>
      </trkpt>
      <trkpt lat="46.19728" lon="4.41934">
        <ele>605</ele>
        <time>2016-09-04T11:40:26.692Z</time>
      </trkpt>
      <trkpt lat="46.19733" lon="4.41922">
        <ele>606</ele>
        <time>2016-09-04T11:40:35.392Z</time>
      </trkpt>
      <trkpt lat="46.1974" lon="4.41931">
        <ele>607</ele>
        <time>2016-09-04T11:40:48.589Z</time>
      </trkpt>
      <trkpt lat="46.19748" lon="4.41936">
        <ele>608</ele>
        <time>2016-09-04T11:40:58.589Z</time>
      </trkpt>
      <trkpt lat="46.19756" lon="4.41944">
        <ele>609.09630062736</ele>
        <time>2016-09-04T11:41:09.589Z</time>
      </trkpt>
      <trkpt lat="46.19763" lon="4.41953">
        <ele>611.45524253026</ele>
        <time>2016-09-04T11:41:19.589Z</time>
      </trkpt>
      <trkpt lat="46.1977" lon="4.41966">
        <ele>615</ele>
        <time>2016-09-04T11:41:32.589Z</time>
      </trkpt>
      <trkpt lat="46.19777" lon="4.41976">
        <ele>616</ele>
        <time>2016-09-04T11:41:42.692Z</time>
      </trkpt>
      <trkpt lat="46.19785" lon="4.41984">
        <ele>617</ele>
        <time>2016-09-04T11:41:55.589Z</time>
      </trkpt>
      <trkpt lat="46.19792" lon="4.41996">
        <ele>620</ele>
        <time>2016-09-04T11:42:11.589Z</time>
      </trkpt>
      <trkpt lat="46.19797" lon="4.42007">
        <ele>622</ele>
        <time>2016-09-04T11:42:24.588Z</time>
      </trkpt>
      <trkpt lat="46.19808" lon="4.42011">
        <ele>622</ele>
        <time>2016-09-04T11:42:33.589Z</time>
      </trkpt>
      <trkpt lat="46.19817" lon="4.42015">
        <ele>623</ele>
        <time>2016-09-04T11:42:43.589Z</time>
      </trkpt>
      <trkpt lat="46.19826" lon="4.42022">
        <ele>623</ele>
        <time>2016-09-04T11:42:52.589Z</time>
      </trkpt>
      <trkpt lat="46.19835" lon="4.42026">
        <ele>623</ele>
        <time>2016-09-04T11:42:58.589Z</time>
      </trkpt>
      <trkpt lat="46.19844" lon="4.42029">
        <ele>622</ele>
        <time>2016-09-04T11:43:07.589Z</time>
      </trkpt>
      <trkpt lat="46.19849" lon="4.4204">
        <ele>622</ele>
        <time>2016-09-04T11:43:15.589Z</time>
      </trkpt>
      <trkpt lat="46.19851" lon="4.42053">
        <ele>622</ele>
        <time>2016-09-04T11:43:22.589Z</time>
      </trkpt>
      <trkpt lat="46.19851" lon="4.42067">
        <ele>622.20603586207</ele>
        <time>2016-09-04T11:43:29.589Z</time>
      </trkpt>
      <trkpt lat="46.19851" lon="4.4208">
        <ele>623</ele>
        <time>2016-09-04T11:43:36.688Z</time>
      </trkpt>
      <trkpt lat="46.1985" lon="4.42094">
        <ele>624</ele>
        <time>2016-09-04T11:43:41.589Z</time>
      </trkpt>
      <trkpt lat="46.19846" lon="4.42107">
        <ele>624</ele>
        <time>2016-09-04T11:43:50.589Z</time>
      </trkpt>
      <trkpt lat="46.19846" lon="4.4212">
        <ele>624</ele>
        <time>2016-09-04T11:43:58.589Z</time>
      </trkpt>
      <trkpt lat="46.19844" lon="4.42134">
        <ele>625</ele>
        <time>2016-09-04T11:44:07.589Z</time>
      </trkpt>
      <trkpt lat="46.19843" lon="4.42148">
        <ele>626</ele>
        <time>2016-09-04T11:44:16.589Z</time>
      </trkpt>
      <trkpt lat="46.19842" lon="4.42161">
        <ele>627</ele>
        <time>2016-09-04T11:44:26.589Z</time>
      </trkpt>
      <trkpt lat="46.19841" lon="4.42174">
        <ele>628</ele>
        <time>2016-09-04T11:44:35.589Z</time>
      </trkpt>
      <trkpt lat="46.19844" lon="4.42188">
        <ele>630</ele>
        <time>2016-09-04T11:44:46.589Z</time>
      </trkpt>
      <trkpt lat="46.19846" lon="4.42201">
        <ele>632</ele>
        <time>2016-09-04T11:44:54.589Z</time>
      </trkpt>
      <trkpt lat="46.19845" lon="4.42215">
        <ele>634</ele>
        <time>2016-09-04T11:45:02.589Z</time>
      </trkpt>
      <trkpt lat="46.19845" lon="4.42228">
        <ele>634</ele>
        <time>2016-09-04T11:45:09.589Z</time>
      </trkpt>
      <trkpt lat="46.19846" lon="4.42241">
        <ele>634</ele>
        <time>2016-09-04T11:45:15.589Z</time>
      </trkpt>
      <trkpt lat="46.19847" lon="4.42255">
        <ele>636</ele>
        <time>2016-09-04T11:45:22.589Z</time>
      </trkpt>
      <trkpt lat="46.19853" lon="4.42266">
        <ele>638</ele>
        <time>2016-09-04T11:45:36.589Z</time>
      </trkpt>
      <trkpt lat="46.1986" lon="4.42276">
        <ele>639</ele>
        <time>2016-09-04T11:45:44.589Z</time>
      </trkpt>
      <trkpt lat="46.19866" lon="4.42286">
        <ele>639</ele>
        <time>2016-09-04T11:45:50.589Z</time>
      </trkpt>
      <trkpt lat="46.19871" lon="4.42297">
        <ele>639</ele>
        <time>2016-09-04T11:45:55.589Z</time>
      </trkpt>
      <trkpt lat="46.19877" lon="4.42308">
        <ele>639.2390016</ele>
        <time>2016-09-04T11:46:10.589Z</time>
      </trkpt>
      <trkpt lat="46.19884" lon="4.4232">
        <ele>640</ele>
        <time>2016-09-04T11:46:18.589Z</time>
      </trkpt>
      <trkpt lat="46.19892" lon="4.42327">
        <ele>640</ele>
        <time>2016-09-04T11:46:22.562Z</time>
      </trkpt>
      <trkpt lat="46.19903" lon="4.42336">
        <ele>640.02605082164</ele>
        <time>2016-09-04T11:46:29.387Z</time>
      </trkpt>
      <trkpt lat="46.19908" lon="4.42348">
        <ele>641</ele>
        <time>2016-09-04T11:46:45.557Z</time>
      </trkpt>
      <trkpt lat="46.19914" lon="4.42358">
        <ele>642</ele>
        <time>2016-09-04T11:46:51.588Z</time>
      </trkpt>
      <trkpt lat="46.19917" lon="4.42372">
        <ele>642</ele>
        <time>2016-09-04T11:47:03.558Z</time>
      </trkpt>
      <trkpt lat="46.19919" lon="4.42385">
        <ele>642</ele>
        <time>2016-09-04T11:47:14.563Z</time>
      </trkpt>
      <trkpt lat="46.19924" lon="4.42397">
        <ele>643</ele>
        <time>2016-09-04T11:47:47.589Z</time>
      </trkpt>
      <trkpt lat="46.19931" lon="4.42407">
        <ele>643</ele>
        <time>2016-09-04T11:47:53.585Z</time>
      </trkpt>
      <trkpt lat="46.19939" lon="4.42414">
        <ele>644</ele>
        <time>2016-09-04T11:48:00.589Z</time>
      </trkpt>
      <trkpt lat="46.19942" lon="4.42427">
        <ele>644</ele>
        <time>2016-09-04T11:48:09.587Z</time>
      </trkpt>
      <trkpt lat="46.19946" lon="4.42439">
        <ele>644</ele>
        <time>2016-09-04T11:48:17.587Z</time>
      </trkpt>
      <trkpt lat="46.19953" lon="4.42448">
        <ele>646</ele>
        <time>2016-09-04T11:48:26.589Z</time>
      </trkpt>
      <trkpt lat="46.19957" lon="4.42461">
        <ele>647</ele>
        <time>2016-09-04T11:48:32.592Z</time>
      </trkpt>
      <trkpt lat="46.19963" lon="4.42472">
        <ele>648</ele>
        <time>2016-09-04T11:48:41.560Z</time>
      </trkpt>
      <trkpt lat="46.19971" lon="4.42483">
        <ele>648</ele>
        <time>2016-09-04T11:48:48.593Z</time>
      </trkpt>
      <trkpt lat="46.19979" lon="4.42489">
        <ele>649</ele>
        <time>2016-09-04T11:48:55.593Z</time>
      </trkpt>
      <trkpt lat="46.19985" lon="4.42502">
        <ele>651</ele>
        <time>2016-09-04T11:49:04.592Z</time>
      </trkpt>
      <trkpt lat="46.19988" lon="4.42516">
        <ele>652</ele>
        <time>2016-09-04T11:49:13.589Z</time>
      </trkpt>
      <trkpt lat="46.19994" lon="4.42527">
        <ele>654</ele>
        <time>2016-09-04T11:49:26.589Z</time>
      </trkpt>
      <trkpt lat="46.20001" lon="4.42536">
        <ele>655</ele>
        <time>2016-09-04T11:49:34.563Z</time>
      </trkpt>
      <trkpt lat="46.2001" lon="4.42544">
        <ele>655</ele>
        <time>2016-09-04T11:49:40.593Z</time>
      </trkpt>
      <trkpt lat="46.20017" lon="4.42552">
        <ele>655</ele>
        <time>2016-09-04T11:49:47.588Z</time>
      </trkpt>
      <trkpt lat="46.20026" lon="4.42559">
        <ele>655</ele>
        <time>2016-09-04T11:49:54.589Z</time>
      </trkpt>
      <trkpt lat="46.20037" lon="4.42562">
        <ele>654.14999808956</ele>
        <time>2016-09-04T11:50:02.589Z</time>
      </trkpt>
      <trkpt lat="46.20043" lon="4.42573">
        <ele>654</ele>
        <time>2016-09-04T11:50:08.615Z</time>
      </trkpt>
      <trkpt lat="46.20051" lon="4.42585">
        <ele>655</ele>
        <time>2016-09-04T11:50:22.693Z</time>
      </trkpt>
      <trkpt lat="46.20062" lon="4.42583">
        <ele>655</ele>
        <time>2016-09-04T11:50:26.589Z</time>
      </trkpt>
      <trkpt lat="46.2007" lon="4.42593">
        <ele>655</ele>
        <time>2016-09-04T11:50:35.557Z</time>
      </trkpt>
      <trkpt lat="46.20079" lon="4.42606">
        <ele>655</ele>
        <time>2016-09-04T11:50:39.562Z</time>
      </trkpt>
      <trkpt lat="46.20065" lon="4.42608">
        <ele>657</ele>
        <time>2016-09-04T11:50:45.694Z</time>
      </trkpt>
      <trkpt lat="46.20056" lon="4.42611">
        <ele>657</ele>
        <time>2016-09-04T11:50:48.589Z</time>
      </trkpt>
      <trkpt lat="46.20047" lon="4.42619">
        <ele>657</ele>
        <time>2016-09-04T11:50:55.589Z</time>
      </trkpt>
      <trkpt lat="46.20039" lon="4.42627">
        <ele>658</ele>
        <time>2016-09-04T11:51:03.589Z</time>
      </trkpt>
      <trkpt lat="46.20033" lon="4.42637">
        <ele>659</ele>
        <time>2016-09-04T11:51:13.589Z</time>
      </trkpt>
      <trkpt lat="46.20026" lon="4.42645">
        <ele>659.97558935285</ele>
        <time>2016-09-04T11:51:20.589Z</time>
      </trkpt>
      <trkpt lat="46.20015" lon="4.42652">
        <ele>660</ele>
        <time>2016-09-04T11:51:28.694Z</time>
      </trkpt>
      <trkpt lat="46.20009" lon="4.42663">
        <ele>660</ele>
        <time>2016-09-04T11:51:38.589Z</time>
      </trkpt>
      <trkpt lat="46.20004" lon="4.42675">
        <ele>661</ele>
        <time>2016-09-04T11:51:47.589Z</time>
      </trkpt>
      <trkpt lat="46.19998" lon="4.42692">
        <ele>664</ele>
        <time>2016-09-04T11:52:02.589Z</time>
      </trkpt>
      <trkpt lat="46.20012" lon="4.42692">
        <ele>664</ele>
        <time>2016-09-04T11:52:10.589Z</time>
      </trkpt>
      <trkpt lat="46.20015" lon="4.42704">
        <ele>664</ele>
        <time>2016-09-04T11:52:18.589Z</time>
      </trkpt>
      <trkpt lat="46.20009" lon="4.42716">
        <ele>664</ele>
        <time>2016-09-04T11:52:27.589Z</time>
      </trkpt>
      <trkpt lat="46.20003" lon="4.42728">
        <ele>665</ele>
        <time>2016-09-04T11:52:42.589Z</time>
      </trkpt>
      <trkpt lat="46.19996" lon="4.42738">
        <ele>666</ele>
        <time>2016-09-04T11:52:50.589Z</time>
      </trkpt>
      <trkpt lat="46.19989" lon="4.42748">
        <ele>665</ele>
        <time>2016-09-04T11:53:11.589Z</time>
      </trkpt>
      <trkpt lat="46.19981" lon="4.42758">
        <ele>665</ele>
        <time>2016-09-04T11:53:18.589Z</time>
      </trkpt>
      <trkpt lat="46.1998" lon="4.42773">
        <ele>666</ele>
        <time>2016-09-04T11:53:26.588Z</time>
      </trkpt>
      <trkpt lat="46.19971" lon="4.42777">
        <ele>666</ele>
        <time>2016-09-04T11:53:34.588Z</time>
      </trkpt>
      <trkpt lat="46.19957" lon="4.4278">
        <ele>665</ele>
        <time>2016-09-04T11:53:42.589Z</time>
      </trkpt>
      <trkpt lat="46.19951" lon="4.4279">
        <ele>665</ele>
        <time>2016-09-04T11:53:48.618Z</time>
      </trkpt>
      <trkpt lat="46.19942" lon="4.42799">
        <ele>664</ele>
        <time>2016-09-04T11:53:55.618Z</time>
      </trkpt>
      <trkpt lat="46.19931" lon="4.42803">
        <ele>664</ele>
        <time>2016-09-04T11:54:07.693Z</time>
      </trkpt>
      <trkpt lat="46.19927" lon="4.42816">
        <ele>664</ele>
        <time>2016-09-04T11:54:09.589Z</time>
      </trkpt>
      <trkpt lat="46.19918" lon="4.42822">
        <ele>664</ele>
        <time>2016-09-04T11:54:20.589Z</time>
      </trkpt>
      <trkpt lat="46.19926" lon="4.42806">
        <ele>664</ele>
        <time>2016-09-04T11:54:26.590Z</time>
      </trkpt>
      <trkpt lat="46.19932" lon="4.42797">
        <ele>664</ele>
        <time>2016-09-04T11:54:44.589Z</time>
      </trkpt>
      <trkpt lat="46.19929" lon="4.42785">
        <ele>664</ele>
        <time>2016-09-04T11:56:58.590Z</time>
      </trkpt>
      <trkpt lat="46.19924" lon="4.42798">
        <ele>665</ele>
        <time>2016-09-04T11:58:36.592Z</time>
      </trkpt>
      <trkpt lat="46.1992" lon="4.4281">
        <ele>663</ele>
        <time>2016-09-04T11:59:24.592Z</time>
      </trkpt>
      <trkpt lat="46.19919" lon="4.42823">
        <ele>662</ele>
        <time>2016-09-04T12:03:21.589Z</time>
      </trkpt>
      <trkpt lat="46.19914" lon="4.42835">
        <ele>662</ele>
        <time>2016-09-04T12:04:56.664Z</time>
      </trkpt>
      <trkpt lat="46.19922" lon="4.4283">
        <ele>663</ele>
        <time>2016-09-04T12:07:10.587Z</time>
      </trkpt>
      <trkpt lat="46.19913" lon="4.42829">
        <ele>663</ele>
        <time>2016-09-04T12:07:22.689Z</time>
      </trkpt>
      <trkpt lat="46.1992" lon="4.42838">
        <ele>663</ele>
        <time>2016-09-04T12:07:58.589Z</time>
      </trkpt>
      <trkpt lat="46.19911" lon="4.42836">
        <ele>663</ele>
        <time>2016-09-04T12:08:42.692Z</time>
      </trkpt>
      <trkpt lat="46.19913" lon="4.4282">
        <ele>663</ele>
        <time>2016-09-04T12:14:02.599Z</time>
      </trkpt>
      <trkpt lat="46.19914" lon="4.42833">
        <ele>663</ele>
        <time>2016-09-04T12:15:16.589Z</time>
      </trkpt>
      <trkpt lat="46.19921" lon="4.42821">
        <ele>663</ele>
        <time>2016-09-04T12:16:06.589Z</time>
      </trkpt>
      <trkpt lat="46.19918" lon="4.42834">
        <ele>663</ele>
        <time>2016-09-04T12:16:16.020Z</time>
      </trkpt>
      <trkpt lat="46.19908" lon="4.4284">
        <ele>663</ele>
        <time>2016-09-04T12:16:40.691Z</time>
      </trkpt>
      <trkpt lat="46.19918" lon="4.42833">
        <ele>663</ele>
        <time>2016-09-04T12:16:44.589Z</time>
      </trkpt>
      <trkpt lat="46.1991" lon="4.42828">
        <ele>663</ele>
        <time>2016-09-04T12:16:51.587Z</time>
      </trkpt>
      <trkpt lat="46.19912" lon="4.42844">
        <ele>663</ele>
        <time>2016-09-04T12:16:56.595Z</time>
      </trkpt>
      <trkpt lat="46.19918" lon="4.42835">
        <ele>663</ele>
        <time>2016-09-04T12:17:14.586Z</time>
      </trkpt>
      <trkpt lat="46.1993" lon="4.42834">
        <ele>663</ele>
        <time>2016-09-04T12:17:20.591Z</time>
      </trkpt>
      <trkpt lat="46.19937" lon="4.42845">
        <ele>663</ele>
        <time>2016-09-04T12:17:35.589Z</time>
      </trkpt>
      <trkpt lat="46.19934" lon="4.4286">
        <ele>663</ele>
        <time>2016-09-04T12:17:40.588Z</time>
      </trkpt>
      <trkpt lat="46.1992" lon="4.42858">
        <ele>663</ele>
        <time>2016-09-04T12:17:47.588Z</time>
      </trkpt>
      <trkpt lat="46.19912" lon="4.42851">
        <ele>663</ele>
        <time>2016-09-04T12:17:53.589Z</time>
      </trkpt>
      <trkpt lat="46.19922" lon="4.42855">
        <ele>663</ele>
        <time>2016-09-04T12:18:27.589Z</time>
      </trkpt>
      <trkpt lat="46.19937" lon="4.42859">
        <ele>663</ele>
        <time>2016-09-04T12:18:53.589Z</time>
      </trkpt>
      <trkpt lat="46.19928" lon="4.42861">
        <ele>663</ele>
        <time>2016-09-04T12:19:07.589Z</time>
      </trkpt>
      <trkpt lat="46.1993" lon="4.42876">
        <ele>663</ele>
        <time>2016-09-04T12:19:25.621Z</time>
      </trkpt>
      <trkpt lat="46.19924" lon="4.42886">
        <ele>663</ele>
        <time>2016-09-04T12:19:36.589Z</time>
      </trkpt>
      <trkpt lat="46.19921" lon="4.429">
        <ele>663</ele>
        <time>2016-09-04T12:19:47.591Z</time>
      </trkpt>
      <trkpt lat="46.19925" lon="4.42917">
        <ele>663</ele>
        <time>2016-09-04T12:19:57.620Z</time>
      </trkpt>
      <trkpt lat="46.19929" lon="4.42933">
        <ele>666</ele>
        <time>2016-09-04T12:20:11.900Z</time>
      </trkpt>
      <trkpt lat="46.19929" lon="4.42946">
        <ele>666.3149952</ele>
        <time>2016-09-04T12:20:21.665Z</time>
      </trkpt>
      <trkpt lat="46.19928" lon="4.4296">
        <ele>667</ele>
        <time>2016-09-04T12:20:33.589Z</time>
      </trkpt>
      <trkpt lat="46.19927" lon="4.42974">
        <ele>667.24826023628</ele>
        <time>2016-09-04T12:20:41.588Z</time>
      </trkpt>
      <trkpt lat="46.19921" lon="4.42984">
        <ele>669</ele>
        <time>2016-09-04T12:20:57.690Z</time>
      </trkpt>
      <trkpt lat="46.1992" lon="4.42998">
        <ele>669</ele>
        <time>2016-09-04T12:21:05.588Z</time>
      </trkpt>
      <trkpt lat="46.19927" lon="4.43009">
        <ele>670</ele>
        <time>2016-09-04T12:21:25.591Z</time>
      </trkpt>
      <trkpt lat="46.19921" lon="4.42997">
        <ele>671</ele>
        <time>2016-09-04T12:21:38.694Z</time>
      </trkpt>
      <trkpt lat="46.19921" lon="4.43011">
        <ele>671</ele>
        <time>2016-09-04T12:22:47.561Z</time>
      </trkpt>
      <trkpt lat="46.19925" lon="4.43024">
        <ele>671</ele>
        <time>2016-09-04T12:24:41.591Z</time>
      </trkpt>
      <trkpt lat="46.19923" lon="4.43044">
        <ele>670.16645738312</ele>
        <time>2016-09-04T12:24:51.613Z</time>
      </trkpt>
      <trkpt lat="46.1992" lon="4.43057">
        <ele>671</ele>
        <time>2016-09-04T12:25:03.592Z</time>
      </trkpt>
      <trkpt lat="46.19926" lon="4.43069">
        <ele>671</ele>
        <time>2016-09-04T12:25:12.593Z</time>
      </trkpt>
      <trkpt lat="46.19921" lon="4.43084">
        <ele>669</ele>
        <time>2016-09-04T12:25:39.589Z</time>
      </trkpt>
      <trkpt lat="46.19922" lon="4.43097">
        <ele>668</ele>
        <time>2016-09-04T12:25:49.591Z</time>
      </trkpt>
      <trkpt lat="46.19929" lon="4.43107">
        <ele>668</ele>
        <time>2016-09-04T12:25:56.586Z</time>
      </trkpt>
      <trkpt lat="46.19933" lon="4.43122">
        <ele>667</ele>
        <time>2016-09-04T12:26:04.586Z</time>
      </trkpt>
      <trkpt lat="46.19942" lon="4.43129">
        <ele>667</ele>
        <time>2016-09-04T12:26:11.588Z</time>
      </trkpt>
      <trkpt lat="46.19951" lon="4.43137">
        <ele>667</ele>
        <time>2016-09-04T12:26:17.590Z</time>
      </trkpt>
      <trkpt lat="46.19954" lon="4.4315">
        <ele>667</ele>
        <time>2016-09-04T12:26:25.562Z</time>
      </trkpt>
      <trkpt lat="46.1996" lon="4.43163">
        <ele>667</ele>
        <time>2016-09-04T12:26:34.592Z</time>
      </trkpt>
      <trkpt lat="46.19966" lon="4.43176">
        <ele>667</ele>
        <time>2016-09-04T12:26:43.591Z</time>
      </trkpt>
      <trkpt lat="46.1997" lon="4.43188">
        <ele>667</ele>
        <time>2016-09-04T12:26:49.561Z</time>
      </trkpt>
      <trkpt lat="46.19976" lon="4.43201">
        <ele>667</ele>
        <time>2016-09-04T12:26:59.561Z</time>
      </trkpt>
      <trkpt lat="46.19982" lon="4.43212">
        <ele>666</ele>
        <time>2016-09-04T12:27:08.612Z</time>
      </trkpt>
      <trkpt lat="46.19986" lon="4.43226">
        <ele>666</ele>
        <time>2016-09-04T12:27:19.592Z</time>
      </trkpt>
      <trkpt lat="46.19992" lon="4.43236">
        <ele>666</ele>
        <time>2016-09-04T12:27:26.590Z</time>
      </trkpt>
      <trkpt lat="46.19999" lon="4.43245">
        <ele>666</ele>
        <time>2016-09-04T12:27:34.586Z</time>
      </trkpt>
      <trkpt lat="46.20004" lon="4.43256">
        <ele>666</ele>
        <time>2016-09-04T12:27:41.591Z</time>
      </trkpt>
      <trkpt lat="46.20011" lon="4.43268">
        <ele>666</ele>
        <time>2016-09-04T12:27:47.587Z</time>
      </trkpt>
      <trkpt lat="46.20019" lon="4.43277">
        <ele>665</ele>
        <time>2016-09-04T12:27:53.590Z</time>
      </trkpt>
      <trkpt lat="46.20024" lon="4.43287">
        <ele>665</ele>
        <time>2016-09-04T12:27:59.590Z</time>
      </trkpt>
      <trkpt lat="46.20022" lon="4.433">
        <ele>663.81081423909</ele>
        <time>2016-09-04T12:28:11.560Z</time>
      </trkpt>
      <trkpt lat="46.20032" lon="4.4331">
        <ele>663</ele>
        <time>2016-09-04T12:28:15.592Z</time>
      </trkpt>
      <trkpt lat="46.20039" lon="4.43327">
        <ele>662</ele>
        <time>2016-09-04T12:28:24.694Z</time>
      </trkpt>
      <trkpt lat="46.20036" lon="4.43341">
        <ele>661</ele>
        <time>2016-09-04T12:28:32.589Z</time>
      </trkpt>
      <trkpt lat="46.20032" lon="4.43354">
        <ele>660</ele>
        <time>2016-09-04T12:28:41.589Z</time>
      </trkpt>
      <trkpt lat="46.20033" lon="4.43367">
        <ele>660</ele>
        <time>2016-09-04T12:28:50.589Z</time>
      </trkpt>
      <trkpt lat="46.20028" lon="4.43381">
        <ele>660</ele>
        <time>2016-09-04T12:28:59.589Z</time>
      </trkpt>
      <trkpt lat="46.20023" lon="4.43394">
        <ele>659</ele>
        <time>2016-09-04T12:29:07.589Z</time>
      </trkpt>
      <trkpt lat="46.20018" lon="4.43405">
        <ele>659</ele>
        <time>2016-09-04T12:29:15.589Z</time>
      </trkpt>
      <trkpt lat="46.20012" lon="4.43417">
        <ele>658.78660571429</ele>
        <time>2016-09-04T12:29:20.589Z</time>
      </trkpt>
      <trkpt lat="46.20006" lon="4.43429">
        <ele>658</ele>
        <time>2016-09-04T12:29:26.589Z</time>
      </trkpt>
      <trkpt lat="46.20004" lon="4.43443">
        <ele>658</ele>
        <time>2016-09-04T12:29:34.589Z</time>
      </trkpt>
      <trkpt lat="46.20006" lon="4.43458">
        <ele>659</ele>
        <time>2016-09-04T12:29:44.589Z</time>
      </trkpt>
      <trkpt lat="46.20008" lon="4.43472">
        <ele>659</ele>
        <time>2016-09-04T12:29:55.589Z</time>
      </trkpt>
      <trkpt lat="46.20012" lon="4.43485">
        <ele>660</ele>
        <time>2016-09-04T12:30:04.589Z</time>
      </trkpt>
      <trkpt lat="46.20017" lon="4.43498">
        <ele>660.40508965472</ele>
        <time>2016-09-04T12:30:10.589Z</time>
      </trkpt>
      <trkpt lat="46.2002" lon="4.43512">
        <ele>662</ele>
        <time>2016-09-04T12:30:18.589Z</time>
      </trkpt>
      <trkpt lat="46.20024" lon="4.43525">
        <ele>662</ele>
        <time>2016-09-04T12:30:24.618Z</time>
      </trkpt>
      <trkpt lat="46.20027" lon="4.43539">
        <ele>662.08313799272</ele>
        <time>2016-09-04T12:30:31.589Z</time>
      </trkpt>
      <trkpt lat="46.20032" lon="4.43557">
        <ele>663</ele>
        <time>2016-09-04T12:30:43.692Z</time>
      </trkpt>
      <trkpt lat="46.20042" lon="4.4357">
        <ele>663</ele>
        <time>2016-09-04T12:30:49.688Z</time>
      </trkpt>
      <trkpt lat="46.20047" lon="4.43585">
        <ele>662</ele>
        <time>2016-09-04T12:30:58.589Z</time>
      </trkpt>
      <trkpt lat="46.20042" lon="4.43599">
        <ele>660.22347609158</ele>
        <time>2016-09-04T12:31:05.589Z</time>
      </trkpt>
      <trkpt lat="46.2004" lon="4.43612">
        <ele>661</ele>
        <time>2016-09-04T12:31:15.587Z</time>
      </trkpt>
      <trkpt lat="46.20044" lon="4.4363">
        <ele>660</ele>
        <time>2016-09-04T12:31:25.586Z</time>
      </trkpt>
      <trkpt lat="46.20045" lon="4.43645">
        <ele>659</ele>
        <time>2016-09-04T12:31:33.589Z</time>
      </trkpt>
      <trkpt lat="46.20039" lon="4.43656">
        <ele>659</ele>
        <time>2016-09-04T12:31:40.587Z</time>
      </trkpt>
      <trkpt lat="46.20031" lon="4.43664">
        <ele>659</ele>
        <time>2016-09-04T12:31:47.589Z</time>
      </trkpt>
      <trkpt lat="46.20023" lon="4.43671">
        <ele>659.4780032</ele>
        <time>2016-09-04T12:32:01.589Z</time>
      </trkpt>
      <trkpt lat="46.20013" lon="4.43674">
        <ele>661</ele>
        <time>2016-09-04T12:32:07.559Z</time>
      </trkpt>
      <trkpt lat="46.20005" lon="4.43678">
        <ele>662</ele>
        <time>2016-09-04T12:32:16.564Z</time>
      </trkpt>
      <trkpt lat="46.19994" lon="4.43679">
        <ele>662</ele>
        <time>2016-09-04T12:32:24.590Z</time>
      </trkpt>
      <trkpt lat="46.19985" lon="4.43684">
        <ele>662</ele>
        <time>2016-09-04T12:32:30.589Z</time>
      </trkpt>
      <trkpt lat="46.19975" lon="4.43683">
        <ele>662</ele>
        <time>2016-09-04T12:32:38.590Z</time>
      </trkpt>
      <trkpt lat="46.19965" lon="4.43687">
        <ele>662</ele>
        <time>2016-09-04T12:32:47.620Z</time>
      </trkpt>
      <trkpt lat="46.19955" lon="4.43684">
        <ele>662</ele>
        <time>2016-09-04T12:32:54.590Z</time>
      </trkpt>
      <trkpt lat="46.19945" lon="4.43683">
        <ele>662</ele>
        <time>2016-09-04T12:33:03.589Z</time>
      </trkpt>
      <trkpt lat="46.19936" lon="4.43681">
        <ele>662</ele>
        <time>2016-09-04T12:33:09.615Z</time>
      </trkpt>
      <trkpt lat="46.19926" lon="4.4368">
        <ele>663</ele>
        <time>2016-09-04T12:33:16.588Z</time>
      </trkpt>
      <trkpt lat="46.19918" lon="4.43676">
        <ele>663</ele>
        <time>2016-09-04T12:33:23.589Z</time>
      </trkpt>
      <trkpt lat="46.19908" lon="4.43675">
        <ele>663</ele>
        <time>2016-09-04T12:33:30.590Z</time>
      </trkpt>
      <trkpt lat="46.19899" lon="4.43668">
        <ele>663</ele>
        <time>2016-09-04T12:33:37.589Z</time>
      </trkpt>
      <trkpt lat="46.19889" lon="4.43666">
        <ele>663</ele>
        <time>2016-09-04T12:33:46.583Z</time>
      </trkpt>
      <trkpt lat="46.1988" lon="4.43663">
        <ele>663</ele>
        <time>2016-09-04T12:33:51.590Z</time>
      </trkpt>
      <trkpt lat="46.1987" lon="4.43664">
        <ele>663</ele>
        <time>2016-09-04T12:33:58.589Z</time>
      </trkpt>
      <trkpt lat="46.19861" lon="4.4366">
        <ele>664</ele>
        <time>2016-09-04T12:34:04.619Z</time>
      </trkpt>
      <trkpt lat="46.19857" lon="4.43647">
        <ele>664</ele>
        <time>2016-09-04T12:34:13.589Z</time>
      </trkpt>
      <trkpt lat="46.19856" lon="4.43631">
        <ele>664</ele>
        <time>2016-09-04T12:34:22.615Z</time>
      </trkpt>
      <trkpt lat="46.19854" lon="4.43616">
        <ele>664</ele>
        <time>2016-09-04T12:34:30.588Z</time>
      </trkpt>
      <trkpt lat="46.19849" lon="4.43604">
        <ele>666</ele>
        <time>2016-09-04T12:34:39.588Z</time>
      </trkpt>
      <trkpt lat="46.19843" lon="4.43594">
        <ele>668.977504</ele>
        <time>2016-09-04T12:34:47.593Z</time>
      </trkpt>
      <trkpt lat="46.19831" lon="4.43588">
        <ele>669.23229333333</ele>
        <time>2016-09-04T12:34:57.613Z</time>
      </trkpt>
      <trkpt lat="46.19823" lon="4.43579">
        <ele>671</ele>
        <time>2016-09-04T12:35:07.589Z</time>
      </trkpt>
      <trkpt lat="46.19811" lon="4.43571">
        <ele>672</ele>
        <time>2016-09-04T12:35:17.694Z</time>
      </trkpt>
      <trkpt lat="46.19803" lon="4.43563">
        <ele>673</ele>
        <time>2016-09-04T12:35:24.589Z</time>
      </trkpt>
      <trkpt lat="46.19794" lon="4.43558">
        <ele>675</ele>
        <time>2016-09-04T12:35:35.589Z</time>
      </trkpt>
      <trkpt lat="46.19785" lon="4.43554">
        <ele>676</ele>
        <time>2016-09-04T12:35:44.692Z</time>
      </trkpt>
      <trkpt lat="46.19777" lon="4.43548">
        <ele>678</ele>
        <time>2016-09-04T12:35:52.563Z</time>
      </trkpt>
      <trkpt lat="46.19767" lon="4.43546">
        <ele>678.20487644975</ele>
        <time>2016-09-04T12:36:00.586Z</time>
      </trkpt>
      <trkpt lat="46.1976" lon="4.43539">
        <ele>682</ele>
        <time>2016-09-04T12:36:09.587Z</time>
      </trkpt>
      <trkpt lat="46.19751" lon="4.43534">
        <ele>683.20000430256</ele>
        <time>2016-09-04T12:36:20.588Z</time>
      </trkpt>
      <trkpt lat="46.19742" lon="4.43527">
        <ele>684.20341115463</ele>
        <time>2016-09-04T12:36:31.588Z</time>
      </trkpt>
      <trkpt lat="46.19735" lon="4.43518">
        <ele>686.93728034017</ele>
        <time>2016-09-04T12:36:41.593Z</time>
      </trkpt>
      <trkpt lat="46.19724" lon="4.43511">
        <ele>687</ele>
        <time>2016-09-04T12:36:49.589Z</time>
      </trkpt>
      <trkpt lat="46.19715" lon="4.4351">
        <ele>689</ele>
        <time>2016-09-04T12:36:55.589Z</time>
      </trkpt>
      <trkpt lat="46.19706" lon="4.43503">
        <ele>689</ele>
        <time>2016-09-04T12:37:06.559Z</time>
      </trkpt>
      <trkpt lat="46.19695" lon="4.43502">
        <ele>689</ele>
        <time>2016-09-04T12:37:16.588Z</time>
      </trkpt>
      <trkpt lat="46.19687" lon="4.43491">
        <ele>689</ele>
        <time>2016-09-04T12:37:24.619Z</time>
      </trkpt>
      <trkpt lat="46.19677" lon="4.43489">
        <ele>689</ele>
        <time>2016-09-04T12:37:33.589Z</time>
      </trkpt>
      <trkpt lat="46.19665" lon="4.43481">
        <ele>688.77244883299</ele>
        <time>2016-09-04T12:37:42.593Z</time>
      </trkpt>
      <trkpt lat="46.19657" lon="4.43485">
        <ele>688</ele>
        <time>2016-09-04T12:37:48.589Z</time>
      </trkpt>
      <trkpt lat="46.19646" lon="4.43488">
        <ele>688</ele>
        <time>2016-09-04T12:37:59.619Z</time>
      </trkpt>
      <trkpt lat="46.19637" lon="4.43493">
        <ele>686</ele>
        <time>2016-09-04T12:38:06.592Z</time>
      </trkpt>
      <trkpt lat="46.1963" lon="4.43501">
        <ele>686</ele>
        <time>2016-09-04T12:38:12.593Z</time>
      </trkpt>
      <trkpt lat="46.19621" lon="4.43507">
        <ele>685</ele>
        <time>2016-09-04T12:38:21.693Z</time>
      </trkpt>
      <trkpt lat="46.19612" lon="4.43505">
        <ele>685</ele>
        <time>2016-09-04T12:38:26.588Z</time>
      </trkpt>
      <trkpt lat="46.19603" lon="4.43497">
        <ele>685</ele>
        <time>2016-09-04T12:38:33.618Z</time>
      </trkpt>
      <trkpt lat="46.19595" lon="4.4349">
        <ele>685</ele>
        <time>2016-09-04T12:38:39.589Z</time>
      </trkpt>
      <trkpt lat="46.19587" lon="4.43481">
        <ele>686</ele>
        <time>2016-09-04T12:38:47.589Z</time>
      </trkpt>
      <trkpt lat="46.19578" lon="4.43478">
        <ele>686</ele>
        <time>2016-09-04T12:38:56.589Z</time>
      </trkpt>
      <trkpt lat="46.1957" lon="4.43472">
        <ele>686</ele>
        <time>2016-09-04T12:39:02.589Z</time>
      </trkpt>
      <trkpt lat="46.19562" lon="4.43465">
        <ele>686</ele>
        <time>2016-09-04T12:39:12.589Z</time>
      </trkpt>
      <trkpt lat="46.19553" lon="4.43459">
        <ele>686</ele>
        <time>2016-09-04T12:39:20.590Z</time>
      </trkpt>
      <trkpt lat="46.19545" lon="4.43452">
        <ele>686</ele>
        <time>2016-09-04T12:39:27.588Z</time>
      </trkpt>
      <trkpt lat="46.19534" lon="4.43441">
        <ele>685</ele>
        <time>2016-09-04T12:39:37.589Z</time>
      </trkpt>
      <trkpt lat="46.19524" lon="4.43438">
        <ele>685</ele>
        <time>2016-09-04T12:39:42.590Z</time>
      </trkpt>
      <trkpt lat="46.19514" lon="4.4344">
        <ele>685</ele>
        <time>2016-09-04T12:39:50.589Z</time>
      </trkpt>
      <trkpt lat="46.19506" lon="4.43434">
        <ele>685</ele>
        <time>2016-09-04T12:39:59.592Z</time>
      </trkpt>
      <trkpt lat="46.19498" lon="4.43427">
        <ele>684</ele>
        <time>2016-09-04T12:40:05.589Z</time>
      </trkpt>
      <trkpt lat="46.19487" lon="4.43427">
        <ele>682</ele>
        <time>2016-09-04T12:40:14.563Z</time>
      </trkpt>
      <trkpt lat="46.19479" lon="4.4342">
        <ele>681.84023598994</ele>
        <time>2016-09-04T12:40:20.619Z</time>
      </trkpt>
      <trkpt lat="46.19473" lon="4.43434">
        <ele>681</ele>
        <time>2016-09-04T12:40:27.588Z</time>
      </trkpt>
      <trkpt lat="46.19469" lon="4.43446">
        <ele>680</ele>
        <time>2016-09-04T12:40:36.620Z</time>
      </trkpt>
      <trkpt lat="46.19465" lon="4.43459">
        <ele>678.7619968</ele>
        <time>2016-09-04T12:40:50.588Z</time>
      </trkpt>
      <trkpt lat="46.19458" lon="4.43476">
        <ele>676</ele>
        <time>2016-09-04T12:41:02.589Z</time>
      </trkpt>
      <trkpt lat="46.19451" lon="4.43486">
        <ele>676</ele>
        <time>2016-09-04T12:41:07.590Z</time>
      </trkpt>
      <trkpt lat="46.19446" lon="4.43497">
        <ele>676</ele>
        <time>2016-09-04T12:41:15.588Z</time>
      </trkpt>
      <trkpt lat="46.1944" lon="4.43509">
        <ele>676</ele>
        <time>2016-09-04T12:41:19.589Z</time>
      </trkpt>
      <trkpt lat="46.1943" lon="4.43504">
        <ele>675</ele>
        <time>2016-09-04T12:41:27.593Z</time>
      </trkpt>
      <trkpt lat="46.19422" lon="4.43496">
        <ele>675</ele>
        <time>2016-09-04T12:41:33.587Z</time>
      </trkpt>
      <trkpt lat="46.19415" lon="4.43487">
        <ele>675</ele>
        <time>2016-09-04T12:41:41.589Z</time>
      </trkpt>
      <trkpt lat="46.19412" lon="4.43475">
        <ele>675</ele>
        <time>2016-09-04T12:41:50.591Z</time>
      </trkpt>
      <trkpt lat="46.194" lon="4.43464">
        <ele>674</ele>
        <time>2016-09-04T12:42:02.589Z</time>
      </trkpt>
      <trkpt lat="46.1939" lon="4.43458">
        <ele>674</ele>
        <time>2016-09-04T12:42:09.596Z</time>
      </trkpt>
      <trkpt lat="46.19384" lon="4.43447">
        <ele>675</ele>
        <time>2016-09-04T12:42:16.589Z</time>
      </trkpt>
      <trkpt lat="46.19377" lon="4.43439">
        <ele>674.83673362765</ele>
        <time>2016-09-04T12:42:21.590Z</time>
      </trkpt>
      <trkpt lat="46.19372" lon="4.43426">
        <ele>673</ele>
        <time>2016-09-04T12:42:33.589Z</time>
      </trkpt>
      <trkpt lat="46.19364" lon="4.43419">
        <ele>673</ele>
        <time>2016-09-04T12:42:41.695Z</time>
      </trkpt>
      <trkpt lat="46.19355" lon="4.43414">
        <ele>672.77522909799</ele>
        <time>2016-09-04T12:42:51.604Z</time>
      </trkpt>
      <trkpt lat="46.19352" lon="4.43426">
        <ele>671.7609984</ele>
        <time>2016-09-04T12:43:10.589Z</time>
      </trkpt>
      <trkpt lat="46.19344" lon="4.43436">
        <ele>671</ele>
        <time>2016-09-04T12:43:20.586Z</time>
      </trkpt>
      <trkpt lat="46.1934" lon="4.43448">
        <ele>671</ele>
        <time>2016-09-04T12:43:29.589Z</time>
      </trkpt>
      <trkpt lat="46.19334" lon="4.43462">
        <ele>671</ele>
        <time>2016-09-04T12:43:38.618Z</time>
      </trkpt>
      <trkpt lat="46.19328" lon="4.43473">
        <ele>669</ele>
        <time>2016-09-04T12:43:45.589Z</time>
      </trkpt>
      <trkpt lat="46.19325" lon="4.43485">
        <ele>669</ele>
        <time>2016-09-04T12:43:53.694Z</time>
      </trkpt>
      <trkpt lat="46.19322" lon="4.43497">
        <ele>668</ele>
        <time>2016-09-04T12:43:59.589Z</time>
      </trkpt>
      <trkpt lat="46.1932" lon="4.43515">
        <ele>666</ele>
        <time>2016-09-04T12:44:11.585Z</time>
      </trkpt>
      <trkpt lat="46.1931" lon="4.43527">
        <ele>666</ele>
        <time>2016-09-04T12:44:21.589Z</time>
      </trkpt>
      <trkpt lat="46.19303" lon="4.43541">
        <ele>666</ele>
        <time>2016-09-04T12:44:30.589Z</time>
      </trkpt>
      <trkpt lat="46.19302" lon="4.43558">
        <ele>663</ele>
        <time>2016-09-04T12:44:39.589Z</time>
      </trkpt>
      <trkpt lat="46.19301" lon="4.43571">
        <ele>662</ele>
        <time>2016-09-04T12:44:44.589Z</time>
      </trkpt>
      <trkpt lat="46.193" lon="4.43585">
        <ele>661</ele>
        <time>2016-09-04T12:44:51.589Z</time>
      </trkpt>
      <trkpt lat="46.19298" lon="4.43601">
        <ele>658</ele>
        <time>2016-09-04T12:44:59.589Z</time>
      </trkpt>
      <trkpt lat="46.19296" lon="4.43614">
        <ele>658</ele>
        <time>2016-09-04T12:45:07.589Z</time>
      </trkpt>
      <trkpt lat="46.19293" lon="4.43627">
        <ele>658</ele>
        <time>2016-09-04T12:45:15.589Z</time>
      </trkpt>
      <trkpt lat="46.1929" lon="4.4364">
        <ele>657</ele>
        <time>2016-09-04T12:45:23.589Z</time>
      </trkpt>
      <trkpt lat="46.19286" lon="4.43653">
        <ele>657</ele>
        <time>2016-09-04T12:45:31.589Z</time>
      </trkpt>
      <trkpt lat="46.19283" lon="4.43666">
        <ele>655.29797189189</ele>
        <time>2016-09-04T12:45:39.589Z</time>
      </trkpt>
      <trkpt lat="46.19281" lon="4.43679">
        <ele>655</ele>
        <time>2016-09-04T12:45:47.589Z</time>
      </trkpt>
      <trkpt lat="46.19281" lon="4.43693">
        <ele>655</ele>
        <time>2016-09-04T12:45:54.561Z</time>
      </trkpt>
      <trkpt lat="46.19284" lon="4.43706">
        <ele>654</ele>
        <time>2016-09-04T12:46:10.724Z</time>
      </trkpt>
      <trkpt lat="46.19293" lon="4.43708">
        <ele>654</ele>
        <time>2016-09-04T12:46:16.589Z</time>
      </trkpt>
      <trkpt lat="46.19304" lon="4.43718">
        <ele>654</ele>
        <time>2016-09-04T12:46:26.619Z</time>
      </trkpt>
      <trkpt lat="46.19312" lon="4.43725">
        <ele>654</ele>
        <time>2016-09-04T12:46:40.589Z</time>
      </trkpt>
      <trkpt lat="46.1932" lon="4.43731">
        <ele>654</ele>
        <time>2016-09-04T12:46:47.589Z</time>
      </trkpt>
      <trkpt lat="46.19329" lon="4.43736">
        <ele>654</ele>
        <time>2016-09-04T12:46:55.589Z</time>
      </trkpt>
      <trkpt lat="46.19338" lon="4.43741">
        <ele>654</ele>
        <time>2016-09-04T12:47:02.589Z</time>
      </trkpt>
      <trkpt lat="46.19347" lon="4.43746">
        <ele>654</ele>
        <time>2016-09-04T12:47:09.589Z</time>
      </trkpt>
      <trkpt lat="46.19357" lon="4.4375">
        <ele>655</ele>
        <time>2016-09-04T12:47:17.589Z</time>
      </trkpt>
      <trkpt lat="46.19366" lon="4.43754">
        <ele>655</ele>
        <time>2016-09-04T12:47:32.690Z</time>
      </trkpt>
      <trkpt lat="46.19357" lon="4.4375">
        <ele>654</ele>
        <time>2016-09-04T12:47:49.587Z</time>
      </trkpt>
      <trkpt lat="46.19348" lon="4.43743">
        <ele>654</ele>
        <time>2016-09-04T12:47:56.587Z</time>
      </trkpt>
      <trkpt lat="46.19339" lon="4.4375">
        <ele>654</ele>
        <time>2016-09-04T12:48:02.589Z</time>
      </trkpt>
      <trkpt lat="46.19329" lon="4.43742">
        <ele>654</ele>
        <time>2016-09-04T12:48:12.367Z</time>
      </trkpt>
      <trkpt lat="46.1932" lon="4.43738">
        <ele>655</ele>
        <time>2016-09-04T12:48:21.615Z</time>
      </trkpt>
      <trkpt lat="46.19312" lon="4.43733">
        <ele>655</ele>
        <time>2016-09-04T12:48:28.620Z</time>
      </trkpt>
      <trkpt lat="46.19306" lon="4.43722">
        <ele>655</ele>
        <time>2016-09-04T12:48:35.564Z</time>
      </trkpt>
      <trkpt lat="46.19297" lon="4.43716">
        <ele>655</ele>
        <time>2016-09-04T12:48:44.615Z</time>
      </trkpt>
      <trkpt lat="46.19289" lon="4.43713">
        <ele>655</ele>
        <time>2016-09-04T12:48:53.592Z</time>
      </trkpt>
      <trkpt lat="46.1928" lon="4.43708">
        <ele>655</ele>
        <time>2016-09-04T12:48:59.592Z</time>
      </trkpt>
      <trkpt lat="46.19271" lon="4.43705">
        <ele>655</ele>
        <time>2016-09-04T12:49:04.587Z</time>
      </trkpt>
      <trkpt lat="46.19263" lon="4.43699">
        <ele>655</ele>
        <time>2016-09-04T12:49:13.591Z</time>
      </trkpt>
      <trkpt lat="46.19253" lon="4.43697">
        <ele>654</ele>
        <time>2016-09-04T12:49:22.589Z</time>
      </trkpt>
      <trkpt lat="46.19241" lon="4.43704">
        <ele>656</ele>
        <time>2016-09-04T12:49:28.590Z</time>
      </trkpt>
      <trkpt lat="46.19232" lon="4.43706">
        <ele>656</ele>
        <time>2016-09-04T12:49:35.614Z</time>
      </trkpt>
      <trkpt lat="46.19215" lon="4.43722">
        <ele>656</ele>
        <time>2016-09-04T12:49:43.591Z</time>
      </trkpt>
      <trkpt lat="46.19205" lon="4.43722">
        <ele>655</ele>
        <time>2016-09-04T12:49:52.589Z</time>
      </trkpt>
      <trkpt lat="46.19194" lon="4.43725">
        <ele>657</ele>
        <time>2016-09-04T12:50:00.625Z</time>
      </trkpt>
      <trkpt lat="46.19182" lon="4.43728">
        <ele>657</ele>
        <time>2016-09-04T12:50:07.583Z</time>
      </trkpt>
      <trkpt lat="46.19186" lon="4.43716">
        <ele>657</ele>
        <time>2016-09-04T12:50:08.594Z</time>
      </trkpt>
      <trkpt lat="46.19175" lon="4.43711">
        <ele>657</ele>
        <time>2016-09-04T12:50:18.592Z</time>
      </trkpt>
      <trkpt lat="46.19166" lon="4.43708">
        <ele>657</ele>
        <time>2016-09-04T12:50:27.589Z</time>
      </trkpt>
      <trkpt lat="46.19158" lon="4.43699">
        <ele>657</ele>
        <time>2016-09-04T12:50:35.589Z</time>
      </trkpt>
      <trkpt lat="46.19149" lon="4.437">
        <ele>657</ele>
        <time>2016-09-04T12:50:40.589Z</time>
      </trkpt>
      <trkpt lat="46.19142" lon="4.43708">
        <ele>657</ele>
        <time>2016-09-04T12:50:45.589Z</time>
      </trkpt>
      <trkpt lat="46.19129" lon="4.43709">
        <ele>657</ele>
        <time>2016-09-04T12:51:00.424Z</time>
      </trkpt>
      <trkpt lat="46.19118" lon="4.43711">
        <ele>657</ele>
        <time>2016-09-04T12:51:06.589Z</time>
      </trkpt>
      <trkpt lat="46.19108" lon="4.43709">
        <ele>658</ele>
        <time>2016-09-04T12:51:14.589Z</time>
      </trkpt>
      <trkpt lat="46.19098" lon="4.43709">
        <ele>658</ele>
        <time>2016-09-04T12:51:23.589Z</time>
      </trkpt>
      <trkpt lat="46.19095" lon="4.43721">
        <ele>658</ele>
        <time>2016-09-04T12:51:27.589Z</time>
      </trkpt>
      <trkpt lat="46.19092" lon="4.43738">
        <ele>658</ele>
        <time>2016-09-04T12:51:38.618Z</time>
      </trkpt>
      <trkpt lat="46.19096" lon="4.4375">
        <ele>659</ele>
        <time>2016-09-04T12:51:52.618Z</time>
      </trkpt>
      <trkpt lat="46.19104" lon="4.43761">
        <ele>659</ele>
        <time>2016-09-04T12:51:59.020Z</time>
      </trkpt>
      <trkpt lat="46.19095" lon="4.43763">
        <ele>660</ele>
        <time>2016-09-04T12:52:28.589Z</time>
      </trkpt>
      <trkpt lat="46.19098" lon="4.43768">
        <ele>660.00267969933</ele>
        <time>2016-09-04T12:53:36.589Z</time>
      </trkpt>
    </trkseg>
  </trk>
</gpx>